<?xml version="1.0" encoding="UTF-8" standalone="no" ?>
<gpx xmlns="http://www.topografix.com/GPX/1/1" xmlns:xsi="http://www.w3.org/2001/XMLSchema-instance" xsi:schemaLocation="http://www.topografix.com/GPX/1/1 http://www.topografix.com/GPX/1/1/gpx.xsd" version="1.1" creator="VisuGPX - https://www.visugpx.com">
  <metadata>
    <name>08-MAI-21 16:17:20</name>
    <desc><![CDATA[magnifique rando vttae sur le ferion, autour de levens]]></desc>
  </metadata>
  <trk>
    <name><![CDATA[08-MAI-21 16:17:20]]></name>
    <extensions>
      <line xmlns="http://www.topografix.com/GPX/gpx_style/0/2">
        <color>0000FF</color>
        <width>4</width>
      </line>
    </extensions>
    <trkseg>
      <trkpt lat="43.86026" lon="7.22894">
        <ele>451</ele>
        <time>2021-05-08T11:33:20Z</time>
      </trkpt>
      <trkpt lat="43.86026" lon="7.22892">
        <ele>451.48</ele>
        <time>2021-05-08T11:33:21Z</time>
      </trkpt>
      <trkpt lat="43.86037" lon="7.22885">
        <ele>451.48</ele>
        <time>2021-05-08T11:33:41Z</time>
      </trkpt>
      <trkpt lat="43.86041" lon="7.22886">
        <ele>451.48</ele>
        <time>2021-05-08T11:33:48Z</time>
      </trkpt>
      <trkpt lat="43.86043" lon="7.22886">
        <ele>451.48</ele>
        <time>2021-05-08T11:33:50Z</time>
      </trkpt>
      <trkpt lat="43.86063" lon="7.22895">
        <ele>451.96</ele>
        <time>2021-05-08T11:34:08Z</time>
      </trkpt>
      <trkpt lat="43.86032" lon="7.22895">
        <ele>452.44</ele>
        <time>2021-05-08T11:34:26Z</time>
      </trkpt>
      <trkpt lat="43.86023" lon="7.22896">
        <ele>453.88</ele>
        <time>2021-05-08T11:34:58Z</time>
      </trkpt>
      <trkpt lat="43.86026" lon="7.22897">
        <ele>454.84</ele>
        <time>2021-05-08T11:35:22Z</time>
      </trkpt>
      <trkpt lat="43.86026" lon="7.22898">
        <ele>455.8</ele>
        <time>2021-05-08T11:35:49Z</time>
      </trkpt>
      <trkpt lat="43.86026" lon="7.22898">
        <ele>455.8</ele>
        <time>2021-05-08T11:35:56Z</time>
      </trkpt>
      <trkpt lat="43.86022" lon="7.22907">
        <ele>455.8</ele>
        <time>2021-05-08T11:36:01Z</time>
      </trkpt>
      <trkpt lat="43.86016" lon="7.22912">
        <ele>455.8</ele>
        <time>2021-05-08T11:36:09Z</time>
      </trkpt>
      <trkpt lat="43.86011" lon="7.22914">
        <ele>455.8</ele>
        <time>2021-05-08T11:36:12Z</time>
      </trkpt>
      <trkpt lat="43.86009" lon="7.22915">
        <ele>455.8</ele>
        <time>2021-05-08T11:36:13Z</time>
      </trkpt>
      <trkpt lat="43.86008" lon="7.22917">
        <ele>455.32</ele>
        <time>2021-05-08T11:36:15Z</time>
      </trkpt>
      <trkpt lat="43.85995" lon="7.2293">
        <ele>454.36</ele>
        <time>2021-05-08T11:36:27Z</time>
      </trkpt>
      <trkpt lat="43.85965" lon="7.22952">
        <ele>455.32</ele>
        <time>2021-05-08T11:36:54Z</time>
      </trkpt>
      <trkpt lat="43.85965" lon="7.22952">
        <ele>456.28</ele>
        <time>2021-05-08T11:37:13Z</time>
      </trkpt>
      <trkpt lat="43.85965" lon="7.22954">
        <ele>457.24</ele>
        <time>2021-05-08T11:37:35Z</time>
      </trkpt>
      <trkpt lat="43.85944" lon="7.22979">
        <ele>457.24</ele>
        <time>2021-05-08T11:37:46Z</time>
      </trkpt>
      <trkpt lat="43.85903" lon="7.2302">
        <ele>457.24</ele>
        <time>2021-05-08T11:37:59Z</time>
      </trkpt>
      <trkpt lat="43.85882" lon="7.23034">
        <ele>456.28</ele>
        <time>2021-05-08T11:38:04Z</time>
      </trkpt>
      <trkpt lat="43.85878" lon="7.23035">
        <ele>456.76</ele>
        <time>2021-05-08T11:38:05Z</time>
      </trkpt>
      <trkpt lat="43.85839" lon="7.23035">
        <ele>457.24</ele>
        <time>2021-05-08T11:38:17Z</time>
      </trkpt>
      <trkpt lat="43.85801" lon="7.2303">
        <ele>458.21</ele>
        <time>2021-05-08T11:38:30Z</time>
      </trkpt>
      <trkpt lat="43.85765" lon="7.23031">
        <ele>458.21</ele>
        <time>2021-05-08T11:38:40Z</time>
      </trkpt>
      <trkpt lat="43.8572" lon="7.23061">
        <ele>458.21</ele>
        <time>2021-05-08T11:38:53Z</time>
      </trkpt>
      <trkpt lat="43.85681" lon="7.23104">
        <ele>459.17</ele>
        <time>2021-05-08T11:39:06Z</time>
      </trkpt>
      <trkpt lat="43.85677" lon="7.2311">
        <ele>459.17</ele>
        <time>2021-05-08T11:39:08Z</time>
      </trkpt>
      <trkpt lat="43.85677" lon="7.23114">
        <ele>459.17</ele>
        <time>2021-05-08T11:39:09Z</time>
      </trkpt>
      <trkpt lat="43.85677" lon="7.23118">
        <ele>459.65</ele>
        <time>2021-05-08T11:39:10Z</time>
      </trkpt>
      <trkpt lat="43.85677" lon="7.23122">
        <ele>459.65</ele>
        <time>2021-05-08T11:39:11Z</time>
      </trkpt>
      <trkpt lat="43.85677" lon="7.23126">
        <ele>460.13</ele>
        <time>2021-05-08T11:39:12Z</time>
      </trkpt>
      <trkpt lat="43.85676" lon="7.23129">
        <ele>460.61</ele>
        <time>2021-05-08T11:39:13Z</time>
      </trkpt>
      <trkpt lat="43.85675" lon="7.23131">
        <ele>461.09</ele>
        <time>2021-05-08T11:39:14Z</time>
      </trkpt>
      <trkpt lat="43.85673" lon="7.23132">
        <ele>461.57</ele>
        <time>2021-05-08T11:39:15Z</time>
      </trkpt>
      <trkpt lat="43.85647" lon="7.23155">
        <ele>463.97</ele>
        <time>2021-05-08T11:39:29Z</time>
      </trkpt>
      <trkpt lat="43.85628" lon="7.23165">
        <ele>466.38</ele>
        <time>2021-05-08T11:39:39Z</time>
      </trkpt>
      <trkpt lat="43.85605" lon="7.23194">
        <ele>468.78</ele>
        <time>2021-05-08T11:39:54Z</time>
      </trkpt>
      <trkpt lat="43.85576" lon="7.2324">
        <ele>470.7</ele>
        <time>2021-05-08T11:40:13Z</time>
      </trkpt>
      <trkpt lat="43.85548" lon="7.23267">
        <ele>472.63</ele>
        <time>2021-05-08T11:40:29Z</time>
      </trkpt>
      <trkpt lat="43.85529" lon="7.23287">
        <ele>473.11</ele>
        <time>2021-05-08T11:40:40Z</time>
      </trkpt>
      <trkpt lat="43.85529" lon="7.2329">
        <ele>473.59</ele>
        <time>2021-05-08T11:40:41Z</time>
      </trkpt>
      <trkpt lat="43.85525" lon="7.23331">
        <ele>476.47</ele>
        <time>2021-05-08T11:40:56Z</time>
      </trkpt>
      <trkpt lat="43.8552" lon="7.23348">
        <ele>477.43</ele>
        <time>2021-05-08T11:41:04Z</time>
      </trkpt>
      <trkpt lat="43.85518" lon="7.23349">
        <ele>477.43</ele>
        <time>2021-05-08T11:41:05Z</time>
      </trkpt>
      <trkpt lat="43.85517" lon="7.23351">
        <ele>477.91</ele>
        <time>2021-05-08T11:41:06Z</time>
      </trkpt>
      <trkpt lat="43.85516" lon="7.23352">
        <ele>477.91</ele>
        <time>2021-05-08T11:41:07Z</time>
      </trkpt>
      <trkpt lat="43.85514" lon="7.23353">
        <ele>478.39</ele>
        <time>2021-05-08T11:41:08Z</time>
      </trkpt>
      <trkpt lat="43.85512" lon="7.23354">
        <ele>478.39</ele>
        <time>2021-05-08T11:41:09Z</time>
      </trkpt>
      <trkpt lat="43.85511" lon="7.23355">
        <ele>478.87</ele>
        <time>2021-05-08T11:41:10Z</time>
      </trkpt>
      <trkpt lat="43.85505" lon="7.23359">
        <ele>478.87</ele>
        <time>2021-05-08T11:41:14Z</time>
      </trkpt>
      <trkpt lat="43.85503" lon="7.23359">
        <ele>479.35</ele>
        <time>2021-05-08T11:41:15Z</time>
      </trkpt>
      <trkpt lat="43.85502" lon="7.2336">
        <ele>479.35</ele>
        <time>2021-05-08T11:41:16Z</time>
      </trkpt>
      <trkpt lat="43.85501" lon="7.23361">
        <ele>479.84</ele>
        <time>2021-05-08T11:41:17Z</time>
      </trkpt>
      <trkpt lat="43.855" lon="7.23362">
        <ele>479.84</ele>
        <time>2021-05-08T11:41:18Z</time>
      </trkpt>
      <trkpt lat="43.85498" lon="7.23363">
        <ele>479.84</ele>
        <time>2021-05-08T11:41:19Z</time>
      </trkpt>
      <trkpt lat="43.85497" lon="7.23363">
        <ele>480.32</ele>
        <time>2021-05-08T11:41:20Z</time>
      </trkpt>
      <trkpt lat="43.85496" lon="7.23365">
        <ele>480.32</ele>
        <time>2021-05-08T11:41:21Z</time>
      </trkpt>
      <trkpt lat="43.85495" lon="7.23366">
        <ele>480.32</ele>
        <time>2021-05-08T11:41:22Z</time>
      </trkpt>
      <trkpt lat="43.85494" lon="7.23368">
        <ele>480.8</ele>
        <time>2021-05-08T11:41:23Z</time>
      </trkpt>
      <trkpt lat="43.85493" lon="7.2337">
        <ele>480.8</ele>
        <time>2021-05-08T11:41:24Z</time>
      </trkpt>
      <trkpt lat="43.85492" lon="7.23371">
        <ele>480.8</ele>
        <time>2021-05-08T11:41:25Z</time>
      </trkpt>
      <trkpt lat="43.85492" lon="7.23373">
        <ele>481.28</ele>
        <time>2021-05-08T11:41:26Z</time>
      </trkpt>
      <trkpt lat="43.85482" lon="7.23405">
        <ele>484.16</ele>
        <time>2021-05-08T11:41:40Z</time>
      </trkpt>
      <trkpt lat="43.8548" lon="7.23406">
        <ele>484.64</ele>
        <time>2021-05-08T11:41:41Z</time>
      </trkpt>
      <trkpt lat="43.85468" lon="7.23413">
        <ele>485.6</ele>
        <time>2021-05-08T11:41:48Z</time>
      </trkpt>
      <trkpt lat="43.85467" lon="7.23414">
        <ele>486.08</ele>
        <time>2021-05-08T11:41:49Z</time>
      </trkpt>
      <trkpt lat="43.85464" lon="7.23417">
        <ele>486.08</ele>
        <time>2021-05-08T11:41:51Z</time>
      </trkpt>
      <trkpt lat="43.85462" lon="7.23418">
        <ele>486.56</ele>
        <time>2021-05-08T11:41:52Z</time>
      </trkpt>
      <trkpt lat="43.85456" lon="7.23419">
        <ele>487.05</ele>
        <time>2021-05-08T11:42:06Z</time>
      </trkpt>
      <trkpt lat="43.85455" lon="7.23419">
        <ele>487.53</ele>
        <time>2021-05-08T11:42:11Z</time>
      </trkpt>
      <trkpt lat="43.8545" lon="7.23421">
        <ele>488.01</ele>
        <time>2021-05-08T11:42:22Z</time>
      </trkpt>
      <trkpt lat="43.85424" lon="7.23444">
        <ele>489.45</ele>
        <time>2021-05-08T11:42:36Z</time>
      </trkpt>
      <trkpt lat="43.85406" lon="7.23471">
        <ele>490.89</ele>
        <time>2021-05-08T11:42:48Z</time>
      </trkpt>
      <trkpt lat="43.85384" lon="7.23506">
        <ele>493.77</ele>
        <time>2021-05-08T11:43:02Z</time>
      </trkpt>
      <trkpt lat="43.85366" lon="7.23554">
        <ele>496.18</ele>
        <time>2021-05-08T11:43:19Z</time>
      </trkpt>
      <trkpt lat="43.85355" lon="7.23589">
        <ele>498.58</ele>
        <time>2021-05-08T11:43:33Z</time>
      </trkpt>
      <trkpt lat="43.85349" lon="7.23626">
        <ele>501.46</ele>
        <time>2021-05-08T11:43:49Z</time>
      </trkpt>
      <trkpt lat="43.85349" lon="7.23659">
        <ele>504.35</ele>
        <time>2021-05-08T11:44:03Z</time>
      </trkpt>
      <trkpt lat="43.85351" lon="7.23692">
        <ele>507.23</ele>
        <time>2021-05-08T11:44:17Z</time>
      </trkpt>
      <trkpt lat="43.85353" lon="7.23725">
        <ele>510.12</ele>
        <time>2021-05-08T11:44:31Z</time>
      </trkpt>
      <trkpt lat="43.85356" lon="7.23766">
        <ele>512.52</ele>
        <time>2021-05-08T11:44:48Z</time>
      </trkpt>
      <trkpt lat="43.85357" lon="7.23781">
        <ele>513.48</ele>
        <time>2021-05-08T11:44:55Z</time>
      </trkpt>
      <trkpt lat="43.85358" lon="7.23783">
        <ele>513.48</ele>
        <time>2021-05-08T11:44:56Z</time>
      </trkpt>
      <trkpt lat="43.85358" lon="7.23785">
        <ele>513.48</ele>
        <time>2021-05-08T11:44:57Z</time>
      </trkpt>
      <trkpt lat="43.85359" lon="7.23788">
        <ele>513.48</ele>
        <time>2021-05-08T11:44:58Z</time>
      </trkpt>
      <trkpt lat="43.85359" lon="7.2379">
        <ele>513.96</ele>
        <time>2021-05-08T11:44:59Z</time>
      </trkpt>
      <trkpt lat="43.85359" lon="7.23792">
        <ele>513.96</ele>
        <time>2021-05-08T11:45:00Z</time>
      </trkpt>
      <trkpt lat="43.85359" lon="7.23795">
        <ele>513.96</ele>
        <time>2021-05-08T11:45:01Z</time>
      </trkpt>
      <trkpt lat="43.85359" lon="7.23798">
        <ele>513.96</ele>
        <time>2021-05-08T11:45:02Z</time>
      </trkpt>
      <trkpt lat="43.85359" lon="7.23801">
        <ele>514.44</ele>
        <time>2021-05-08T11:45:03Z</time>
      </trkpt>
      <trkpt lat="43.85359" lon="7.23805">
        <ele>514.92</ele>
        <time>2021-05-08T11:45:04Z</time>
      </trkpt>
      <trkpt lat="43.85361" lon="7.23861">
        <ele>516.37</ele>
        <time>2021-05-08T11:45:21Z</time>
      </trkpt>
      <trkpt lat="43.85363" lon="7.23916">
        <ele>518.29</ele>
        <time>2021-05-08T11:45:38Z</time>
      </trkpt>
      <trkpt lat="43.85368" lon="7.23976">
        <ele>520.69</ele>
        <time>2021-05-08T11:45:56Z</time>
      </trkpt>
      <trkpt lat="43.85375" lon="7.24005">
        <ele>523.09</ele>
        <time>2021-05-08T11:46:06Z</time>
      </trkpt>
      <trkpt lat="43.85376" lon="7.24007">
        <ele>523.58</ele>
        <time>2021-05-08T11:46:07Z</time>
      </trkpt>
      <trkpt lat="43.85389" lon="7.24042">
        <ele>526.46</ele>
        <time>2021-05-08T11:46:23Z</time>
      </trkpt>
      <trkpt lat="43.85404" lon="7.2409">
        <ele>528.38</ele>
        <time>2021-05-08T11:46:39Z</time>
      </trkpt>
      <trkpt lat="43.85429" lon="7.24136">
        <ele>530.3</ele>
        <time>2021-05-08T11:46:56Z</time>
      </trkpt>
      <trkpt lat="43.85453" lon="7.24161">
        <ele>532.23</ele>
        <time>2021-05-08T11:47:09Z</time>
      </trkpt>
      <trkpt lat="43.85481" lon="7.24181">
        <ele>533.19</ele>
        <time>2021-05-08T11:47:22Z</time>
      </trkpt>
      <trkpt lat="43.85511" lon="7.24225">
        <ele>535.11</ele>
        <time>2021-05-08T11:47:39Z</time>
      </trkpt>
      <trkpt lat="43.85532" lon="7.24264">
        <ele>537.03</ele>
        <time>2021-05-08T11:47:53Z</time>
      </trkpt>
      <trkpt lat="43.85561" lon="7.24304">
        <ele>538.48</ele>
        <time>2021-05-08T11:48:09Z</time>
      </trkpt>
      <trkpt lat="43.8559" lon="7.24331">
        <ele>539.44</ele>
        <time>2021-05-08T11:48:24Z</time>
      </trkpt>
      <trkpt lat="43.85617" lon="7.2434">
        <ele>542.32</ele>
        <time>2021-05-08T11:48:39Z</time>
      </trkpt>
      <trkpt lat="43.85629" lon="7.24339">
        <ele>543.28</ele>
        <time>2021-05-08T11:48:46Z</time>
      </trkpt>
      <trkpt lat="43.85631" lon="7.24339">
        <ele>543.76</ele>
        <time>2021-05-08T11:48:47Z</time>
      </trkpt>
      <trkpt lat="43.85632" lon="7.24341">
        <ele>543.76</ele>
        <time>2021-05-08T11:48:48Z</time>
      </trkpt>
      <trkpt lat="43.85632" lon="7.24344">
        <ele>544.24</ele>
        <time>2021-05-08T11:48:49Z</time>
      </trkpt>
      <trkpt lat="43.85632" lon="7.24346">
        <ele>544.72</ele>
        <time>2021-05-08T11:48:50Z</time>
      </trkpt>
      <trkpt lat="43.85632" lon="7.24349">
        <ele>544.72</ele>
        <time>2021-05-08T11:48:51Z</time>
      </trkpt>
      <trkpt lat="43.85631" lon="7.24351">
        <ele>544.72</ele>
        <time>2021-05-08T11:48:52Z</time>
      </trkpt>
      <trkpt lat="43.8563" lon="7.24352">
        <ele>545.2</ele>
        <time>2021-05-08T11:48:53Z</time>
      </trkpt>
      <trkpt lat="43.85597" lon="7.24379">
        <ele>545.2</ele>
        <time>2021-05-08T11:49:06Z</time>
      </trkpt>
      <trkpt lat="43.85562" lon="7.24422">
        <ele>546.17</ele>
        <time>2021-05-08T11:49:21Z</time>
      </trkpt>
      <trkpt lat="43.85564" lon="7.24464">
        <ele>547.13</ele>
        <time>2021-05-08T11:49:32Z</time>
      </trkpt>
      <trkpt lat="43.85584" lon="7.24497">
        <ele>548.57</ele>
        <time>2021-05-08T11:49:44Z</time>
      </trkpt>
      <trkpt lat="43.85613" lon="7.24527">
        <ele>550.01</ele>
        <time>2021-05-08T11:49:58Z</time>
      </trkpt>
      <trkpt lat="43.85643" lon="7.24569">
        <ele>550.49</ele>
        <time>2021-05-08T11:50:13Z</time>
      </trkpt>
      <trkpt lat="43.85662" lon="7.24603">
        <ele>548.09</ele>
        <time>2021-05-08T11:50:19Z</time>
      </trkpt>
      <trkpt lat="43.85666" lon="7.24608">
        <ele>548.09</ele>
        <time>2021-05-08T11:50:20Z</time>
      </trkpt>
      <trkpt lat="43.8567" lon="7.24613">
        <ele>548.09</ele>
        <time>2021-05-08T11:50:21Z</time>
      </trkpt>
      <trkpt lat="43.85673" lon="7.24617">
        <ele>548.09</ele>
        <time>2021-05-08T11:50:22Z</time>
      </trkpt>
      <trkpt lat="43.85675" lon="7.2462">
        <ele>548.09</ele>
        <time>2021-05-08T11:50:23Z</time>
      </trkpt>
      <trkpt lat="43.85684" lon="7.24631">
        <ele>549.53</ele>
        <time>2021-05-08T11:50:33Z</time>
      </trkpt>
      <trkpt lat="43.85689" lon="7.24632">
        <ele>550.01</ele>
        <time>2021-05-08T11:50:46Z</time>
      </trkpt>
      <trkpt lat="43.85693" lon="7.24636">
        <ele>550.01</ele>
        <time>2021-05-08T11:50:53Z</time>
      </trkpt>
      <trkpt lat="43.85694" lon="7.24636">
        <ele>550.49</ele>
        <time>2021-05-08T11:50:54Z</time>
      </trkpt>
      <trkpt lat="43.85717" lon="7.24645">
        <ele>552.9</ele>
        <time>2021-05-08T11:51:08Z</time>
      </trkpt>
      <trkpt lat="43.85719" lon="7.24645">
        <ele>552.9</ele>
        <time>2021-05-08T11:51:09Z</time>
      </trkpt>
      <trkpt lat="43.8572" lon="7.24646">
        <ele>553.38</ele>
        <time>2021-05-08T11:51:10Z</time>
      </trkpt>
      <trkpt lat="43.85722" lon="7.24646">
        <ele>553.38</ele>
        <time>2021-05-08T11:51:11Z</time>
      </trkpt>
      <trkpt lat="43.85724" lon="7.24647">
        <ele>553.38</ele>
        <time>2021-05-08T11:51:12Z</time>
      </trkpt>
      <trkpt lat="43.85726" lon="7.24648">
        <ele>553.86</ele>
        <time>2021-05-08T11:51:13Z</time>
      </trkpt>
      <trkpt lat="43.85738" lon="7.24655">
        <ele>555.3</ele>
        <time>2021-05-08T11:51:20Z</time>
      </trkpt>
      <trkpt lat="43.85739" lon="7.24656">
        <ele>555.3</ele>
        <time>2021-05-08T11:51:21Z</time>
      </trkpt>
      <trkpt lat="43.85753" lon="7.24665">
        <ele>557.7</ele>
        <time>2021-05-08T11:51:31Z</time>
      </trkpt>
      <trkpt lat="43.85765" lon="7.24673">
        <ele>559.62</ele>
        <time>2021-05-08T11:51:42Z</time>
      </trkpt>
      <trkpt lat="43.85775" lon="7.2468">
        <ele>561.07</ele>
        <time>2021-05-08T11:51:54Z</time>
      </trkpt>
      <trkpt lat="43.8578" lon="7.24685">
        <ele>562.03</ele>
        <time>2021-05-08T11:52:07Z</time>
      </trkpt>
      <trkpt lat="43.8578" lon="7.24686">
        <ele>562.03</ele>
        <time>2021-05-08T11:52:08Z</time>
      </trkpt>
      <trkpt lat="43.85785" lon="7.24699">
        <ele>564.43</ele>
        <time>2021-05-08T11:52:22Z</time>
      </trkpt>
      <trkpt lat="43.85796" lon="7.24717">
        <ele>567.32</ele>
        <time>2021-05-08T11:52:38Z</time>
      </trkpt>
      <trkpt lat="43.858" lon="7.24725">
        <ele>569.24</ele>
        <time>2021-05-08T11:52:52Z</time>
      </trkpt>
      <trkpt lat="43.85808" lon="7.24747">
        <ele>572.12</ele>
        <time>2021-05-08T11:53:09Z</time>
      </trkpt>
      <trkpt lat="43.85813" lon="7.24751">
        <ele>573.08</ele>
        <time>2021-05-08T11:53:14Z</time>
      </trkpt>
      <trkpt lat="43.85814" lon="7.24751">
        <ele>573.56</ele>
        <time>2021-05-08T11:53:15Z</time>
      </trkpt>
      <trkpt lat="43.85815" lon="7.24751">
        <ele>573.56</ele>
        <time>2021-05-08T11:53:16Z</time>
      </trkpt>
      <trkpt lat="43.85817" lon="7.24749">
        <ele>574.53</ele>
        <time>2021-05-08T11:53:18Z</time>
      </trkpt>
      <trkpt lat="43.85818" lon="7.24747">
        <ele>574.04</ele>
        <time>2021-05-08T11:53:19Z</time>
      </trkpt>
      <trkpt lat="43.85818" lon="7.24746">
        <ele>574.04</ele>
        <time>2021-05-08T11:53:20Z</time>
      </trkpt>
      <trkpt lat="43.85818" lon="7.24745">
        <ele>574.53</ele>
        <time>2021-05-08T11:53:21Z</time>
      </trkpt>
      <trkpt lat="43.85818" lon="7.24742">
        <ele>574.53</ele>
        <time>2021-05-08T11:53:23Z</time>
      </trkpt>
      <trkpt lat="43.85818" lon="7.2474">
        <ele>575.01</ele>
        <time>2021-05-08T11:53:24Z</time>
      </trkpt>
      <trkpt lat="43.85812" lon="7.2472">
        <ele>577.41</ele>
        <time>2021-05-08T11:53:39Z</time>
      </trkpt>
      <trkpt lat="43.85807" lon="7.24693">
        <ele>579.33</ele>
        <time>2021-05-08T11:53:56Z</time>
      </trkpt>
      <trkpt lat="43.85802" lon="7.24676">
        <ele>580.77</ele>
        <time>2021-05-08T11:54:08Z</time>
      </trkpt>
      <trkpt lat="43.858" lon="7.24662">
        <ele>581.73</ele>
        <time>2021-05-08T11:54:22Z</time>
      </trkpt>
      <trkpt lat="43.85798" lon="7.24664">
        <ele>581.25</ele>
        <time>2021-05-08T11:54:33Z</time>
      </trkpt>
      <trkpt lat="43.85798" lon="7.24664">
        <ele>581.73</ele>
        <time>2021-05-08T11:54:44Z</time>
      </trkpt>
      <trkpt lat="43.85798" lon="7.24665">
        <ele>582.22</ele>
        <time>2021-05-08T11:55:10Z</time>
      </trkpt>
      <trkpt lat="43.85798" lon="7.24665">
        <ele>582.7</ele>
        <time>2021-05-08T11:55:42Z</time>
      </trkpt>
      <trkpt lat="43.85798" lon="7.24665">
        <ele>583.18</ele>
        <time>2021-05-08T11:56:11Z</time>
      </trkpt>
      <trkpt lat="43.85798" lon="7.24665">
        <ele>583.66</ele>
        <time>2021-05-08T11:56:41Z</time>
      </trkpt>
      <trkpt lat="43.85799" lon="7.24665">
        <ele>584.14</ele>
        <time>2021-05-08T11:57:12Z</time>
      </trkpt>
      <trkpt lat="43.85797" lon="7.24664">
        <ele>585.1</ele>
        <time>2021-05-08T11:57:48Z</time>
      </trkpt>
      <trkpt lat="43.85797" lon="7.24664">
        <ele>585.1</ele>
        <time>2021-05-08T11:58:26Z</time>
      </trkpt>
      <trkpt lat="43.85799" lon="7.24666">
        <ele>586.06</ele>
        <time>2021-05-08T11:59:05Z</time>
      </trkpt>
      <trkpt lat="43.85799" lon="7.24665">
        <ele>587.02</ele>
        <time>2021-05-08T11:59:37Z</time>
      </trkpt>
      <trkpt lat="43.85798" lon="7.24666">
        <ele>587.98</ele>
        <time>2021-05-08T12:00:16Z</time>
      </trkpt>
      <trkpt lat="43.85798" lon="7.24666">
        <ele>587.98</ele>
        <time>2021-05-08T12:00:45Z</time>
      </trkpt>
      <trkpt lat="43.85799" lon="7.24666">
        <ele>588.46</ele>
        <time>2021-05-08T12:01:12Z</time>
      </trkpt>
      <trkpt lat="43.85799" lon="7.24665">
        <ele>588.95</ele>
        <time>2021-05-08T12:01:40Z</time>
      </trkpt>
      <trkpt lat="43.85799" lon="7.24665">
        <ele>589.43</ele>
        <time>2021-05-08T12:02:05Z</time>
      </trkpt>
      <trkpt lat="43.85799" lon="7.24666">
        <ele>589.43</ele>
        <time>2021-05-08T12:02:32Z</time>
      </trkpt>
      <trkpt lat="43.85798" lon="7.24665">
        <ele>589.91</ele>
        <time>2021-05-08T12:03:03Z</time>
      </trkpt>
      <trkpt lat="43.85799" lon="7.24666">
        <ele>590.39</ele>
        <time>2021-05-08T12:03:34Z</time>
      </trkpt>
      <trkpt lat="43.85799" lon="7.24668">
        <ele>590.87</ele>
        <time>2021-05-08T12:04:02Z</time>
      </trkpt>
      <trkpt lat="43.85799" lon="7.24667">
        <ele>591.35</ele>
        <time>2021-05-08T12:04:34Z</time>
      </trkpt>
      <trkpt lat="43.85803" lon="7.24666">
        <ele>592.79</ele>
        <time>2021-05-08T12:04:54Z</time>
      </trkpt>
      <trkpt lat="43.85804" lon="7.24666">
        <ele>592.79</ele>
        <time>2021-05-08T12:04:55Z</time>
      </trkpt>
      <trkpt lat="43.85806" lon="7.24666">
        <ele>592.79</ele>
        <time>2021-05-08T12:05:01Z</time>
      </trkpt>
      <trkpt lat="43.85804" lon="7.24666">
        <ele>592.31</ele>
        <time>2021-05-08T12:05:02Z</time>
      </trkpt>
      <trkpt lat="43.85807" lon="7.24666">
        <ele>592.79</ele>
        <time>2021-05-08T12:05:10Z</time>
      </trkpt>
      <trkpt lat="43.85808" lon="7.24667">
        <ele>593.27</ele>
        <time>2021-05-08T12:05:11Z</time>
      </trkpt>
      <trkpt lat="43.85809" lon="7.24668">
        <ele>593.27</ele>
        <time>2021-05-08T12:05:12Z</time>
      </trkpt>
      <trkpt lat="43.8581" lon="7.2467">
        <ele>593.27</ele>
        <time>2021-05-08T12:05:13Z</time>
      </trkpt>
      <trkpt lat="43.8581" lon="7.24671">
        <ele>593.27</ele>
        <time>2021-05-08T12:05:14Z</time>
      </trkpt>
      <trkpt lat="43.85814" lon="7.24686">
        <ele>594.23</ele>
        <time>2021-05-08T12:05:25Z</time>
      </trkpt>
      <trkpt lat="43.85826" lon="7.24713">
        <ele>597.12</ele>
        <time>2021-05-08T12:05:44Z</time>
      </trkpt>
      <trkpt lat="43.85835" lon="7.24732">
        <ele>599.52</ele>
        <time>2021-05-08T12:05:59Z</time>
      </trkpt>
      <trkpt lat="43.8585" lon="7.24749">
        <ele>602.4</ele>
        <time>2021-05-08T12:06:18Z</time>
      </trkpt>
      <trkpt lat="43.85867" lon="7.2475">
        <ele>605.29</ele>
        <time>2021-05-08T12:06:34Z</time>
      </trkpt>
      <trkpt lat="43.85868" lon="7.24746">
        <ele>605.29</ele>
        <time>2021-05-08T12:06:48Z</time>
      </trkpt>
      <trkpt lat="43.85872" lon="7.2472">
        <ele>606.25</ele>
        <time>2021-05-08T12:06:59Z</time>
      </trkpt>
      <trkpt lat="43.85876" lon="7.24679">
        <ele>605.77</ele>
        <time>2021-05-08T12:07:13Z</time>
      </trkpt>
      <trkpt lat="43.85872" lon="7.24654">
        <ele>605.77</ele>
        <time>2021-05-08T12:07:21Z</time>
      </trkpt>
      <trkpt lat="43.85872" lon="7.24652">
        <ele>605.77</ele>
        <time>2021-05-08T12:07:22Z</time>
      </trkpt>
      <trkpt lat="43.85873" lon="7.24649">
        <ele>605.77</ele>
        <time>2021-05-08T12:07:23Z</time>
      </trkpt>
      <trkpt lat="43.85873" lon="7.24647">
        <ele>606.25</ele>
        <time>2021-05-08T12:07:24Z</time>
      </trkpt>
      <trkpt lat="43.85875" lon="7.24644">
        <ele>605.77</ele>
        <time>2021-05-08T12:07:25Z</time>
      </trkpt>
      <trkpt lat="43.85876" lon="7.24642">
        <ele>606.25</ele>
        <time>2021-05-08T12:07:26Z</time>
      </trkpt>
      <trkpt lat="43.85877" lon="7.2464">
        <ele>606.25</ele>
        <time>2021-05-08T12:07:27Z</time>
      </trkpt>
      <trkpt lat="43.85878" lon="7.24637">
        <ele>605.77</ele>
        <time>2021-05-08T12:07:28Z</time>
      </trkpt>
      <trkpt lat="43.8588" lon="7.24635">
        <ele>605.77</ele>
        <time>2021-05-08T12:07:29Z</time>
      </trkpt>
      <trkpt lat="43.85881" lon="7.24632">
        <ele>605.77</ele>
        <time>2021-05-08T12:07:30Z</time>
      </trkpt>
      <trkpt lat="43.85907" lon="7.24617">
        <ele>608.65</ele>
        <time>2021-05-08T12:07:46Z</time>
      </trkpt>
      <trkpt lat="43.85912" lon="7.24614">
        <ele>608.65</ele>
        <time>2021-05-08T12:07:49Z</time>
      </trkpt>
      <trkpt lat="43.85914" lon="7.24614">
        <ele>609.13</ele>
        <time>2021-05-08T12:07:50Z</time>
      </trkpt>
      <trkpt lat="43.85915" lon="7.24613">
        <ele>609.13</ele>
        <time>2021-05-08T12:07:51Z</time>
      </trkpt>
      <trkpt lat="43.85917" lon="7.24613">
        <ele>609.61</ele>
        <time>2021-05-08T12:07:52Z</time>
      </trkpt>
      <trkpt lat="43.85919" lon="7.24612">
        <ele>610.09</ele>
        <time>2021-05-08T12:07:53Z</time>
      </trkpt>
      <trkpt lat="43.85922" lon="7.24611">
        <ele>610.09</ele>
        <time>2021-05-08T12:07:55Z</time>
      </trkpt>
      <trkpt lat="43.85923" lon="7.2461">
        <ele>610.09</ele>
        <time>2021-05-08T12:07:56Z</time>
      </trkpt>
      <trkpt lat="43.85925" lon="7.24609">
        <ele>610.57</ele>
        <time>2021-05-08T12:07:57Z</time>
      </trkpt>
      <trkpt lat="43.85937" lon="7.24594">
        <ele>612.02</ele>
        <time>2021-05-08T12:08:06Z</time>
      </trkpt>
      <trkpt lat="43.85938" lon="7.24592">
        <ele>612.02</ele>
        <time>2021-05-08T12:08:07Z</time>
      </trkpt>
      <trkpt lat="43.85939" lon="7.2459">
        <ele>612.02</ele>
        <time>2021-05-08T12:08:08Z</time>
      </trkpt>
      <trkpt lat="43.8594" lon="7.24588">
        <ele>612.5</ele>
        <time>2021-05-08T12:08:09Z</time>
      </trkpt>
      <trkpt lat="43.8594" lon="7.24586">
        <ele>612.5</ele>
        <time>2021-05-08T12:08:10Z</time>
      </trkpt>
      <trkpt lat="43.85941" lon="7.24584">
        <ele>612.5</ele>
        <time>2021-05-08T12:08:11Z</time>
      </trkpt>
      <trkpt lat="43.85942" lon="7.24583">
        <ele>612.98</ele>
        <time>2021-05-08T12:08:12Z</time>
      </trkpt>
      <trkpt lat="43.85943" lon="7.24582">
        <ele>612.98</ele>
        <time>2021-05-08T12:08:13Z</time>
      </trkpt>
      <trkpt lat="43.85944" lon="7.2458">
        <ele>613.46</ele>
        <time>2021-05-08T12:08:14Z</time>
      </trkpt>
      <trkpt lat="43.85944" lon="7.24577">
        <ele>613.46</ele>
        <time>2021-05-08T12:08:15Z</time>
      </trkpt>
      <trkpt lat="43.85944" lon="7.24574">
        <ele>613.94</ele>
        <time>2021-05-08T12:08:16Z</time>
      </trkpt>
      <trkpt lat="43.85944" lon="7.24571">
        <ele>613.94</ele>
        <time>2021-05-08T12:08:17Z</time>
      </trkpt>
      <trkpt lat="43.85943" lon="7.24535">
        <ele>616.82</ele>
        <time>2021-05-08T12:08:32Z</time>
      </trkpt>
      <trkpt lat="43.85942" lon="7.24532">
        <ele>616.82</ele>
        <time>2021-05-08T12:08:33Z</time>
      </trkpt>
      <trkpt lat="43.85941" lon="7.2453">
        <ele>617.3</ele>
        <time>2021-05-08T12:08:34Z</time>
      </trkpt>
      <trkpt lat="43.85935" lon="7.24518">
        <ele>617.78</ele>
        <time>2021-05-08T12:08:40Z</time>
      </trkpt>
      <trkpt lat="43.85934" lon="7.24517">
        <ele>618.26</ele>
        <time>2021-05-08T12:08:41Z</time>
      </trkpt>
      <trkpt lat="43.85916" lon="7.24499">
        <ele>621.15</ele>
        <time>2021-05-08T12:08:55Z</time>
      </trkpt>
      <trkpt lat="43.85915" lon="7.24495">
        <ele>621.63</ele>
        <time>2021-05-08T12:08:57Z</time>
      </trkpt>
      <trkpt lat="43.85915" lon="7.24493">
        <ele>621.63</ele>
        <time>2021-05-08T12:08:58Z</time>
      </trkpt>
      <trkpt lat="43.85916" lon="7.24492">
        <ele>622.11</ele>
        <time>2021-05-08T12:08:59Z</time>
      </trkpt>
      <trkpt lat="43.85917" lon="7.2449">
        <ele>622.11</ele>
        <time>2021-05-08T12:09:00Z</time>
      </trkpt>
      <trkpt lat="43.85918" lon="7.24489">
        <ele>622.59</ele>
        <time>2021-05-08T12:09:01Z</time>
      </trkpt>
      <trkpt lat="43.85921" lon="7.24486">
        <ele>623.07</ele>
        <time>2021-05-08T12:09:10Z</time>
      </trkpt>
      <trkpt lat="43.85925" lon="7.24479">
        <ele>623.55</ele>
        <time>2021-05-08T12:09:17Z</time>
      </trkpt>
      <trkpt lat="43.85931" lon="7.24474">
        <ele>624.51</ele>
        <time>2021-05-08T12:09:24Z</time>
      </trkpt>
      <trkpt lat="43.85932" lon="7.24473">
        <ele>624.51</ele>
        <time>2021-05-08T12:09:25Z</time>
      </trkpt>
      <trkpt lat="43.8595" lon="7.24459">
        <ele>626.44</ele>
        <time>2021-05-08T12:09:44Z</time>
      </trkpt>
      <trkpt lat="43.85967" lon="7.2445">
        <ele>628.36</ele>
        <time>2021-05-08T12:09:59Z</time>
      </trkpt>
      <trkpt lat="43.85972" lon="7.24447">
        <ele>628.84</ele>
        <time>2021-05-08T12:10:11Z</time>
      </trkpt>
      <trkpt lat="43.85994" lon="7.24433">
        <ele>630.76</ele>
        <time>2021-05-08T12:10:26Z</time>
      </trkpt>
      <trkpt lat="43.86013" lon="7.24418">
        <ele>634.13</ele>
        <time>2021-05-08T12:10:40Z</time>
      </trkpt>
      <trkpt lat="43.86037" lon="7.244">
        <ele>636.05</ele>
        <time>2021-05-08T12:10:57Z</time>
      </trkpt>
      <trkpt lat="43.86061" lon="7.24381">
        <ele>638.93</ele>
        <time>2021-05-08T12:11:14Z</time>
      </trkpt>
      <trkpt lat="43.86081" lon="7.24359">
        <ele>641.34</ele>
        <time>2021-05-08T12:11:30Z</time>
      </trkpt>
      <trkpt lat="43.86099" lon="7.24343">
        <ele>644.22</ele>
        <time>2021-05-08T12:11:46Z</time>
      </trkpt>
      <trkpt lat="43.86111" lon="7.24338">
        <ele>646.14</ele>
        <time>2021-05-08T12:12:00Z</time>
      </trkpt>
      <trkpt lat="43.86112" lon="7.24338">
        <ele>646.14</ele>
        <time>2021-05-08T12:12:01Z</time>
      </trkpt>
      <trkpt lat="43.86114" lon="7.24338">
        <ele>646.62</ele>
        <time>2021-05-08T12:12:02Z</time>
      </trkpt>
      <trkpt lat="43.86115" lon="7.24338">
        <ele>646.62</ele>
        <time>2021-05-08T12:12:03Z</time>
      </trkpt>
      <trkpt lat="43.86121" lon="7.24336">
        <ele>647.59</ele>
        <time>2021-05-08T12:12:09Z</time>
      </trkpt>
      <trkpt lat="43.86122" lon="7.24336">
        <ele>647.59</ele>
        <time>2021-05-08T12:12:10Z</time>
      </trkpt>
      <trkpt lat="43.8614" lon="7.24337">
        <ele>649.51</ele>
        <time>2021-05-08T12:12:25Z</time>
      </trkpt>
      <trkpt lat="43.86144" lon="7.24337">
        <ele>649.99</ele>
        <time>2021-05-08T12:12:28Z</time>
      </trkpt>
      <trkpt lat="43.86163" lon="7.24326">
        <ele>651.43</ele>
        <time>2021-05-08T12:12:45Z</time>
      </trkpt>
      <trkpt lat="43.86175" lon="7.24308">
        <ele>653.83</ele>
        <time>2021-05-08T12:13:00Z</time>
      </trkpt>
      <trkpt lat="43.86176" lon="7.24306">
        <ele>653.83</ele>
        <time>2021-05-08T12:13:01Z</time>
      </trkpt>
      <trkpt lat="43.86176" lon="7.24305">
        <ele>653.83</ele>
        <time>2021-05-08T12:13:02Z</time>
      </trkpt>
      <trkpt lat="43.86177" lon="7.24303">
        <ele>653.83</ele>
        <time>2021-05-08T12:13:03Z</time>
      </trkpt>
      <trkpt lat="43.86174" lon="7.24278">
        <ele>656.24</ele>
        <time>2021-05-08T12:13:20Z</time>
      </trkpt>
      <trkpt lat="43.86178" lon="7.24257">
        <ele>657.2</ele>
        <time>2021-05-08T12:13:34Z</time>
      </trkpt>
      <trkpt lat="43.8618" lon="7.24246">
        <ele>658.16</ele>
        <time>2021-05-08T12:13:48Z</time>
      </trkpt>
      <trkpt lat="43.86189" lon="7.24219">
        <ele>659.12</ele>
        <time>2021-05-08T12:14:05Z</time>
      </trkpt>
      <trkpt lat="43.86199" lon="7.24194">
        <ele>661.04</ele>
        <time>2021-05-08T12:14:21Z</time>
      </trkpt>
      <trkpt lat="43.86199" lon="7.24193">
        <ele>661.52</ele>
        <time>2021-05-08T12:14:22Z</time>
      </trkpt>
      <trkpt lat="43.86202" lon="7.24173">
        <ele>663.45</ele>
        <time>2021-05-08T12:14:36Z</time>
      </trkpt>
      <trkpt lat="43.86192" lon="7.24155">
        <ele>663.45</ele>
        <time>2021-05-08T12:14:47Z</time>
      </trkpt>
      <trkpt lat="43.86167" lon="7.2413">
        <ele>663.93</ele>
        <time>2021-05-08T12:15:02Z</time>
      </trkpt>
      <trkpt lat="43.86151" lon="7.24096">
        <ele>666.33</ele>
        <time>2021-05-08T12:15:18Z</time>
      </trkpt>
      <trkpt lat="43.86157" lon="7.24068">
        <ele>667.77</ele>
        <time>2021-05-08T12:15:32Z</time>
      </trkpt>
      <trkpt lat="43.86172" lon="7.24043">
        <ele>668.73</ele>
        <time>2021-05-08T12:15:46Z</time>
      </trkpt>
      <trkpt lat="43.86186" lon="7.24018">
        <ele>668.73</ele>
        <time>2021-05-08T12:16:01Z</time>
      </trkpt>
      <trkpt lat="43.86195" lon="7.24001">
        <ele>668.73</ele>
        <time>2021-05-08T12:16:13Z</time>
      </trkpt>
      <trkpt lat="43.86195" lon="7.23999">
        <ele>668.73</ele>
        <time>2021-05-08T12:16:14Z</time>
      </trkpt>
      <trkpt lat="43.86195" lon="7.23997">
        <ele>668.73</ele>
        <time>2021-05-08T12:16:15Z</time>
      </trkpt>
      <trkpt lat="43.86195" lon="7.23995">
        <ele>668.73</ele>
        <time>2021-05-08T12:16:16Z</time>
      </trkpt>
      <trkpt lat="43.86195" lon="7.23993">
        <ele>668.73</ele>
        <time>2021-05-08T12:16:17Z</time>
      </trkpt>
      <trkpt lat="43.86195" lon="7.23991">
        <ele>669.22</ele>
        <time>2021-05-08T12:16:18Z</time>
      </trkpt>
      <trkpt lat="43.86195" lon="7.23985">
        <ele>668.73</ele>
        <time>2021-05-08T12:16:26Z</time>
      </trkpt>
      <trkpt lat="43.86195" lon="7.23983">
        <ele>669.22</ele>
        <time>2021-05-08T12:16:29Z</time>
      </trkpt>
      <trkpt lat="43.86194" lon="7.23981">
        <ele>669.22</ele>
        <time>2021-05-08T12:16:30Z</time>
      </trkpt>
      <trkpt lat="43.86194" lon="7.23979">
        <ele>669.7</ele>
        <time>2021-05-08T12:16:31Z</time>
      </trkpt>
      <trkpt lat="43.86194" lon="7.23975">
        <ele>669.22</ele>
        <time>2021-05-08T12:16:32Z</time>
      </trkpt>
      <trkpt lat="43.86194" lon="7.23972">
        <ele>669.22</ele>
        <time>2021-05-08T12:16:33Z</time>
      </trkpt>
      <trkpt lat="43.86213" lon="7.23942">
        <ele>669.7</ele>
        <time>2021-05-08T12:16:45Z</time>
      </trkpt>
      <trkpt lat="43.86226" lon="7.23902">
        <ele>671.14</ele>
        <time>2021-05-08T12:16:58Z</time>
      </trkpt>
      <trkpt lat="43.86247" lon="7.23878">
        <ele>673.06</ele>
        <time>2021-05-08T12:17:10Z</time>
      </trkpt>
      <trkpt lat="43.86267" lon="7.23859">
        <ele>674.5</ele>
        <time>2021-05-08T12:17:23Z</time>
      </trkpt>
      <trkpt lat="43.86289" lon="7.23843">
        <ele>674.5</ele>
        <time>2021-05-08T12:17:35Z</time>
      </trkpt>
      <trkpt lat="43.86321" lon="7.23838">
        <ele>674.98</ele>
        <time>2021-05-08T12:17:47Z</time>
      </trkpt>
      <trkpt lat="43.86333" lon="7.23873">
        <ele>676.42</ele>
        <time>2021-05-08T12:18:01Z</time>
      </trkpt>
      <trkpt lat="43.86342" lon="7.23894">
        <ele>677.39</ele>
        <time>2021-05-08T12:18:11Z</time>
      </trkpt>
      <trkpt lat="43.86344" lon="7.23896">
        <ele>677.87</ele>
        <time>2021-05-08T12:18:12Z</time>
      </trkpt>
      <trkpt lat="43.86367" lon="7.23906">
        <ele>679.31</ele>
        <time>2021-05-08T12:18:26Z</time>
      </trkpt>
      <trkpt lat="43.86396" lon="7.23909">
        <ele>681.71</ele>
        <time>2021-05-08T12:18:42Z</time>
      </trkpt>
      <trkpt lat="43.86417" lon="7.23927">
        <ele>683.15</ele>
        <time>2021-05-08T12:18:56Z</time>
      </trkpt>
      <trkpt lat="43.86437" lon="7.23925">
        <ele>685.08</ele>
        <time>2021-05-08T12:19:11Z</time>
      </trkpt>
      <trkpt lat="43.86443" lon="7.2392">
        <ele>686.04</ele>
        <time>2021-05-08T12:19:18Z</time>
      </trkpt>
      <trkpt lat="43.86444" lon="7.23916">
        <ele>685.56</ele>
        <time>2021-05-08T12:19:23Z</time>
      </trkpt>
      <trkpt lat="43.86445" lon="7.23917">
        <ele>685.56</ele>
        <time>2021-05-08T12:19:24Z</time>
      </trkpt>
      <trkpt lat="43.86446" lon="7.23917">
        <ele>686.04</ele>
        <time>2021-05-08T12:19:25Z</time>
      </trkpt>
      <trkpt lat="43.86463" lon="7.23921">
        <ele>688.92</ele>
        <time>2021-05-08T12:19:40Z</time>
      </trkpt>
      <trkpt lat="43.86477" lon="7.23918">
        <ele>690.36</ele>
        <time>2021-05-08T12:19:57Z</time>
      </trkpt>
      <trkpt lat="43.8648" lon="7.23918">
        <ele>690.36</ele>
        <time>2021-05-08T12:20:07Z</time>
      </trkpt>
      <trkpt lat="43.86482" lon="7.23917">
        <ele>690.84</ele>
        <time>2021-05-08T12:20:08Z</time>
      </trkpt>
      <trkpt lat="43.86484" lon="7.23917">
        <ele>690.84</ele>
        <time>2021-05-08T12:20:09Z</time>
      </trkpt>
      <trkpt lat="43.86485" lon="7.23916">
        <ele>690.84</ele>
        <time>2021-05-08T12:20:10Z</time>
      </trkpt>
      <trkpt lat="43.86487" lon="7.23916">
        <ele>690.84</ele>
        <time>2021-05-08T12:20:11Z</time>
      </trkpt>
      <trkpt lat="43.86507" lon="7.23903">
        <ele>693.25</ele>
        <time>2021-05-08T12:20:24Z</time>
      </trkpt>
      <trkpt lat="43.86519" lon="7.23876">
        <ele>694.21</ele>
        <time>2021-05-08T12:20:38Z</time>
      </trkpt>
      <trkpt lat="43.86539" lon="7.23851">
        <ele>697.57</ele>
        <time>2021-05-08T12:20:54Z</time>
      </trkpt>
      <trkpt lat="43.86552" lon="7.2385">
        <ele>699.5</ele>
        <time>2021-05-08T12:21:02Z</time>
      </trkpt>
      <trkpt lat="43.86553" lon="7.23851">
        <ele>699.02</ele>
        <time>2021-05-08T12:21:03Z</time>
      </trkpt>
      <trkpt lat="43.8657" lon="7.23859">
        <ele>701.42</ele>
        <time>2021-05-08T12:21:14Z</time>
      </trkpt>
      <trkpt lat="43.86572" lon="7.23859">
        <ele>701.9</ele>
        <time>2021-05-08T12:21:15Z</time>
      </trkpt>
      <trkpt lat="43.86573" lon="7.2386">
        <ele>701.42</ele>
        <time>2021-05-08T12:21:16Z</time>
      </trkpt>
      <trkpt lat="43.86575" lon="7.23861">
        <ele>701.9</ele>
        <time>2021-05-08T12:21:17Z</time>
      </trkpt>
      <trkpt lat="43.86576" lon="7.23861">
        <ele>701.9</ele>
        <time>2021-05-08T12:21:18Z</time>
      </trkpt>
      <trkpt lat="43.86577" lon="7.23862">
        <ele>701.9</ele>
        <time>2021-05-08T12:21:19Z</time>
      </trkpt>
      <trkpt lat="43.86579" lon="7.23863">
        <ele>701.9</ele>
        <time>2021-05-08T12:21:20Z</time>
      </trkpt>
      <trkpt lat="43.8658" lon="7.23864">
        <ele>701.9</ele>
        <time>2021-05-08T12:21:21Z</time>
      </trkpt>
      <trkpt lat="43.86605" lon="7.2388">
        <ele>704.78</ele>
        <time>2021-05-08T12:21:38Z</time>
      </trkpt>
      <trkpt lat="43.86616" lon="7.23895">
        <ele>706.23</ele>
        <time>2021-05-08T12:21:53Z</time>
      </trkpt>
      <trkpt lat="43.8662" lon="7.23903">
        <ele>707.19</ele>
        <time>2021-05-08T12:22:06Z</time>
      </trkpt>
      <trkpt lat="43.86627" lon="7.23927">
        <ele>709.59</ele>
        <time>2021-05-08T12:22:25Z</time>
      </trkpt>
      <trkpt lat="43.86636" lon="7.23955">
        <ele>711.99</ele>
        <time>2021-05-08T12:22:45Z</time>
      </trkpt>
      <trkpt lat="43.86646" lon="7.23978">
        <ele>713.44</ele>
        <time>2021-05-08T12:23:01Z</time>
      </trkpt>
      <trkpt lat="43.86651" lon="7.23983">
        <ele>714.4</ele>
        <time>2021-05-08T12:23:16Z</time>
      </trkpt>
      <trkpt lat="43.86651" lon="7.23984">
        <ele>714.4</ele>
        <time>2021-05-08T12:23:26Z</time>
      </trkpt>
      <trkpt lat="43.86652" lon="7.23986">
        <ele>714.88</ele>
        <time>2021-05-08T12:23:27Z</time>
      </trkpt>
      <trkpt lat="43.86653" lon="7.23987">
        <ele>714.88</ele>
        <time>2021-05-08T12:23:28Z</time>
      </trkpt>
      <trkpt lat="43.86677" lon="7.24006">
        <ele>718.24</ele>
        <time>2021-05-08T12:23:41Z</time>
      </trkpt>
      <trkpt lat="43.8669" lon="7.24043">
        <ele>720.65</ele>
        <time>2021-05-08T12:23:54Z</time>
      </trkpt>
      <trkpt lat="43.86689" lon="7.2406">
        <ele>721.13</ele>
        <time>2021-05-08T12:23:59Z</time>
      </trkpt>
      <trkpt lat="43.86687" lon="7.24063">
        <ele>721.13</ele>
        <time>2021-05-08T12:24:00Z</time>
      </trkpt>
      <trkpt lat="43.86686" lon="7.24066">
        <ele>721.61</ele>
        <time>2021-05-08T12:24:01Z</time>
      </trkpt>
      <trkpt lat="43.86667" lon="7.24103">
        <ele>724.49</ele>
        <time>2021-05-08T12:24:14Z</time>
      </trkpt>
      <trkpt lat="43.86661" lon="7.2411">
        <ele>725.45</ele>
        <time>2021-05-08T12:24:17Z</time>
      </trkpt>
      <trkpt lat="43.86629" lon="7.24141">
        <ele>724.97</ele>
        <time>2021-05-08T12:24:32Z</time>
      </trkpt>
      <trkpt lat="43.86605" lon="7.24157">
        <ele>726.89</ele>
        <time>2021-05-08T12:24:44Z</time>
      </trkpt>
      <trkpt lat="43.86578" lon="7.24175">
        <ele>730.26</ele>
        <time>2021-05-08T12:24:57Z</time>
      </trkpt>
      <trkpt lat="43.86541" lon="7.2419">
        <ele>733.14</ele>
        <time>2021-05-08T12:25:12Z</time>
      </trkpt>
      <trkpt lat="43.86511" lon="7.24196">
        <ele>736.51</ele>
        <time>2021-05-08T12:25:25Z</time>
      </trkpt>
      <trkpt lat="43.8648" lon="7.24211">
        <ele>739.39</ele>
        <time>2021-05-08T12:25:39Z</time>
      </trkpt>
      <trkpt lat="43.86458" lon="7.24247">
        <ele>742.28</ele>
        <time>2021-05-08T12:25:53Z</time>
      </trkpt>
      <trkpt lat="43.86441" lon="7.24288">
        <ele>744.68</ele>
        <time>2021-05-08T12:26:07Z</time>
      </trkpt>
      <trkpt lat="43.86436" lon="7.24319">
        <ele>748.04</ele>
        <time>2021-05-08T12:26:17Z</time>
      </trkpt>
      <trkpt lat="43.86419" lon="7.24349">
        <ele>750.93</ele>
        <time>2021-05-08T12:26:30Z</time>
      </trkpt>
      <trkpt lat="43.86394" lon="7.24391">
        <ele>753.81</ele>
        <time>2021-05-08T12:26:45Z</time>
      </trkpt>
      <trkpt lat="43.86385" lon="7.24436">
        <ele>756.69</ele>
        <time>2021-05-08T12:26:59Z</time>
      </trkpt>
      <trkpt lat="43.86394" lon="7.24466">
        <ele>759.58</ele>
        <time>2021-05-08T12:27:09Z</time>
      </trkpt>
      <trkpt lat="43.86409" lon="7.24512">
        <ele>763.42</ele>
        <time>2021-05-08T12:27:24Z</time>
      </trkpt>
      <trkpt lat="43.86423" lon="7.24541">
        <ele>766.79</ele>
        <time>2021-05-08T12:27:35Z</time>
      </trkpt>
      <trkpt lat="43.8644" lon="7.24578">
        <ele>769.19</ele>
        <time>2021-05-08T12:27:49Z</time>
      </trkpt>
      <trkpt lat="43.86442" lon="7.24615">
        <ele>772.56</ele>
        <time>2021-05-08T12:28:00Z</time>
      </trkpt>
      <trkpt lat="43.8643" lon="7.24669">
        <ele>775.92</ele>
        <time>2021-05-08T12:28:16Z</time>
      </trkpt>
      <trkpt lat="43.86419" lon="7.24701">
        <ele>778.81</ele>
        <time>2021-05-08T12:28:27Z</time>
      </trkpt>
      <trkpt lat="43.86404" lon="7.24742">
        <ele>782.17</ele>
        <time>2021-05-08T12:28:41Z</time>
      </trkpt>
      <trkpt lat="43.86392" lon="7.24782">
        <ele>785.53</ele>
        <time>2021-05-08T12:28:54Z</time>
      </trkpt>
      <trkpt lat="43.86381" lon="7.24825">
        <ele>788.9</ele>
        <time>2021-05-08T12:29:08Z</time>
      </trkpt>
      <trkpt lat="43.86372" lon="7.24868">
        <ele>791.78</ele>
        <time>2021-05-08T12:29:22Z</time>
      </trkpt>
      <trkpt lat="43.86367" lon="7.24907">
        <ele>795.15</ele>
        <time>2021-05-08T12:29:34Z</time>
      </trkpt>
      <trkpt lat="43.86362" lon="7.24958">
        <ele>797.55</ele>
        <time>2021-05-08T12:29:50Z</time>
      </trkpt>
      <trkpt lat="43.86363" lon="7.24993">
        <ele>800.92</ele>
        <time>2021-05-08T12:30:01Z</time>
      </trkpt>
      <trkpt lat="43.86371" lon="7.25035">
        <ele>804.28</ele>
        <time>2021-05-08T12:30:14Z</time>
      </trkpt>
      <trkpt lat="43.86379" lon="7.25073">
        <ele>807.64</ele>
        <time>2021-05-08T12:30:26Z</time>
      </trkpt>
      <trkpt lat="43.86393" lon="7.25121">
        <ele>810.53</ele>
        <time>2021-05-08T12:30:41Z</time>
      </trkpt>
      <trkpt lat="43.86403" lon="7.25159">
        <ele>813.41</ele>
        <time>2021-05-08T12:30:53Z</time>
      </trkpt>
      <trkpt lat="43.86415" lon="7.25196">
        <ele>816.78</ele>
        <time>2021-05-08T12:31:05Z</time>
      </trkpt>
      <trkpt lat="43.86427" lon="7.25242">
        <ele>820.14</ele>
        <time>2021-05-08T12:31:19Z</time>
      </trkpt>
      <trkpt lat="43.86437" lon="7.2529">
        <ele>823.03</ele>
        <time>2021-05-08T12:31:34Z</time>
      </trkpt>
      <trkpt lat="43.86444" lon="7.25331">
        <ele>826.39</ele>
        <time>2021-05-08T12:31:47Z</time>
      </trkpt>
      <trkpt lat="43.86451" lon="7.25361">
        <ele>829.27</ele>
        <time>2021-05-08T12:31:57Z</time>
      </trkpt>
      <trkpt lat="43.86455" lon="7.25403">
        <ele>832.16</ele>
        <time>2021-05-08T12:32:10Z</time>
      </trkpt>
      <trkpt lat="43.86462" lon="7.25442">
        <ele>835.52</ele>
        <time>2021-05-08T12:32:22Z</time>
      </trkpt>
      <trkpt lat="43.8647" lon="7.25472">
        <ele>838.41</ele>
        <time>2021-05-08T12:32:32Z</time>
      </trkpt>
      <trkpt lat="43.86477" lon="7.25517">
        <ele>841.29</ele>
        <time>2021-05-08T12:32:46Z</time>
      </trkpt>
      <trkpt lat="43.86481" lon="7.25542">
        <ele>843.69</ele>
        <time>2021-05-08T12:32:54Z</time>
      </trkpt>
      <trkpt lat="43.86492" lon="7.25582">
        <ele>847.06</ele>
        <time>2021-05-08T12:33:07Z</time>
      </trkpt>
      <trkpt lat="43.86512" lon="7.25618">
        <ele>850.42</ele>
        <time>2021-05-08T12:33:20Z</time>
      </trkpt>
      <trkpt lat="43.86542" lon="7.25654">
        <ele>853.31</ele>
        <time>2021-05-08T12:33:35Z</time>
      </trkpt>
      <trkpt lat="43.86556" lon="7.25683">
        <ele>856.19</ele>
        <time>2021-05-08T12:33:45Z</time>
      </trkpt>
      <trkpt lat="43.86569" lon="7.2572">
        <ele>858.59</ele>
        <time>2021-05-08T12:33:59Z</time>
      </trkpt>
      <trkpt lat="43.86571" lon="7.25718">
        <ele>859.08</ele>
        <time>2021-05-08T12:34:00Z</time>
      </trkpt>
      <trkpt lat="43.86574" lon="7.25706">
        <ele>859.08</ele>
        <time>2021-05-08T12:34:04Z</time>
      </trkpt>
      <trkpt lat="43.86567" lon="7.25663">
        <ele>862.92</ele>
        <time>2021-05-08T12:34:17Z</time>
      </trkpt>
      <trkpt lat="43.86553" lon="7.25627">
        <ele>866.29</ele>
        <time>2021-05-08T12:34:30Z</time>
      </trkpt>
      <trkpt lat="43.86545" lon="7.25591">
        <ele>868.69</ele>
        <time>2021-05-08T12:34:42Z</time>
      </trkpt>
      <trkpt lat="43.86547" lon="7.25545">
        <ele>872.05</ele>
        <time>2021-05-08T12:34:56Z</time>
      </trkpt>
      <trkpt lat="43.8655" lon="7.25507">
        <ele>874.94</ele>
        <time>2021-05-08T12:35:08Z</time>
      </trkpt>
      <trkpt lat="43.86547" lon="7.25453">
        <ele>878.3</ele>
        <time>2021-05-08T12:35:24Z</time>
      </trkpt>
      <trkpt lat="43.86541" lon="7.25415">
        <ele>881.67</ele>
        <time>2021-05-08T12:35:36Z</time>
      </trkpt>
      <trkpt lat="43.86531" lon="7.25368">
        <ele>884.55</ele>
        <time>2021-05-08T12:35:51Z</time>
      </trkpt>
      <trkpt lat="43.86526" lon="7.25333">
        <ele>887.43</ele>
        <time>2021-05-08T12:36:02Z</time>
      </trkpt>
      <trkpt lat="43.86525" lon="7.2531">
        <ele>888.4</ele>
        <time>2021-05-08T12:36:10Z</time>
      </trkpt>
      <trkpt lat="43.86535" lon="7.25313">
        <ele>889.84</ele>
        <time>2021-05-08T12:36:19Z</time>
      </trkpt>
      <trkpt lat="43.86538" lon="7.25328">
        <ele>890.8</ele>
        <time>2021-05-08T12:36:24Z</time>
      </trkpt>
      <trkpt lat="43.86547" lon="7.25372">
        <ele>894.16</ele>
        <time>2021-05-08T12:36:39Z</time>
      </trkpt>
      <trkpt lat="43.86565" lon="7.25409">
        <ele>897.05</ele>
        <time>2021-05-08T12:36:52Z</time>
      </trkpt>
      <trkpt lat="43.86579" lon="7.25445">
        <ele>900.41</ele>
        <time>2021-05-08T12:37:04Z</time>
      </trkpt>
      <trkpt lat="43.86601" lon="7.25485">
        <ele>903.3</ele>
        <time>2021-05-08T12:37:19Z</time>
      </trkpt>
      <trkpt lat="43.86614" lon="7.25522">
        <ele>906.66</ele>
        <time>2021-05-08T12:37:32Z</time>
      </trkpt>
      <trkpt lat="43.8662" lon="7.25536">
        <ele>908.1</ele>
        <time>2021-05-08T12:37:37Z</time>
      </trkpt>
      <trkpt lat="43.86635" lon="7.25575">
        <ele>911.47</ele>
        <time>2021-05-08T12:37:50Z</time>
      </trkpt>
      <trkpt lat="43.86648" lon="7.25606">
        <ele>913.87</ele>
        <time>2021-05-08T12:38:02Z</time>
      </trkpt>
      <trkpt lat="43.86664" lon="7.25645">
        <ele>917.24</ele>
        <time>2021-05-08T12:38:17Z</time>
      </trkpt>
      <trkpt lat="43.86681" lon="7.2568">
        <ele>920.12</ele>
        <time>2021-05-08T12:38:31Z</time>
      </trkpt>
      <trkpt lat="43.86701" lon="7.25715">
        <ele>923</ele>
        <time>2021-05-08T12:38:45Z</time>
      </trkpt>
      <trkpt lat="43.8672" lon="7.25772">
        <ele>925.89</ele>
        <time>2021-05-08T12:39:03Z</time>
      </trkpt>
      <trkpt lat="43.86732" lon="7.25801">
        <ele>929.25</ele>
        <time>2021-05-08T12:39:13Z</time>
      </trkpt>
      <trkpt lat="43.8675" lon="7.25841">
        <ele>932.62</ele>
        <time>2021-05-08T12:39:28Z</time>
      </trkpt>
      <trkpt lat="43.86769" lon="7.2586">
        <ele>935.5</ele>
        <time>2021-05-08T12:39:39Z</time>
      </trkpt>
      <trkpt lat="43.86795" lon="7.25881">
        <ele>938.86</ele>
        <time>2021-05-08T12:39:53Z</time>
      </trkpt>
      <trkpt lat="43.86822" lon="7.25895">
        <ele>941.75</ele>
        <time>2021-05-08T12:40:06Z</time>
      </trkpt>
      <trkpt lat="43.86827" lon="7.25923">
        <ele>945.11</ele>
        <time>2021-05-08T12:40:17Z</time>
      </trkpt>
      <trkpt lat="43.86813" lon="7.25958">
        <ele>948</ele>
        <time>2021-05-08T12:40:31Z</time>
      </trkpt>
      <trkpt lat="43.86794" lon="7.2599">
        <ele>950.88</ele>
        <time>2021-05-08T12:40:45Z</time>
      </trkpt>
      <trkpt lat="43.86794" lon="7.25993">
        <ele>950.88</ele>
        <time>2021-05-08T12:40:46Z</time>
      </trkpt>
      <trkpt lat="43.86809" lon="7.26003">
        <ele>952.32</ele>
        <time>2021-05-08T12:40:56Z</time>
      </trkpt>
      <trkpt lat="43.86815" lon="7.25993">
        <ele>952.8</ele>
        <time>2021-05-08T12:41:00Z</time>
      </trkpt>
      <trkpt lat="43.86835" lon="7.25949">
        <ele>956.17</ele>
        <time>2021-05-08T12:41:16Z</time>
      </trkpt>
      <trkpt lat="43.86858" lon="7.25928">
        <ele>959.53</ele>
        <time>2021-05-08T12:41:29Z</time>
      </trkpt>
      <trkpt lat="43.86862" lon="7.25922">
        <ele>960.01</ele>
        <time>2021-05-08T12:41:32Z</time>
      </trkpt>
      <trkpt lat="43.86857" lon="7.2589">
        <ele>963.38</ele>
        <time>2021-05-08T12:41:43Z</time>
      </trkpt>
      <trkpt lat="43.8683" lon="7.25848">
        <ele>965.3</ele>
        <time>2021-05-08T12:42:00Z</time>
      </trkpt>
      <trkpt lat="43.86813" lon="7.25806">
        <ele>968.18</ele>
        <time>2021-05-08T12:42:15Z</time>
      </trkpt>
      <trkpt lat="43.86802" lon="7.25775">
        <ele>971.07</ele>
        <time>2021-05-08T12:42:26Z</time>
      </trkpt>
      <trkpt lat="43.8679" lon="7.25734">
        <ele>974.43</ele>
        <time>2021-05-08T12:42:41Z</time>
      </trkpt>
      <trkpt lat="43.86778" lon="7.25703">
        <ele>976.84</ele>
        <time>2021-05-08T12:42:54Z</time>
      </trkpt>
      <trkpt lat="43.86766" lon="7.25663">
        <ele>980.2</ele>
        <time>2021-05-08T12:43:09Z</time>
      </trkpt>
      <trkpt lat="43.86757" lon="7.2562">
        <ele>983.57</ele>
        <time>2021-05-08T12:43:24Z</time>
      </trkpt>
      <trkpt lat="43.86748" lon="7.25582">
        <ele>986.93</ele>
        <time>2021-05-08T12:43:37Z</time>
      </trkpt>
      <trkpt lat="43.86737" lon="7.25543">
        <ele>988.85</ele>
        <time>2021-05-08T12:43:51Z</time>
      </trkpt>
      <trkpt lat="43.86738" lon="7.25535">
        <ele>988.85</ele>
        <time>2021-05-08T12:43:54Z</time>
      </trkpt>
      <trkpt lat="43.86746" lon="7.25546">
        <ele>990.3</ele>
        <time>2021-05-08T12:44:02Z</time>
      </trkpt>
      <trkpt lat="43.86761" lon="7.25586">
        <ele>993.18</ele>
        <time>2021-05-08T12:44:17Z</time>
      </trkpt>
      <trkpt lat="43.86775" lon="7.25623">
        <ele>996.06</ele>
        <time>2021-05-08T12:44:31Z</time>
      </trkpt>
      <trkpt lat="43.86795" lon="7.25654">
        <ele>998.95</ele>
        <time>2021-05-08T12:44:45Z</time>
      </trkpt>
      <trkpt lat="43.86811" lon="7.25685">
        <ele>1002.31</ele>
        <time>2021-05-08T12:44:58Z</time>
      </trkpt>
      <trkpt lat="43.86827" lon="7.25708">
        <ele>1005.2</ele>
        <time>2021-05-08T12:45:10Z</time>
      </trkpt>
      <trkpt lat="43.86848" lon="7.25736">
        <ele>1007.6</ele>
        <time>2021-05-08T12:45:23Z</time>
      </trkpt>
      <trkpt lat="43.86869" lon="7.25767">
        <ele>1011.44</ele>
        <time>2021-05-08T12:45:37Z</time>
      </trkpt>
      <trkpt lat="43.86887" lon="7.25792">
        <ele>1013.85</ele>
        <time>2021-05-08T12:45:49Z</time>
      </trkpt>
      <trkpt lat="43.86905" lon="7.25814">
        <ele>1016.73</ele>
        <time>2021-05-08T12:46:02Z</time>
      </trkpt>
      <trkpt lat="43.86925" lon="7.25838">
        <ele>1019.62</ele>
        <time>2021-05-08T12:46:16Z</time>
      </trkpt>
      <trkpt lat="43.86944" lon="7.25861">
        <ele>1022.98</ele>
        <time>2021-05-08T12:46:28Z</time>
      </trkpt>
      <trkpt lat="43.86965" lon="7.25888">
        <ele>1025.86</ele>
        <time>2021-05-08T12:46:43Z</time>
      </trkpt>
      <trkpt lat="43.86985" lon="7.25906">
        <ele>1029.23</ele>
        <time>2021-05-08T12:46:54Z</time>
      </trkpt>
      <trkpt lat="43.87009" lon="7.25925">
        <ele>1031.15</ele>
        <time>2021-05-08T12:47:07Z</time>
      </trkpt>
      <trkpt lat="43.87029" lon="7.25943">
        <ele>1034.04</ele>
        <time>2021-05-08T12:47:18Z</time>
      </trkpt>
      <trkpt lat="43.87034" lon="7.25952">
        <ele>1034.52</ele>
        <time>2021-05-08T12:47:22Z</time>
      </trkpt>
      <trkpt lat="43.87034" lon="7.25972">
        <ele>1035.96</ele>
        <time>2021-05-08T12:47:31Z</time>
      </trkpt>
      <trkpt lat="43.87024" lon="7.25992">
        <ele>1038.36</ele>
        <time>2021-05-08T12:47:41Z</time>
      </trkpt>
      <trkpt lat="43.87019" lon="7.26002">
        <ele>1039.32</ele>
        <time>2021-05-08T12:47:47Z</time>
      </trkpt>
      <trkpt lat="43.87013" lon="7.26014">
        <ele>1040.76</ele>
        <time>2021-05-08T12:47:52Z</time>
      </trkpt>
      <trkpt lat="43.87008" lon="7.26021">
        <ele>1041.73</ele>
        <time>2021-05-08T12:47:55Z</time>
      </trkpt>
      <trkpt lat="43.87004" lon="7.26028">
        <ele>1041.73</ele>
        <time>2021-05-08T12:47:58Z</time>
      </trkpt>
      <trkpt lat="43.86996" lon="7.26035">
        <ele>1042.69</ele>
        <time>2021-05-08T12:48:02Z</time>
      </trkpt>
      <trkpt lat="43.86975" lon="7.26036">
        <ele>1045.09</ele>
        <time>2021-05-08T12:48:12Z</time>
      </trkpt>
      <trkpt lat="43.86951" lon="7.2604">
        <ele>1047.97</ele>
        <time>2021-05-08T12:48:25Z</time>
      </trkpt>
      <trkpt lat="43.86936" lon="7.26069">
        <ele>1050.38</ele>
        <time>2021-05-08T12:48:38Z</time>
      </trkpt>
      <trkpt lat="43.86948" lon="7.26067">
        <ele>1051.34</ele>
        <time>2021-05-08T12:48:45Z</time>
      </trkpt>
      <trkpt lat="43.86973" lon="7.26052">
        <ele>1054.22</ele>
        <time>2021-05-08T12:48:58Z</time>
      </trkpt>
      <trkpt lat="43.86994" lon="7.2606">
        <ele>1056.63</ele>
        <time>2021-05-08T12:49:10Z</time>
      </trkpt>
      <trkpt lat="43.86995" lon="7.26061">
        <ele>1057.11</ele>
        <time>2021-05-08T12:49:11Z</time>
      </trkpt>
      <trkpt lat="43.87002" lon="7.26059">
        <ele>1058.07</ele>
        <time>2021-05-08T12:49:15Z</time>
      </trkpt>
      <trkpt lat="43.87017" lon="7.26043">
        <ele>1060.47</ele>
        <time>2021-05-08T12:49:27Z</time>
      </trkpt>
      <trkpt lat="43.8703" lon="7.26029">
        <ele>1062.39</ele>
        <time>2021-05-08T12:49:36Z</time>
      </trkpt>
      <trkpt lat="43.87054" lon="7.26002">
        <ele>1065.28</ele>
        <time>2021-05-08T12:49:50Z</time>
      </trkpt>
      <trkpt lat="43.87062" lon="7.25997">
        <ele>1065.76</ele>
        <time>2021-05-08T12:49:54Z</time>
      </trkpt>
      <trkpt lat="43.87087" lon="7.25981">
        <ele>1068.64</ele>
        <time>2021-05-08T12:50:07Z</time>
      </trkpt>
      <trkpt lat="43.87115" lon="7.25958">
        <ele>1071.53</ele>
        <time>2021-05-08T12:50:21Z</time>
      </trkpt>
      <trkpt lat="43.87116" lon="7.25956">
        <ele>1071.53</ele>
        <time>2021-05-08T12:50:22Z</time>
      </trkpt>
      <trkpt lat="43.87137" lon="7.25975">
        <ele>1073.45</ele>
        <time>2021-05-08T12:50:35Z</time>
      </trkpt>
      <trkpt lat="43.87139" lon="7.25979">
        <ele>1073.93</ele>
        <time>2021-05-08T12:50:37Z</time>
      </trkpt>
      <trkpt lat="43.87139" lon="7.25981">
        <ele>1073.93</ele>
        <time>2021-05-08T12:50:38Z</time>
      </trkpt>
      <trkpt lat="43.87143" lon="7.25998">
        <ele>1074.89</ele>
        <time>2021-05-08T12:50:45Z</time>
      </trkpt>
      <trkpt lat="43.87138" lon="7.26028">
        <ele>1076.81</ele>
        <time>2021-05-08T12:50:58Z</time>
      </trkpt>
      <trkpt lat="43.87121" lon="7.26062">
        <ele>1078.26</ele>
        <time>2021-05-08T12:51:10Z</time>
      </trkpt>
      <trkpt lat="43.87103" lon="7.26092">
        <ele>1080.18</ele>
        <time>2021-05-08T12:51:22Z</time>
      </trkpt>
      <trkpt lat="43.87081" lon="7.26117">
        <ele>1081.62</ele>
        <time>2021-05-08T12:51:34Z</time>
      </trkpt>
      <trkpt lat="43.87065" lon="7.26148">
        <ele>1083.06</ele>
        <time>2021-05-08T12:51:44Z</time>
      </trkpt>
      <trkpt lat="43.87067" lon="7.26156">
        <ele>1083.54</ele>
        <time>2021-05-08T12:51:46Z</time>
      </trkpt>
      <trkpt lat="43.87072" lon="7.26167">
        <ele>1084.02</ele>
        <time>2021-05-08T12:51:49Z</time>
      </trkpt>
      <trkpt lat="43.8707" lon="7.26221">
        <ele>1085.95</ele>
        <time>2021-05-08T12:52:04Z</time>
      </trkpt>
      <trkpt lat="43.87081" lon="7.26263">
        <ele>1088.83</ele>
        <time>2021-05-08T12:52:16Z</time>
      </trkpt>
      <trkpt lat="43.87089" lon="7.26309">
        <ele>1091.71</ele>
        <time>2021-05-08T12:52:29Z</time>
      </trkpt>
      <trkpt lat="43.87085" lon="7.26354">
        <ele>1092.68</ele>
        <time>2021-05-08T12:52:42Z</time>
      </trkpt>
      <trkpt lat="43.8708" lon="7.26377">
        <ele>1094.12</ele>
        <time>2021-05-08T12:52:49Z</time>
      </trkpt>
      <trkpt lat="43.87088" lon="7.26425">
        <ele>1095.08</ele>
        <time>2021-05-08T12:53:01Z</time>
      </trkpt>
      <trkpt lat="43.87094" lon="7.26445">
        <ele>1096.04</ele>
        <time>2021-05-08T12:53:06Z</time>
      </trkpt>
      <trkpt lat="43.87098" lon="7.26489">
        <ele>1097.96</ele>
        <time>2021-05-08T12:53:18Z</time>
      </trkpt>
      <trkpt lat="43.87104" lon="7.26504">
        <ele>1098.44</ele>
        <time>2021-05-08T12:53:22Z</time>
      </trkpt>
      <trkpt lat="43.87078" lon="7.26529">
        <ele>1099.4</ele>
        <time>2021-05-08T12:53:35Z</time>
      </trkpt>
      <trkpt lat="43.8704" lon="7.2653">
        <ele>1099.4</ele>
        <time>2021-05-08T12:53:48Z</time>
      </trkpt>
      <trkpt lat="43.87031" lon="7.26534">
        <ele>1098.92</ele>
        <time>2021-05-08T12:53:50Z</time>
      </trkpt>
      <trkpt lat="43.87026" lon="7.26537">
        <ele>1098.92</ele>
        <time>2021-05-08T12:53:51Z</time>
      </trkpt>
      <trkpt lat="43.87" lon="7.26559">
        <ele>1096.52</ele>
        <time>2021-05-08T12:53:56Z</time>
      </trkpt>
      <trkpt lat="43.86994" lon="7.26561">
        <ele>1096.52</ele>
        <time>2021-05-08T12:53:57Z</time>
      </trkpt>
      <trkpt lat="43.86988" lon="7.26564">
        <ele>1095.56</ele>
        <time>2021-05-08T12:53:58Z</time>
      </trkpt>
      <trkpt lat="43.86976" lon="7.26567">
        <ele>1094.6</ele>
        <time>2021-05-08T12:54:00Z</time>
      </trkpt>
      <trkpt lat="43.86959" lon="7.26572">
        <ele>1096.52</ele>
        <time>2021-05-08T12:54:06Z</time>
      </trkpt>
      <trkpt lat="43.86928" lon="7.2657">
        <ele>1094.12</ele>
        <time>2021-05-08T12:54:16Z</time>
      </trkpt>
      <trkpt lat="43.86926" lon="7.26572">
        <ele>1093.64</ele>
        <time>2021-05-08T12:54:17Z</time>
      </trkpt>
      <trkpt lat="43.86925" lon="7.26573">
        <ele>1093.16</ele>
        <time>2021-05-08T12:54:18Z</time>
      </trkpt>
      <trkpt lat="43.86924" lon="7.26569">
        <ele>1093.16</ele>
        <time>2021-05-08T12:54:28Z</time>
      </trkpt>
      <trkpt lat="43.86917" lon="7.26562">
        <ele>1091.23</ele>
        <time>2021-05-08T12:54:32Z</time>
      </trkpt>
      <trkpt lat="43.86913" lon="7.26575">
        <ele>1089.79</ele>
        <time>2021-05-08T12:54:36Z</time>
      </trkpt>
      <trkpt lat="43.86907" lon="7.26588">
        <ele>1089.79</ele>
        <time>2021-05-08T12:54:39Z</time>
      </trkpt>
      <trkpt lat="43.86905" lon="7.26593">
        <ele>1088.83</ele>
        <time>2021-05-08T12:54:40Z</time>
      </trkpt>
      <trkpt lat="43.86902" lon="7.26599">
        <ele>1088.83</ele>
        <time>2021-05-08T12:54:41Z</time>
      </trkpt>
      <trkpt lat="43.86885" lon="7.26624">
        <ele>1087.39</ele>
        <time>2021-05-08T12:54:46Z</time>
      </trkpt>
      <trkpt lat="43.86871" lon="7.2664">
        <ele>1085.95</ele>
        <time>2021-05-08T12:54:49Z</time>
      </trkpt>
      <trkpt lat="43.86865" lon="7.26644">
        <ele>1085.47</ele>
        <time>2021-05-08T12:54:50Z</time>
      </trkpt>
      <trkpt lat="43.86854" lon="7.26652">
        <ele>1084.99</ele>
        <time>2021-05-08T12:54:52Z</time>
      </trkpt>
      <trkpt lat="43.86848" lon="7.26654">
        <ele>1084.99</ele>
        <time>2021-05-08T12:54:53Z</time>
      </trkpt>
      <trkpt lat="43.86841" lon="7.26655">
        <ele>1084.02</ele>
        <time>2021-05-08T12:54:54Z</time>
      </trkpt>
      <trkpt lat="43.86834" lon="7.26654">
        <ele>1083.54</ele>
        <time>2021-05-08T12:54:55Z</time>
      </trkpt>
      <trkpt lat="43.86828" lon="7.26652">
        <ele>1083.54</ele>
        <time>2021-05-08T12:54:56Z</time>
      </trkpt>
      <trkpt lat="43.86796" lon="7.26634">
        <ele>1081.62</ele>
        <time>2021-05-08T12:55:05Z</time>
      </trkpt>
      <trkpt lat="43.86789" lon="7.26629">
        <ele>1081.62</ele>
        <time>2021-05-08T12:55:07Z</time>
      </trkpt>
      <trkpt lat="43.86785" lon="7.26627">
        <ele>1081.62</ele>
        <time>2021-05-08T12:55:08Z</time>
      </trkpt>
      <trkpt lat="43.8678" lon="7.26625">
        <ele>1081.62</ele>
        <time>2021-05-08T12:55:09Z</time>
      </trkpt>
      <trkpt lat="43.86774" lon="7.26623">
        <ele>1081.14</ele>
        <time>2021-05-08T12:55:10Z</time>
      </trkpt>
      <trkpt lat="43.86769" lon="7.26622">
        <ele>1081.14</ele>
        <time>2021-05-08T12:55:11Z</time>
      </trkpt>
      <trkpt lat="43.86728" lon="7.26623">
        <ele>1079.7</ele>
        <time>2021-05-08T12:55:18Z</time>
      </trkpt>
      <trkpt lat="43.86722" lon="7.26624">
        <ele>1079.7</ele>
        <time>2021-05-08T12:55:19Z</time>
      </trkpt>
      <trkpt lat="43.86716" lon="7.26626">
        <ele>1079.22</ele>
        <time>2021-05-08T12:55:20Z</time>
      </trkpt>
      <trkpt lat="43.86711" lon="7.26629">
        <ele>1079.22</ele>
        <time>2021-05-08T12:55:21Z</time>
      </trkpt>
      <trkpt lat="43.86705" lon="7.26632">
        <ele>1078.74</ele>
        <time>2021-05-08T12:55:22Z</time>
      </trkpt>
      <trkpt lat="43.86693" lon="7.26639">
        <ele>1077.78</ele>
        <time>2021-05-08T12:55:24Z</time>
      </trkpt>
      <trkpt lat="43.86642" lon="7.26666">
        <ele>1074.89</ele>
        <time>2021-05-08T12:55:32Z</time>
      </trkpt>
      <trkpt lat="43.86635" lon="7.26667">
        <ele>1075.37</ele>
        <time>2021-05-08T12:55:33Z</time>
      </trkpt>
      <trkpt lat="43.86629" lon="7.26667">
        <ele>1074.89</ele>
        <time>2021-05-08T12:55:34Z</time>
      </trkpt>
      <trkpt lat="43.86623" lon="7.26667">
        <ele>1074.41</ele>
        <time>2021-05-08T12:55:35Z</time>
      </trkpt>
      <trkpt lat="43.86617" lon="7.26666">
        <ele>1073.93</ele>
        <time>2021-05-08T12:55:36Z</time>
      </trkpt>
      <trkpt lat="43.8661" lon="7.26667">
        <ele>1073.93</ele>
        <time>2021-05-08T12:55:37Z</time>
      </trkpt>
      <trkpt lat="43.86604" lon="7.26668">
        <ele>1073.93</ele>
        <time>2021-05-08T12:55:38Z</time>
      </trkpt>
      <trkpt lat="43.8659" lon="7.2667">
        <ele>1073.45</ele>
        <time>2021-05-08T12:55:40Z</time>
      </trkpt>
      <trkpt lat="43.86584" lon="7.26669">
        <ele>1072.97</ele>
        <time>2021-05-08T12:55:41Z</time>
      </trkpt>
      <trkpt lat="43.86514" lon="7.26646">
        <ele>1070.08</ele>
        <time>2021-05-08T12:55:52Z</time>
      </trkpt>
      <trkpt lat="43.86481" lon="7.26629">
        <ele>1069.6</ele>
        <time>2021-05-08T12:55:57Z</time>
      </trkpt>
      <trkpt lat="43.86455" lon="7.2662">
        <ele>1068.16</ele>
        <time>2021-05-08T12:56:01Z</time>
      </trkpt>
      <trkpt lat="43.86449" lon="7.26619">
        <ele>1067.68</ele>
        <time>2021-05-08T12:56:02Z</time>
      </trkpt>
      <trkpt lat="43.86443" lon="7.26619">
        <ele>1067.2</ele>
        <time>2021-05-08T12:56:03Z</time>
      </trkpt>
      <trkpt lat="43.8638" lon="7.26627">
        <ele>1064.32</ele>
        <time>2021-05-08T12:56:14Z</time>
      </trkpt>
      <trkpt lat="43.86357" lon="7.2663">
        <ele>1062.39</ele>
        <time>2021-05-08T12:56:23Z</time>
      </trkpt>
      <trkpt lat="43.86346" lon="7.26632">
        <ele>1062.39</ele>
        <time>2021-05-08T12:56:34Z</time>
      </trkpt>
      <trkpt lat="43.86348" lon="7.26633">
        <ele>1062.39</ele>
        <time>2021-05-08T12:56:38Z</time>
      </trkpt>
      <trkpt lat="43.86349" lon="7.26632">
        <ele>1062.39</ele>
        <time>2021-05-08T12:56:39Z</time>
      </trkpt>
      <trkpt lat="43.86351" lon="7.26631">
        <ele>1062.39</ele>
        <time>2021-05-08T12:56:41Z</time>
      </trkpt>
      <trkpt lat="43.86357" lon="7.26627">
        <ele>1062.87</ele>
        <time>2021-05-08T12:56:48Z</time>
      </trkpt>
      <trkpt lat="43.86356" lon="7.26623">
        <ele>1061.91</ele>
        <time>2021-05-08T12:57:01Z</time>
      </trkpt>
      <trkpt lat="43.86356" lon="7.26623">
        <ele>1061.91</ele>
        <time>2021-05-08T12:57:31Z</time>
      </trkpt>
      <trkpt lat="43.86357" lon="7.26623">
        <ele>1061.91</ele>
        <time>2021-05-08T12:58:04Z</time>
      </trkpt>
      <trkpt lat="43.86358" lon="7.26623">
        <ele>1061.91</ele>
        <time>2021-05-08T12:58:35Z</time>
      </trkpt>
      <trkpt lat="43.86359" lon="7.26623">
        <ele>1061.91</ele>
        <time>2021-05-08T12:59:05Z</time>
      </trkpt>
      <trkpt lat="43.86358" lon="7.26622">
        <ele>1061.91</ele>
        <time>2021-05-08T12:59:37Z</time>
      </trkpt>
      <trkpt lat="43.86357" lon="7.26622">
        <ele>1061.91</ele>
        <time>2021-05-08T13:00:09Z</time>
      </trkpt>
      <trkpt lat="43.86357" lon="7.26622">
        <ele>1061.91</ele>
        <time>2021-05-08T13:00:41Z</time>
      </trkpt>
      <trkpt lat="43.86355" lon="7.26621">
        <ele>1061.91</ele>
        <time>2021-05-08T13:01:11Z</time>
      </trkpt>
      <trkpt lat="43.86355" lon="7.26621">
        <ele>1061.91</ele>
        <time>2021-05-08T13:01:37Z</time>
      </trkpt>
      <trkpt lat="43.86355" lon="7.26623">
        <ele>1061.91</ele>
        <time>2021-05-08T13:02:09Z</time>
      </trkpt>
      <trkpt lat="43.86356" lon="7.26623">
        <ele>1061.91</ele>
        <time>2021-05-08T13:02:35Z</time>
      </trkpt>
      <trkpt lat="43.86356" lon="7.26622">
        <ele>1062.39</ele>
        <time>2021-05-08T13:03:09Z</time>
      </trkpt>
      <trkpt lat="43.86358" lon="7.26623">
        <ele>1061.91</ele>
        <time>2021-05-08T13:03:43Z</time>
      </trkpt>
      <trkpt lat="43.86358" lon="7.26626">
        <ele>1062.39</ele>
        <time>2021-05-08T13:04:19Z</time>
      </trkpt>
      <trkpt lat="43.86359" lon="7.26625">
        <ele>1062.87</ele>
        <time>2021-05-08T13:04:56Z</time>
      </trkpt>
      <trkpt lat="43.86359" lon="7.26626">
        <ele>1062.87</ele>
        <time>2021-05-08T13:05:33Z</time>
      </trkpt>
      <trkpt lat="43.86359" lon="7.26626">
        <ele>1062.39</ele>
        <time>2021-05-08T13:06:08Z</time>
      </trkpt>
      <trkpt lat="43.86359" lon="7.26626">
        <ele>1063.36</ele>
        <time>2021-05-08T13:06:39Z</time>
      </trkpt>
      <trkpt lat="43.86359" lon="7.26628">
        <ele>1063.84</ele>
        <time>2021-05-08T13:06:49Z</time>
      </trkpt>
      <trkpt lat="43.86359" lon="7.26628">
        <ele>1063.84</ele>
        <time>2021-05-08T13:07:12Z</time>
      </trkpt>
      <trkpt lat="43.86357" lon="7.26628">
        <ele>1063.84</ele>
        <time>2021-05-08T13:07:29Z</time>
      </trkpt>
      <trkpt lat="43.86355" lon="7.26629">
        <ele>1063.84</ele>
        <time>2021-05-08T13:07:30Z</time>
      </trkpt>
      <trkpt lat="43.86353" lon="7.26629">
        <ele>1063.84</ele>
        <time>2021-05-08T13:07:31Z</time>
      </trkpt>
      <trkpt lat="43.86352" lon="7.26631">
        <ele>1063.84</ele>
        <time>2021-05-08T13:07:32Z</time>
      </trkpt>
      <trkpt lat="43.8635" lon="7.26631">
        <ele>1063.84</ele>
        <time>2021-05-08T13:07:33Z</time>
      </trkpt>
      <trkpt lat="43.86348" lon="7.26631">
        <ele>1063.84</ele>
        <time>2021-05-08T13:07:34Z</time>
      </trkpt>
      <trkpt lat="43.86346" lon="7.26632">
        <ele>1063.36</ele>
        <time>2021-05-08T13:07:35Z</time>
      </trkpt>
      <trkpt lat="43.86343" lon="7.26633">
        <ele>1063.36</ele>
        <time>2021-05-08T13:07:36Z</time>
      </trkpt>
      <trkpt lat="43.86341" lon="7.26635">
        <ele>1063.36</ele>
        <time>2021-05-08T13:07:37Z</time>
      </trkpt>
      <trkpt lat="43.86284" lon="7.26659">
        <ele>1059.99</ele>
        <time>2021-05-08T13:07:50Z</time>
      </trkpt>
      <trkpt lat="43.86231" lon="7.26672">
        <ele>1056.15</ele>
        <time>2021-05-08T13:07:58Z</time>
      </trkpt>
      <trkpt lat="43.86208" lon="7.26679">
        <ele>1053.26</ele>
        <time>2021-05-08T13:08:03Z</time>
      </trkpt>
      <trkpt lat="43.86203" lon="7.26681">
        <ele>1052.78</ele>
        <time>2021-05-08T13:08:04Z</time>
      </trkpt>
      <trkpt lat="43.86199" lon="7.26683">
        <ele>1052.78</ele>
        <time>2021-05-08T13:08:05Z</time>
      </trkpt>
      <trkpt lat="43.86196" lon="7.26684">
        <ele>1052.78</ele>
        <time>2021-05-08T13:08:06Z</time>
      </trkpt>
      <trkpt lat="43.86173" lon="7.26692">
        <ele>1053.74</ele>
        <time>2021-05-08T13:08:18Z</time>
      </trkpt>
      <trkpt lat="43.86152" lon="7.26702">
        <ele>1054.7</ele>
        <time>2021-05-08T13:08:31Z</time>
      </trkpt>
      <trkpt lat="43.86131" lon="7.26714">
        <ele>1057.11</ele>
        <time>2021-05-08T13:08:46Z</time>
      </trkpt>
      <trkpt lat="43.86112" lon="7.26729">
        <ele>1059.03</ele>
        <time>2021-05-08T13:08:56Z</time>
      </trkpt>
      <trkpt lat="43.86083" lon="7.26739">
        <ele>1061.43</ele>
        <time>2021-05-08T13:09:08Z</time>
      </trkpt>
      <trkpt lat="43.86051" lon="7.26747">
        <ele>1064.32</ele>
        <time>2021-05-08T13:09:20Z</time>
      </trkpt>
      <trkpt lat="43.86021" lon="7.26751">
        <ele>1067.2</ele>
        <time>2021-05-08T13:09:34Z</time>
      </trkpt>
      <trkpt lat="43.85997" lon="7.26755">
        <ele>1069.6</ele>
        <time>2021-05-08T13:09:47Z</time>
      </trkpt>
      <trkpt lat="43.85974" lon="7.26769">
        <ele>1072.49</ele>
        <time>2021-05-08T13:10:00Z</time>
      </trkpt>
      <trkpt lat="43.85952" lon="7.26779">
        <ele>1074.89</ele>
        <time>2021-05-08T13:10:12Z</time>
      </trkpt>
      <trkpt lat="43.85951" lon="7.2678">
        <ele>1074.89</ele>
        <time>2021-05-08T13:10:13Z</time>
      </trkpt>
      <trkpt lat="43.8595" lon="7.26781">
        <ele>1075.37</ele>
        <time>2021-05-08T13:10:14Z</time>
      </trkpt>
      <trkpt lat="43.85948" lon="7.26781">
        <ele>1075.37</ele>
        <time>2021-05-08T13:10:15Z</time>
      </trkpt>
      <trkpt lat="43.85946" lon="7.26781">
        <ele>1075.37</ele>
        <time>2021-05-08T13:10:16Z</time>
      </trkpt>
      <trkpt lat="43.85919" lon="7.26769">
        <ele>1078.26</ele>
        <time>2021-05-08T13:10:29Z</time>
      </trkpt>
      <trkpt lat="43.85893" lon="7.26754">
        <ele>1081.14</ele>
        <time>2021-05-08T13:10:42Z</time>
      </trkpt>
      <trkpt lat="43.85864" lon="7.26764">
        <ele>1084.02</ele>
        <time>2021-05-08T13:10:56Z</time>
      </trkpt>
      <trkpt lat="43.8584" lon="7.26777">
        <ele>1086.91</ele>
        <time>2021-05-08T13:11:08Z</time>
      </trkpt>
      <trkpt lat="43.85819" lon="7.26784">
        <ele>1090.27</ele>
        <time>2021-05-08T13:11:19Z</time>
      </trkpt>
      <trkpt lat="43.85796" lon="7.26792">
        <ele>1092.2</ele>
        <time>2021-05-08T13:11:31Z</time>
      </trkpt>
      <trkpt lat="43.85773" lon="7.26799">
        <ele>1094.12</ele>
        <time>2021-05-08T13:11:43Z</time>
      </trkpt>
      <trkpt lat="43.85748" lon="7.2681">
        <ele>1097.48</ele>
        <time>2021-05-08T13:11:56Z</time>
      </trkpt>
      <trkpt lat="43.85721" lon="7.26822">
        <ele>1100.37</ele>
        <time>2021-05-08T13:12:09Z</time>
      </trkpt>
      <trkpt lat="43.85695" lon="7.2683">
        <ele>1102.77</ele>
        <time>2021-05-08T13:12:21Z</time>
      </trkpt>
      <trkpt lat="43.85667" lon="7.26833">
        <ele>1105.17</ele>
        <time>2021-05-08T13:12:34Z</time>
      </trkpt>
      <trkpt lat="43.85641" lon="7.26835">
        <ele>1107.58</ele>
        <time>2021-05-08T13:12:46Z</time>
      </trkpt>
      <trkpt lat="43.85627" lon="7.26832">
        <ele>1109.5</ele>
        <time>2021-05-08T13:12:52Z</time>
      </trkpt>
      <trkpt lat="43.85604" lon="7.2683">
        <ele>1111.42</ele>
        <time>2021-05-08T13:13:03Z</time>
      </trkpt>
      <trkpt lat="43.85575" lon="7.2684">
        <ele>1113.82</ele>
        <time>2021-05-08T13:13:17Z</time>
      </trkpt>
      <trkpt lat="43.85573" lon="7.2684">
        <ele>1114.31</ele>
        <time>2021-05-08T13:13:33Z</time>
      </trkpt>
      <trkpt lat="43.85575" lon="7.26839">
        <ele>1114.31</ele>
        <time>2021-05-08T13:13:46Z</time>
      </trkpt>
      <trkpt lat="43.85576" lon="7.26839">
        <ele>1113.82</ele>
        <time>2021-05-08T13:13:47Z</time>
      </trkpt>
      <trkpt lat="43.85577" lon="7.26838">
        <ele>1113.82</ele>
        <time>2021-05-08T13:13:48Z</time>
      </trkpt>
      <trkpt lat="43.85579" lon="7.26839">
        <ele>1113.82</ele>
        <time>2021-05-08T13:13:49Z</time>
      </trkpt>
      <trkpt lat="43.8558" lon="7.26839">
        <ele>1113.82</ele>
        <time>2021-05-08T13:13:50Z</time>
      </trkpt>
      <trkpt lat="43.85586" lon="7.26842">
        <ele>1115.27</ele>
        <time>2021-05-08T13:14:02Z</time>
      </trkpt>
      <trkpt lat="43.85592" lon="7.26844">
        <ele>1117.19</ele>
        <time>2021-05-08T13:14:15Z</time>
      </trkpt>
      <trkpt lat="43.85601" lon="7.26848">
        <ele>1119.11</ele>
        <time>2021-05-08T13:14:30Z</time>
      </trkpt>
      <trkpt lat="43.85607" lon="7.26849">
        <ele>1119.59</ele>
        <time>2021-05-08T13:14:44Z</time>
      </trkpt>
      <trkpt lat="43.85612" lon="7.26851">
        <ele>1119.59</ele>
        <time>2021-05-08T13:14:56Z</time>
      </trkpt>
      <trkpt lat="43.85613" lon="7.26852">
        <ele>1119.59</ele>
        <time>2021-05-08T13:15:27Z</time>
      </trkpt>
      <trkpt lat="43.85613" lon="7.26853">
        <ele>1120.07</ele>
        <time>2021-05-08T13:15:59Z</time>
      </trkpt>
      <trkpt lat="43.85612" lon="7.26854">
        <ele>1120.55</ele>
        <time>2021-05-08T13:16:32Z</time>
      </trkpt>
      <trkpt lat="43.85611" lon="7.26853">
        <ele>1120.55</ele>
        <time>2021-05-08T13:17:06Z</time>
      </trkpt>
      <trkpt lat="43.8561" lon="7.26853">
        <ele>1120.55</ele>
        <time>2021-05-08T13:17:34Z</time>
      </trkpt>
      <trkpt lat="43.8561" lon="7.26853">
        <ele>1121.03</ele>
        <time>2021-05-08T13:18:05Z</time>
      </trkpt>
      <trkpt lat="43.85611" lon="7.26853">
        <ele>1121.52</ele>
        <time>2021-05-08T13:18:33Z</time>
      </trkpt>
      <trkpt lat="43.85612" lon="7.26854">
        <ele>1122</ele>
        <time>2021-05-08T13:19:04Z</time>
      </trkpt>
      <trkpt lat="43.85612" lon="7.26855">
        <ele>1122.48</ele>
        <time>2021-05-08T13:19:33Z</time>
      </trkpt>
      <trkpt lat="43.85612" lon="7.26856">
        <ele>1122.48</ele>
        <time>2021-05-08T13:20:03Z</time>
      </trkpt>
      <trkpt lat="43.85612" lon="7.26856">
        <ele>1122.96</ele>
        <time>2021-05-08T13:20:36Z</time>
      </trkpt>
      <trkpt lat="43.85613" lon="7.26858">
        <ele>1122.48</ele>
        <time>2021-05-08T13:21:12Z</time>
      </trkpt>
      <trkpt lat="43.85614" lon="7.26858">
        <ele>1122.48</ele>
        <time>2021-05-08T13:21:50Z</time>
      </trkpt>
      <trkpt lat="43.85614" lon="7.26858">
        <ele>1122.48</ele>
        <time>2021-05-08T13:22:18Z</time>
      </trkpt>
      <trkpt lat="43.85615" lon="7.26858">
        <ele>1122.96</ele>
        <time>2021-05-08T13:22:49Z</time>
      </trkpt>
      <trkpt lat="43.85615" lon="7.26859">
        <ele>1122.48</ele>
        <time>2021-05-08T13:23:20Z</time>
      </trkpt>
      <trkpt lat="43.85614" lon="7.26858">
        <ele>1122.48</ele>
        <time>2021-05-08T13:23:51Z</time>
      </trkpt>
      <trkpt lat="43.85615" lon="7.26857">
        <ele>1122.96</ele>
        <time>2021-05-08T13:24:17Z</time>
      </trkpt>
      <trkpt lat="43.85615" lon="7.26857">
        <ele>1123.44</ele>
        <time>2021-05-08T13:24:27Z</time>
      </trkpt>
      <trkpt lat="43.85612" lon="7.26855">
        <ele>1122.96</ele>
        <time>2021-05-08T13:24:33Z</time>
      </trkpt>
      <trkpt lat="43.85611" lon="7.26854">
        <ele>1123.44</ele>
        <time>2021-05-08T13:24:34Z</time>
      </trkpt>
      <trkpt lat="43.8561" lon="7.26854">
        <ele>1122.96</ele>
        <time>2021-05-08T13:24:35Z</time>
      </trkpt>
      <trkpt lat="43.85608" lon="7.26853">
        <ele>1122.96</ele>
        <time>2021-05-08T13:24:36Z</time>
      </trkpt>
      <trkpt lat="43.85606" lon="7.26852">
        <ele>1122.96</ele>
        <time>2021-05-08T13:24:37Z</time>
      </trkpt>
      <trkpt lat="43.85604" lon="7.26851">
        <ele>1122.48</ele>
        <time>2021-05-08T13:24:38Z</time>
      </trkpt>
      <trkpt lat="43.85595" lon="7.26847">
        <ele>1121.03</ele>
        <time>2021-05-08T13:24:44Z</time>
      </trkpt>
      <trkpt lat="43.85593" lon="7.26846">
        <ele>1121.03</ele>
        <time>2021-05-08T13:24:45Z</time>
      </trkpt>
      <trkpt lat="43.85591" lon="7.26845">
        <ele>1120.55</ele>
        <time>2021-05-08T13:24:46Z</time>
      </trkpt>
      <trkpt lat="43.85589" lon="7.26844">
        <ele>1120.07</ele>
        <time>2021-05-08T13:24:47Z</time>
      </trkpt>
      <trkpt lat="43.85583" lon="7.26841">
        <ele>1117.67</ele>
        <time>2021-05-08T13:24:57Z</time>
      </trkpt>
      <trkpt lat="43.85582" lon="7.2684">
        <ele>1117.19</ele>
        <time>2021-05-08T13:24:58Z</time>
      </trkpt>
      <trkpt lat="43.85587" lon="7.26835">
        <ele>1117.19</ele>
        <time>2021-05-08T13:25:02Z</time>
      </trkpt>
      <trkpt lat="43.85603" lon="7.26832">
        <ele>1116.23</ele>
        <time>2021-05-08T13:25:07Z</time>
      </trkpt>
      <trkpt lat="43.85607" lon="7.26831">
        <ele>1115.75</ele>
        <time>2021-05-08T13:25:08Z</time>
      </trkpt>
      <trkpt lat="43.85611" lon="7.26831">
        <ele>1115.75</ele>
        <time>2021-05-08T13:25:09Z</time>
      </trkpt>
      <trkpt lat="43.85616" lon="7.26831">
        <ele>1115.27</ele>
        <time>2021-05-08T13:25:10Z</time>
      </trkpt>
      <trkpt lat="43.85622" lon="7.26833">
        <ele>1114.79</ele>
        <time>2021-05-08T13:25:11Z</time>
      </trkpt>
      <trkpt lat="43.85627" lon="7.26834">
        <ele>1114.31</ele>
        <time>2021-05-08T13:25:12Z</time>
      </trkpt>
      <trkpt lat="43.85633" lon="7.26835">
        <ele>1113.82</ele>
        <time>2021-05-08T13:25:13Z</time>
      </trkpt>
      <trkpt lat="43.85639" lon="7.26835">
        <ele>1113.82</ele>
        <time>2021-05-08T13:25:14Z</time>
      </trkpt>
      <trkpt lat="43.85645" lon="7.26834">
        <ele>1113.34</ele>
        <time>2021-05-08T13:25:15Z</time>
      </trkpt>
      <trkpt lat="43.85672" lon="7.26827">
        <ele>1109.98</ele>
        <time>2021-05-08T13:25:19Z</time>
      </trkpt>
      <trkpt lat="43.85679" lon="7.26826">
        <ele>1109.5</ele>
        <time>2021-05-08T13:25:20Z</time>
      </trkpt>
      <trkpt lat="43.85684" lon="7.26826">
        <ele>1109.02</ele>
        <time>2021-05-08T13:25:21Z</time>
      </trkpt>
      <trkpt lat="43.85689" lon="7.26826">
        <ele>1108.54</ele>
        <time>2021-05-08T13:25:22Z</time>
      </trkpt>
      <trkpt lat="43.85694" lon="7.26828">
        <ele>1108.54</ele>
        <time>2021-05-08T13:25:23Z</time>
      </trkpt>
      <trkpt lat="43.85699" lon="7.26828">
        <ele>1108.06</ele>
        <time>2021-05-08T13:25:24Z</time>
      </trkpt>
      <trkpt lat="43.85705" lon="7.26827">
        <ele>1107.1</ele>
        <time>2021-05-08T13:25:25Z</time>
      </trkpt>
      <trkpt lat="43.85711" lon="7.26824">
        <ele>1106.61</ele>
        <time>2021-05-08T13:25:26Z</time>
      </trkpt>
      <trkpt lat="43.85718" lon="7.26821">
        <ele>1106.13</ele>
        <time>2021-05-08T13:25:27Z</time>
      </trkpt>
      <trkpt lat="43.85724" lon="7.26817">
        <ele>1105.17</ele>
        <time>2021-05-08T13:25:28Z</time>
      </trkpt>
      <trkpt lat="43.85731" lon="7.26814">
        <ele>1105.17</ele>
        <time>2021-05-08T13:25:29Z</time>
      </trkpt>
      <trkpt lat="43.85758" lon="7.26804">
        <ele>1101.81</ele>
        <time>2021-05-08T13:25:33Z</time>
      </trkpt>
      <trkpt lat="43.85764" lon="7.26802">
        <ele>1100.85</ele>
        <time>2021-05-08T13:25:34Z</time>
      </trkpt>
      <trkpt lat="43.85769" lon="7.268">
        <ele>1099.89</ele>
        <time>2021-05-08T13:25:35Z</time>
      </trkpt>
      <trkpt lat="43.85785" lon="7.26793">
        <ele>1098.92</ele>
        <time>2021-05-08T13:25:38Z</time>
      </trkpt>
      <trkpt lat="43.85791" lon="7.26793">
        <ele>1098.44</ele>
        <time>2021-05-08T13:25:39Z</time>
      </trkpt>
      <trkpt lat="43.85797" lon="7.26793">
        <ele>1097.96</ele>
        <time>2021-05-08T13:25:40Z</time>
      </trkpt>
      <trkpt lat="43.85803" lon="7.26792">
        <ele>1097.48</ele>
        <time>2021-05-08T13:25:41Z</time>
      </trkpt>
      <trkpt lat="43.85809" lon="7.26789">
        <ele>1097.48</ele>
        <time>2021-05-08T13:25:42Z</time>
      </trkpt>
      <trkpt lat="43.85816" lon="7.26786">
        <ele>1096.52</ele>
        <time>2021-05-08T13:25:43Z</time>
      </trkpt>
      <trkpt lat="43.85838" lon="7.26778">
        <ele>1093.16</ele>
        <time>2021-05-08T13:25:46Z</time>
      </trkpt>
      <trkpt lat="43.85857" lon="7.26771">
        <ele>1091.23</ele>
        <time>2021-05-08T13:25:49Z</time>
      </trkpt>
      <trkpt lat="43.85862" lon="7.26765">
        <ele>1091.23</ele>
        <time>2021-05-08T13:25:50Z</time>
      </trkpt>
      <trkpt lat="43.85872" lon="7.26755">
        <ele>1088.83</ele>
        <time>2021-05-08T13:25:52Z</time>
      </trkpt>
      <trkpt lat="43.85878" lon="7.26753">
        <ele>1088.35</ele>
        <time>2021-05-08T13:25:53Z</time>
      </trkpt>
      <trkpt lat="43.85884" lon="7.26752">
        <ele>1087.87</ele>
        <time>2021-05-08T13:25:54Z</time>
      </trkpt>
      <trkpt lat="43.8589" lon="7.26752">
        <ele>1086.91</ele>
        <time>2021-05-08T13:25:55Z</time>
      </trkpt>
      <trkpt lat="43.85896" lon="7.26754">
        <ele>1086.43</ele>
        <time>2021-05-08T13:25:56Z</time>
      </trkpt>
      <trkpt lat="43.85902" lon="7.26756">
        <ele>1085.95</ele>
        <time>2021-05-08T13:25:57Z</time>
      </trkpt>
      <trkpt lat="43.85907" lon="7.26759">
        <ele>1085.47</ele>
        <time>2021-05-08T13:25:58Z</time>
      </trkpt>
      <trkpt lat="43.85912" lon="7.26764">
        <ele>1084.5</ele>
        <time>2021-05-08T13:25:59Z</time>
      </trkpt>
      <trkpt lat="43.85918" lon="7.26769">
        <ele>1084.02</ele>
        <time>2021-05-08T13:26:00Z</time>
      </trkpt>
      <trkpt lat="43.85923" lon="7.26774">
        <ele>1083.54</ele>
        <time>2021-05-08T13:26:01Z</time>
      </trkpt>
      <trkpt lat="43.85928" lon="7.26777">
        <ele>1083.06</ele>
        <time>2021-05-08T13:26:02Z</time>
      </trkpt>
      <trkpt lat="43.85934" lon="7.26778">
        <ele>1082.1</ele>
        <time>2021-05-08T13:26:03Z</time>
      </trkpt>
      <trkpt lat="43.8594" lon="7.26778">
        <ele>1082.1</ele>
        <time>2021-05-08T13:26:04Z</time>
      </trkpt>
      <trkpt lat="43.85947" lon="7.26776">
        <ele>1081.62</ele>
        <time>2021-05-08T13:26:05Z</time>
      </trkpt>
      <trkpt lat="43.8598" lon="7.26759">
        <ele>1078.74</ele>
        <time>2021-05-08T13:26:10Z</time>
      </trkpt>
      <trkpt lat="43.86" lon="7.26749">
        <ele>1075.37</ele>
        <time>2021-05-08T13:26:13Z</time>
      </trkpt>
      <trkpt lat="43.86007" lon="7.26747">
        <ele>1074.89</ele>
        <time>2021-05-08T13:26:14Z</time>
      </trkpt>
      <trkpt lat="43.86015" lon="7.26747">
        <ele>1074.41</ele>
        <time>2021-05-08T13:26:15Z</time>
      </trkpt>
      <trkpt lat="43.86049" lon="7.26742">
        <ele>1072.01</ele>
        <time>2021-05-08T13:26:19Z</time>
      </trkpt>
      <trkpt lat="43.86082" lon="7.26735">
        <ele>1067.68</ele>
        <time>2021-05-08T13:26:23Z</time>
      </trkpt>
      <trkpt lat="43.86104" lon="7.26727">
        <ele>1065.76</ele>
        <time>2021-05-08T13:26:26Z</time>
      </trkpt>
      <trkpt lat="43.8611" lon="7.26723">
        <ele>1065.28</ele>
        <time>2021-05-08T13:26:27Z</time>
      </trkpt>
      <trkpt lat="43.86116" lon="7.26718">
        <ele>1064.8</ele>
        <time>2021-05-08T13:26:28Z</time>
      </trkpt>
      <trkpt lat="43.86128" lon="7.26709">
        <ele>1063.36</ele>
        <time>2021-05-08T13:26:30Z</time>
      </trkpt>
      <trkpt lat="43.86134" lon="7.26705">
        <ele>1062.39</ele>
        <time>2021-05-08T13:26:31Z</time>
      </trkpt>
      <trkpt lat="43.8614" lon="7.26703">
        <ele>1062.39</ele>
        <time>2021-05-08T13:26:32Z</time>
      </trkpt>
      <trkpt lat="43.86192" lon="7.26685">
        <ele>1059.03</ele>
        <time>2021-05-08T13:26:39Z</time>
      </trkpt>
      <trkpt lat="43.86219" lon="7.26668">
        <ele>1057.59</ele>
        <time>2021-05-08T13:26:46Z</time>
      </trkpt>
      <trkpt lat="43.8623" lon="7.26649">
        <ele>1053.74</ele>
        <time>2021-05-08T13:26:50Z</time>
      </trkpt>
      <trkpt lat="43.86234" lon="7.26644">
        <ele>1052.3</ele>
        <time>2021-05-08T13:26:51Z</time>
      </trkpt>
      <trkpt lat="43.86238" lon="7.2664">
        <ele>1051.34</ele>
        <time>2021-05-08T13:26:52Z</time>
      </trkpt>
      <trkpt lat="43.86241" lon="7.26635">
        <ele>1050.38</ele>
        <time>2021-05-08T13:26:53Z</time>
      </trkpt>
      <trkpt lat="43.86245" lon="7.26629">
        <ele>1049.9</ele>
        <time>2021-05-08T13:26:54Z</time>
      </trkpt>
      <trkpt lat="43.86247" lon="7.26622">
        <ele>1048.45</ele>
        <time>2021-05-08T13:26:55Z</time>
      </trkpt>
      <trkpt lat="43.86254" lon="7.2661">
        <ele>1044.61</ele>
        <time>2021-05-08T13:26:57Z</time>
      </trkpt>
      <trkpt lat="43.86257" lon="7.26606">
        <ele>1044.13</ele>
        <time>2021-05-08T13:26:58Z</time>
      </trkpt>
      <trkpt lat="43.86262" lon="7.26602">
        <ele>1043.17</ele>
        <time>2021-05-08T13:26:59Z</time>
      </trkpt>
      <trkpt lat="43.86267" lon="7.26598">
        <ele>1042.69</ele>
        <time>2021-05-08T13:27:00Z</time>
      </trkpt>
      <trkpt lat="43.86273" lon="7.26593">
        <ele>1041.73</ele>
        <time>2021-05-08T13:27:01Z</time>
      </trkpt>
      <trkpt lat="43.86278" lon="7.26588">
        <ele>1041.25</ele>
        <time>2021-05-08T13:27:02Z</time>
      </trkpt>
      <trkpt lat="43.86283" lon="7.26584">
        <ele>1040.76</ele>
        <time>2021-05-08T13:27:03Z</time>
      </trkpt>
      <trkpt lat="43.86287" lon="7.26577">
        <ele>1040.28</ele>
        <time>2021-05-08T13:27:04Z</time>
      </trkpt>
      <trkpt lat="43.863" lon="7.26557">
        <ele>1036.92</ele>
        <time>2021-05-08T13:27:07Z</time>
      </trkpt>
      <trkpt lat="43.86314" lon="7.26538">
        <ele>1033.55</ele>
        <time>2021-05-08T13:27:10Z</time>
      </trkpt>
      <trkpt lat="43.8632" lon="7.26535">
        <ele>1033.07</ele>
        <time>2021-05-08T13:27:11Z</time>
      </trkpt>
      <trkpt lat="43.86324" lon="7.26532">
        <ele>1032.59</ele>
        <time>2021-05-08T13:27:12Z</time>
      </trkpt>
      <trkpt lat="43.86327" lon="7.26528">
        <ele>1033.07</ele>
        <time>2021-05-08T13:27:13Z</time>
      </trkpt>
      <trkpt lat="43.86328" lon="7.26523">
        <ele>1032.11</ele>
        <time>2021-05-08T13:27:14Z</time>
      </trkpt>
      <trkpt lat="43.86331" lon="7.26519">
        <ele>1031.63</ele>
        <time>2021-05-08T13:27:15Z</time>
      </trkpt>
      <trkpt lat="43.86334" lon="7.26517">
        <ele>1031.15</ele>
        <time>2021-05-08T13:27:16Z</time>
      </trkpt>
      <trkpt lat="43.86338" lon="7.26516">
        <ele>1030.67</ele>
        <time>2021-05-08T13:27:17Z</time>
      </trkpt>
      <trkpt lat="43.86342" lon="7.26513">
        <ele>1029.71</ele>
        <time>2021-05-08T13:27:18Z</time>
      </trkpt>
      <trkpt lat="43.86346" lon="7.26508">
        <ele>1029.71</ele>
        <time>2021-05-08T13:27:19Z</time>
      </trkpt>
      <trkpt lat="43.86349" lon="7.26503">
        <ele>1028.75</ele>
        <time>2021-05-08T13:27:20Z</time>
      </trkpt>
      <trkpt lat="43.86353" lon="7.265">
        <ele>1026.34</ele>
        <time>2021-05-08T13:27:21Z</time>
      </trkpt>
      <trkpt lat="43.86357" lon="7.26495">
        <ele>1025.38</ele>
        <time>2021-05-08T13:27:22Z</time>
      </trkpt>
      <trkpt lat="43.86359" lon="7.2649">
        <ele>1024.9</ele>
        <time>2021-05-08T13:27:23Z</time>
      </trkpt>
      <trkpt lat="43.86359" lon="7.26484">
        <ele>1024.9</ele>
        <time>2021-05-08T13:27:24Z</time>
      </trkpt>
      <trkpt lat="43.86358" lon="7.26478">
        <ele>1023.94</ele>
        <time>2021-05-08T13:27:25Z</time>
      </trkpt>
      <trkpt lat="43.86356" lon="7.26471">
        <ele>1023.46</ele>
        <time>2021-05-08T13:27:26Z</time>
      </trkpt>
      <trkpt lat="43.86355" lon="7.26464">
        <ele>1022.98</ele>
        <time>2021-05-08T13:27:27Z</time>
      </trkpt>
      <trkpt lat="43.86353" lon="7.26456">
        <ele>1022.98</ele>
        <time>2021-05-08T13:27:28Z</time>
      </trkpt>
      <trkpt lat="43.8635" lon="7.26442">
        <ele>1022.02</ele>
        <time>2021-05-08T13:27:30Z</time>
      </trkpt>
      <trkpt lat="43.86347" lon="7.26425">
        <ele>1018.65</ele>
        <time>2021-05-08T13:27:33Z</time>
      </trkpt>
      <trkpt lat="43.86346" lon="7.26407">
        <ele>1016.25</ele>
        <time>2021-05-08T13:27:36Z</time>
      </trkpt>
      <trkpt lat="43.86344" lon="7.26401">
        <ele>1015.77</ele>
        <time>2021-05-08T13:27:37Z</time>
      </trkpt>
      <trkpt lat="43.86339" lon="7.26391">
        <ele>1013.85</ele>
        <time>2021-05-08T13:27:39Z</time>
      </trkpt>
      <trkpt lat="43.86326" lon="7.26376">
        <ele>1012.41</ele>
        <time>2021-05-08T13:27:42Z</time>
      </trkpt>
      <trkpt lat="43.8632" lon="7.2637">
        <ele>1011.44</ele>
        <time>2021-05-08T13:27:43Z</time>
      </trkpt>
      <trkpt lat="43.86308" lon="7.26358">
        <ele>1010</ele>
        <time>2021-05-08T13:27:45Z</time>
      </trkpt>
      <trkpt lat="43.86296" lon="7.26346">
        <ele>1009.04</ele>
        <time>2021-05-08T13:27:47Z</time>
      </trkpt>
      <trkpt lat="43.8629" lon="7.26343">
        <ele>1008.56</ele>
        <time>2021-05-08T13:27:48Z</time>
      </trkpt>
      <trkpt lat="43.86284" lon="7.26343">
        <ele>1008.08</ele>
        <time>2021-05-08T13:27:49Z</time>
      </trkpt>
      <trkpt lat="43.86274" lon="7.26343">
        <ele>1006.16</ele>
        <time>2021-05-08T13:27:51Z</time>
      </trkpt>
      <trkpt lat="43.86269" lon="7.26341">
        <ele>1005.68</ele>
        <time>2021-05-08T13:27:52Z</time>
      </trkpt>
      <trkpt lat="43.86265" lon="7.26338">
        <ele>1005.2</ele>
        <time>2021-05-08T13:27:53Z</time>
      </trkpt>
      <trkpt lat="43.8626" lon="7.26334">
        <ele>1005.2</ele>
        <time>2021-05-08T13:27:54Z</time>
      </trkpt>
      <trkpt lat="43.86256" lon="7.2633">
        <ele>1004.72</ele>
        <time>2021-05-08T13:27:55Z</time>
      </trkpt>
      <trkpt lat="43.86251" lon="7.26326">
        <ele>1003.75</ele>
        <time>2021-05-08T13:27:56Z</time>
      </trkpt>
      <trkpt lat="43.86248" lon="7.26321">
        <ele>1003.27</ele>
        <time>2021-05-08T13:27:57Z</time>
      </trkpt>
      <trkpt lat="43.86245" lon="7.26316">
        <ele>1003.27</ele>
        <time>2021-05-08T13:27:58Z</time>
      </trkpt>
      <trkpt lat="43.86221" lon="7.26281">
        <ele>1000.39</ele>
        <time>2021-05-08T13:28:04Z</time>
      </trkpt>
      <trkpt lat="43.86195" lon="7.26254">
        <ele>997.02</ele>
        <time>2021-05-08T13:28:09Z</time>
      </trkpt>
      <trkpt lat="43.8618" lon="7.26237">
        <ele>993.66</ele>
        <time>2021-05-08T13:28:12Z</time>
      </trkpt>
      <trkpt lat="43.86171" lon="7.26228">
        <ele>990.78</ele>
        <time>2021-05-08T13:28:14Z</time>
      </trkpt>
      <trkpt lat="43.86158" lon="7.26213">
        <ele>987.41</ele>
        <time>2021-05-08T13:28:19Z</time>
      </trkpt>
      <trkpt lat="43.86151" lon="7.26205">
        <ele>984.53</ele>
        <time>2021-05-08T13:28:23Z</time>
      </trkpt>
      <trkpt lat="43.8615" lon="7.26204">
        <ele>984.05</ele>
        <time>2021-05-08T13:28:24Z</time>
      </trkpt>
      <trkpt lat="43.86143" lon="7.26204">
        <ele>980.68</ele>
        <time>2021-05-08T13:28:30Z</time>
      </trkpt>
      <trkpt lat="43.86126" lon="7.26201">
        <ele>977.8</ele>
        <time>2021-05-08T13:28:38Z</time>
      </trkpt>
      <trkpt lat="43.86123" lon="7.262">
        <ele>977.8</ele>
        <time>2021-05-08T13:28:39Z</time>
      </trkpt>
      <trkpt lat="43.86117" lon="7.26197">
        <ele>975.88</ele>
        <time>2021-05-08T13:28:42Z</time>
      </trkpt>
      <trkpt lat="43.86102" lon="7.26183">
        <ele>973.95</ele>
        <time>2021-05-08T13:28:51Z</time>
      </trkpt>
      <trkpt lat="43.86102" lon="7.26183">
        <ele>973.47</ele>
        <time>2021-05-08T13:29:04Z</time>
      </trkpt>
      <trkpt lat="43.86102" lon="7.26183">
        <ele>973.47</ele>
        <time>2021-05-08T13:29:35Z</time>
      </trkpt>
      <trkpt lat="43.86102" lon="7.26183">
        <ele>973.47</ele>
        <time>2021-05-08T13:30:06Z</time>
      </trkpt>
      <trkpt lat="43.86101" lon="7.26183">
        <ele>973.47</ele>
        <time>2021-05-08T13:30:36Z</time>
      </trkpt>
      <trkpt lat="43.86101" lon="7.26183">
        <ele>973.47</ele>
        <time>2021-05-08T13:31:07Z</time>
      </trkpt>
      <trkpt lat="43.86101" lon="7.26183">
        <ele>973.47</ele>
        <time>2021-05-08T13:31:35Z</time>
      </trkpt>
      <trkpt lat="43.861" lon="7.26184">
        <ele>973.95</ele>
        <time>2021-05-08T13:32:04Z</time>
      </trkpt>
      <trkpt lat="43.86101" lon="7.26184">
        <ele>973.47</ele>
        <time>2021-05-08T13:32:31Z</time>
      </trkpt>
      <trkpt lat="43.86102" lon="7.26183">
        <ele>973.95</ele>
        <time>2021-05-08T13:33:08Z</time>
      </trkpt>
      <trkpt lat="43.86102" lon="7.26183">
        <ele>973.95</ele>
        <time>2021-05-08T13:33:34Z</time>
      </trkpt>
      <trkpt lat="43.86101" lon="7.26183">
        <ele>974.43</ele>
        <time>2021-05-08T13:33:58Z</time>
      </trkpt>
      <trkpt lat="43.86102" lon="7.26183">
        <ele>974.43</ele>
        <time>2021-05-08T13:34:20Z</time>
      </trkpt>
      <trkpt lat="43.86101" lon="7.26184">
        <ele>973.95</ele>
        <time>2021-05-08T13:34:40Z</time>
      </trkpt>
      <trkpt lat="43.86102" lon="7.26182">
        <ele>973.95</ele>
        <time>2021-05-08T13:35:20Z</time>
      </trkpt>
      <trkpt lat="43.86101" lon="7.26182">
        <ele>974.43</ele>
        <time>2021-05-08T13:35:54Z</time>
      </trkpt>
      <trkpt lat="43.86097" lon="7.26176">
        <ele>972.99</ele>
        <time>2021-05-08T13:36:08Z</time>
      </trkpt>
      <trkpt lat="43.86085" lon="7.26159">
        <ele>969.63</ele>
        <time>2021-05-08T13:36:15Z</time>
      </trkpt>
      <trkpt lat="43.86085" lon="7.26157">
        <ele>969.15</ele>
        <time>2021-05-08T13:36:16Z</time>
      </trkpt>
      <trkpt lat="43.86085" lon="7.26155">
        <ele>968.67</ele>
        <time>2021-05-08T13:36:17Z</time>
      </trkpt>
      <trkpt lat="43.86084" lon="7.26153">
        <ele>968.67</ele>
        <time>2021-05-08T13:36:18Z</time>
      </trkpt>
      <trkpt lat="43.86082" lon="7.26152">
        <ele>968.18</ele>
        <time>2021-05-08T13:36:19Z</time>
      </trkpt>
      <trkpt lat="43.86081" lon="7.2615">
        <ele>967.22</ele>
        <time>2021-05-08T13:36:20Z</time>
      </trkpt>
      <trkpt lat="43.8608" lon="7.2615">
        <ele>966.74</ele>
        <time>2021-05-08T13:36:21Z</time>
      </trkpt>
      <trkpt lat="43.86078" lon="7.2615">
        <ele>965.78</ele>
        <time>2021-05-08T13:36:22Z</time>
      </trkpt>
      <trkpt lat="43.86077" lon="7.26151">
        <ele>965.3</ele>
        <time>2021-05-08T13:36:23Z</time>
      </trkpt>
      <trkpt lat="43.86075" lon="7.26153">
        <ele>965.3</ele>
        <time>2021-05-08T13:36:24Z</time>
      </trkpt>
      <trkpt lat="43.86065" lon="7.26159">
        <ele>962.42</ele>
        <time>2021-05-08T13:36:30Z</time>
      </trkpt>
      <trkpt lat="43.86062" lon="7.26161">
        <ele>960.98</ele>
        <time>2021-05-08T13:36:38Z</time>
      </trkpt>
      <trkpt lat="43.8606" lon="7.26159">
        <ele>960.49</ele>
        <time>2021-05-08T13:36:43Z</time>
      </trkpt>
      <trkpt lat="43.86059" lon="7.26157">
        <ele>960.49</ele>
        <time>2021-05-08T13:36:44Z</time>
      </trkpt>
      <trkpt lat="43.8606" lon="7.26154">
        <ele>960.01</ele>
        <time>2021-05-08T13:36:45Z</time>
      </trkpt>
      <trkpt lat="43.86061" lon="7.26151">
        <ele>959.53</ele>
        <time>2021-05-08T13:36:46Z</time>
      </trkpt>
      <trkpt lat="43.86062" lon="7.26148">
        <ele>959.05</ele>
        <time>2021-05-08T13:36:47Z</time>
      </trkpt>
      <trkpt lat="43.86071" lon="7.2613">
        <ele>955.69</ele>
        <time>2021-05-08T13:36:53Z</time>
      </trkpt>
      <trkpt lat="43.86081" lon="7.26108">
        <ele>952.32</ele>
        <time>2021-05-08T13:37:00Z</time>
      </trkpt>
      <trkpt lat="43.86088" lon="7.26091">
        <ele>948.96</ele>
        <time>2021-05-08T13:37:05Z</time>
      </trkpt>
      <trkpt lat="43.86092" lon="7.26081">
        <ele>947.52</ele>
        <time>2021-05-08T13:37:14Z</time>
      </trkpt>
      <trkpt lat="43.86094" lon="7.26075">
        <ele>944.63</ele>
        <time>2021-05-08T13:37:24Z</time>
      </trkpt>
      <trkpt lat="43.86096" lon="7.26069">
        <ele>943.19</ele>
        <time>2021-05-08T13:37:36Z</time>
      </trkpt>
      <trkpt lat="43.86098" lon="7.26059">
        <ele>941.27</ele>
        <time>2021-05-08T13:37:47Z</time>
      </trkpt>
      <trkpt lat="43.86099" lon="7.26051">
        <ele>938.86</ele>
        <time>2021-05-08T13:37:57Z</time>
      </trkpt>
      <trkpt lat="43.86101" lon="7.26048">
        <ele>938.38</ele>
        <time>2021-05-08T13:38:03Z</time>
      </trkpt>
      <trkpt lat="43.86103" lon="7.26046">
        <ele>938.38</ele>
        <time>2021-05-08T13:38:04Z</time>
      </trkpt>
      <trkpt lat="43.86104" lon="7.26044">
        <ele>937.9</ele>
        <time>2021-05-08T13:38:05Z</time>
      </trkpt>
      <trkpt lat="43.86104" lon="7.2604">
        <ele>937.42</ele>
        <time>2021-05-08T13:38:06Z</time>
      </trkpt>
      <trkpt lat="43.86104" lon="7.26036">
        <ele>936.46</ele>
        <time>2021-05-08T13:38:07Z</time>
      </trkpt>
      <trkpt lat="43.86103" lon="7.26033">
        <ele>935.98</ele>
        <time>2021-05-08T13:38:08Z</time>
      </trkpt>
      <trkpt lat="43.86103" lon="7.26029">
        <ele>935.02</ele>
        <time>2021-05-08T13:38:09Z</time>
      </trkpt>
      <trkpt lat="43.86102" lon="7.26025">
        <ele>934.06</ele>
        <time>2021-05-08T13:38:10Z</time>
      </trkpt>
      <trkpt lat="43.86102" lon="7.26021">
        <ele>933.1</ele>
        <time>2021-05-08T13:38:11Z</time>
      </trkpt>
      <trkpt lat="43.86101" lon="7.26017">
        <ele>932.62</ele>
        <time>2021-05-08T13:38:12Z</time>
      </trkpt>
      <trkpt lat="43.86099" lon="7.26014">
        <ele>931.65</ele>
        <time>2021-05-08T13:38:13Z</time>
      </trkpt>
      <trkpt lat="43.86097" lon="7.2601">
        <ele>930.69</ele>
        <time>2021-05-08T13:38:14Z</time>
      </trkpt>
      <trkpt lat="43.86096" lon="7.26005">
        <ele>929.73</ele>
        <time>2021-05-08T13:38:15Z</time>
      </trkpt>
      <trkpt lat="43.86091" lon="7.25997">
        <ele>927.81</ele>
        <time>2021-05-08T13:38:17Z</time>
      </trkpt>
      <trkpt lat="43.86087" lon="7.25993">
        <ele>927.33</ele>
        <time>2021-05-08T13:38:18Z</time>
      </trkpt>
      <trkpt lat="43.86082" lon="7.2599">
        <ele>925.89</ele>
        <time>2021-05-08T13:38:19Z</time>
      </trkpt>
      <trkpt lat="43.86077" lon="7.25987">
        <ele>924.93</ele>
        <time>2021-05-08T13:38:20Z</time>
      </trkpt>
      <trkpt lat="43.86073" lon="7.25985">
        <ele>923.96</ele>
        <time>2021-05-08T13:38:21Z</time>
      </trkpt>
      <trkpt lat="43.86068" lon="7.25983">
        <ele>923.48</ele>
        <time>2021-05-08T13:38:22Z</time>
      </trkpt>
      <trkpt lat="43.86064" lon="7.25981">
        <ele>922.52</ele>
        <time>2021-05-08T13:38:23Z</time>
      </trkpt>
      <trkpt lat="43.86061" lon="7.2598">
        <ele>922.04</ele>
        <time>2021-05-08T13:38:24Z</time>
      </trkpt>
      <trkpt lat="43.86059" lon="7.2598">
        <ele>921.56</ele>
        <time>2021-05-08T13:38:25Z</time>
      </trkpt>
      <trkpt lat="43.86058" lon="7.25981">
        <ele>921.56</ele>
        <time>2021-05-08T13:38:26Z</time>
      </trkpt>
      <trkpt lat="43.86057" lon="7.2598">
        <ele>921.08</ele>
        <time>2021-05-08T13:38:36Z</time>
      </trkpt>
      <trkpt lat="43.86057" lon="7.25979">
        <ele>921.08</ele>
        <time>2021-05-08T13:38:50Z</time>
      </trkpt>
      <trkpt lat="43.86055" lon="7.25978">
        <ele>921.56</ele>
        <time>2021-05-08T13:38:55Z</time>
      </trkpt>
      <trkpt lat="43.86054" lon="7.25978">
        <ele>921.56</ele>
        <time>2021-05-08T13:38:56Z</time>
      </trkpt>
      <trkpt lat="43.86053" lon="7.25978">
        <ele>921.08</ele>
        <time>2021-05-08T13:39:11Z</time>
      </trkpt>
      <trkpt lat="43.86053" lon="7.25978">
        <ele>921.56</ele>
        <time>2021-05-08T13:39:49Z</time>
      </trkpt>
      <trkpt lat="43.86052" lon="7.25975">
        <ele>921.56</ele>
        <time>2021-05-08T13:40:32Z</time>
      </trkpt>
      <trkpt lat="43.86052" lon="7.25974">
        <ele>921.56</ele>
        <time>2021-05-08T13:41:12Z</time>
      </trkpt>
      <trkpt lat="43.86052" lon="7.25975">
        <ele>922.04</ele>
        <time>2021-05-08T13:41:55Z</time>
      </trkpt>
      <trkpt lat="43.86052" lon="7.25975">
        <ele>922.04</ele>
        <time>2021-05-08T13:42:37Z</time>
      </trkpt>
      <trkpt lat="43.86052" lon="7.25975">
        <ele>922.52</ele>
        <time>2021-05-08T13:43:16Z</time>
      </trkpt>
      <trkpt lat="43.86052" lon="7.25977">
        <ele>922.52</ele>
        <time>2021-05-08T13:43:51Z</time>
      </trkpt>
      <trkpt lat="43.86045" lon="7.25973">
        <ele>922.04</ele>
        <time>2021-05-08T13:44:17Z</time>
      </trkpt>
      <trkpt lat="43.86027" lon="7.25957">
        <ele>921.08</ele>
        <time>2021-05-08T13:44:33Z</time>
      </trkpt>
      <trkpt lat="43.86017" lon="7.25944">
        <ele>922.52</ele>
        <time>2021-05-08T13:44:50Z</time>
      </trkpt>
      <trkpt lat="43.86014" lon="7.25942">
        <ele>922.52</ele>
        <time>2021-05-08T13:44:52Z</time>
      </trkpt>
      <trkpt lat="43.86012" lon="7.2594">
        <ele>922.52</ele>
        <time>2021-05-08T13:44:53Z</time>
      </trkpt>
      <trkpt lat="43.86009" lon="7.25938">
        <ele>922.52</ele>
        <time>2021-05-08T13:44:54Z</time>
      </trkpt>
      <trkpt lat="43.85979" lon="7.25917">
        <ele>922.04</ele>
        <time>2021-05-08T13:45:06Z</time>
      </trkpt>
      <trkpt lat="43.8594" lon="7.259">
        <ele>920.12</ele>
        <time>2021-05-08T13:45:16Z</time>
      </trkpt>
      <trkpt lat="43.85915" lon="7.2589">
        <ele>918.68</ele>
        <time>2021-05-08T13:45:21Z</time>
      </trkpt>
      <trkpt lat="43.85889" lon="7.25875">
        <ele>918.2</ele>
        <time>2021-05-08T13:45:27Z</time>
      </trkpt>
      <trkpt lat="43.8586" lon="7.25859">
        <ele>919.16</ele>
        <time>2021-05-08T13:45:38Z</time>
      </trkpt>
      <trkpt lat="43.85829" lon="7.2584">
        <ele>918.68</ele>
        <time>2021-05-08T13:45:51Z</time>
      </trkpt>
      <trkpt lat="43.85784" lon="7.25817">
        <ele>916.27</ele>
        <time>2021-05-08T13:46:03Z</time>
      </trkpt>
      <trkpt lat="43.85771" lon="7.25809">
        <ele>914.83</ele>
        <time>2021-05-08T13:46:06Z</time>
      </trkpt>
      <trkpt lat="43.85767" lon="7.25805">
        <ele>914.83</ele>
        <time>2021-05-08T13:46:07Z</time>
      </trkpt>
      <trkpt lat="43.85762" lon="7.25801">
        <ele>914.35</ele>
        <time>2021-05-08T13:46:08Z</time>
      </trkpt>
      <trkpt lat="43.85757" lon="7.25797">
        <ele>913.39</ele>
        <time>2021-05-08T13:46:09Z</time>
      </trkpt>
      <trkpt lat="43.85752" lon="7.25795">
        <ele>912.91</ele>
        <time>2021-05-08T13:46:10Z</time>
      </trkpt>
      <trkpt lat="43.85725" lon="7.25776">
        <ele>914.83</ele>
        <time>2021-05-08T13:46:20Z</time>
      </trkpt>
      <trkpt lat="43.85694" lon="7.25757">
        <ele>915.79</ele>
        <time>2021-05-08T13:46:34Z</time>
      </trkpt>
      <trkpt lat="43.85692" lon="7.25756">
        <ele>915.31</ele>
        <time>2021-05-08T13:46:44Z</time>
      </trkpt>
      <trkpt lat="43.8569" lon="7.25756">
        <ele>915.31</ele>
        <time>2021-05-08T13:46:56Z</time>
      </trkpt>
      <trkpt lat="43.85688" lon="7.25754">
        <ele>915.31</ele>
        <time>2021-05-08T13:46:57Z</time>
      </trkpt>
      <trkpt lat="43.85669" lon="7.25743">
        <ele>914.83</ele>
        <time>2021-05-08T13:47:03Z</time>
      </trkpt>
      <trkpt lat="43.85664" lon="7.25742">
        <ele>913.87</ele>
        <time>2021-05-08T13:47:04Z</time>
      </trkpt>
      <trkpt lat="43.85659" lon="7.25741">
        <ele>913.87</ele>
        <time>2021-05-08T13:47:05Z</time>
      </trkpt>
      <trkpt lat="43.85619" lon="7.25728">
        <ele>910.51</ele>
        <time>2021-05-08T13:47:11Z</time>
      </trkpt>
      <trkpt lat="43.85604" lon="7.25724">
        <ele>908.58</ele>
        <time>2021-05-08T13:47:13Z</time>
      </trkpt>
      <trkpt lat="43.8559" lon="7.25716">
        <ele>907.62</ele>
        <time>2021-05-08T13:47:15Z</time>
      </trkpt>
      <trkpt lat="43.85577" lon="7.25707">
        <ele>906.18</ele>
        <time>2021-05-08T13:47:17Z</time>
      </trkpt>
      <trkpt lat="43.85567" lon="7.25694">
        <ele>904.26</ele>
        <time>2021-05-08T13:47:21Z</time>
      </trkpt>
      <trkpt lat="43.85556" lon="7.25685">
        <ele>901.37</ele>
        <time>2021-05-08T13:47:27Z</time>
      </trkpt>
      <trkpt lat="43.85548" lon="7.2568">
        <ele>899.93</ele>
        <time>2021-05-08T13:47:37Z</time>
      </trkpt>
      <trkpt lat="43.85539" lon="7.25668">
        <ele>896.57</ele>
        <time>2021-05-08T13:47:48Z</time>
      </trkpt>
      <trkpt lat="43.85538" lon="7.25667">
        <ele>895.61</ele>
        <time>2021-05-08T13:47:53Z</time>
      </trkpt>
      <trkpt lat="43.85528" lon="7.25658">
        <ele>893.68</ele>
        <time>2021-05-08T13:47:58Z</time>
      </trkpt>
      <trkpt lat="43.85519" lon="7.25655">
        <ele>892.72</ele>
        <time>2021-05-08T13:48:01Z</time>
      </trkpt>
      <trkpt lat="43.85509" lon="7.25639">
        <ele>888.4</ele>
        <time>2021-05-08T13:48:07Z</time>
      </trkpt>
      <trkpt lat="43.85494" lon="7.25628">
        <ele>884.07</ele>
        <time>2021-05-08T13:48:15Z</time>
      </trkpt>
      <trkpt lat="43.85493" lon="7.25626">
        <ele>883.59</ele>
        <time>2021-05-08T13:48:16Z</time>
      </trkpt>
      <trkpt lat="43.85485" lon="7.25619">
        <ele>878.78</ele>
        <time>2021-05-08T13:48:22Z</time>
      </trkpt>
      <trkpt lat="43.85484" lon="7.25619">
        <ele>878.78</ele>
        <time>2021-05-08T13:48:23Z</time>
      </trkpt>
      <trkpt lat="43.85482" lon="7.25619">
        <ele>878.78</ele>
        <time>2021-05-08T13:48:31Z</time>
      </trkpt>
      <trkpt lat="43.8548" lon="7.25617">
        <ele>877.82</ele>
        <time>2021-05-08T13:48:34Z</time>
      </trkpt>
      <trkpt lat="43.85477" lon="7.25614">
        <ele>876.38</ele>
        <time>2021-05-08T13:48:46Z</time>
      </trkpt>
      <trkpt lat="43.85478" lon="7.25612">
        <ele>875.42</ele>
        <time>2021-05-08T13:48:59Z</time>
      </trkpt>
      <trkpt lat="43.85478" lon="7.25611">
        <ele>875.42</ele>
        <time>2021-05-08T13:49:00Z</time>
      </trkpt>
      <trkpt lat="43.85478" lon="7.25602">
        <ele>873.01</ele>
        <time>2021-05-08T13:49:11Z</time>
      </trkpt>
      <trkpt lat="43.85477" lon="7.25599">
        <ele>871.09</ele>
        <time>2021-05-08T13:49:18Z</time>
      </trkpt>
      <trkpt lat="43.85471" lon="7.25594">
        <ele>870.13</ele>
        <time>2021-05-08T13:49:22Z</time>
      </trkpt>
      <trkpt lat="43.85465" lon="7.25591">
        <ele>869.17</ele>
        <time>2021-05-08T13:49:24Z</time>
      </trkpt>
      <trkpt lat="43.85444" lon="7.25581">
        <ele>865.8</ele>
        <time>2021-05-08T13:49:31Z</time>
      </trkpt>
      <trkpt lat="43.85434" lon="7.25572">
        <ele>861.48</ele>
        <time>2021-05-08T13:49:35Z</time>
      </trkpt>
      <trkpt lat="43.85431" lon="7.25569">
        <ele>860.52</ele>
        <time>2021-05-08T13:49:37Z</time>
      </trkpt>
      <trkpt lat="43.85428" lon="7.25563">
        <ele>858.59</ele>
        <time>2021-05-08T13:49:46Z</time>
      </trkpt>
      <trkpt lat="43.85428" lon="7.25563">
        <ele>858.59</ele>
        <time>2021-05-08T13:49:47Z</time>
      </trkpt>
      <trkpt lat="43.85428" lon="7.25563">
        <ele>858.11</ele>
        <time>2021-05-08T13:49:49Z</time>
      </trkpt>
      <trkpt lat="43.85423" lon="7.25556">
        <ele>857.15</ele>
        <time>2021-05-08T13:49:53Z</time>
      </trkpt>
      <trkpt lat="43.85422" lon="7.25551">
        <ele>855.71</ele>
        <time>2021-05-08T13:50:03Z</time>
      </trkpt>
      <trkpt lat="43.8542" lon="7.25547">
        <ele>854.27</ele>
        <time>2021-05-08T13:50:15Z</time>
      </trkpt>
      <trkpt lat="43.8542" lon="7.25545">
        <ele>853.31</ele>
        <time>2021-05-08T13:50:20Z</time>
      </trkpt>
      <trkpt lat="43.85412" lon="7.25536">
        <ele>850.9</ele>
        <time>2021-05-08T13:50:25Z</time>
      </trkpt>
      <trkpt lat="43.85403" lon="7.25528">
        <ele>846.58</ele>
        <time>2021-05-08T13:50:29Z</time>
      </trkpt>
      <trkpt lat="43.85395" lon="7.25521">
        <ele>843.69</ele>
        <time>2021-05-08T13:50:33Z</time>
      </trkpt>
      <trkpt lat="43.85387" lon="7.25513">
        <ele>839.85</ele>
        <time>2021-05-08T13:50:37Z</time>
      </trkpt>
      <trkpt lat="43.8538" lon="7.25505">
        <ele>836.48</ele>
        <time>2021-05-08T13:50:40Z</time>
      </trkpt>
      <trkpt lat="43.85373" lon="7.25497">
        <ele>833.12</ele>
        <time>2021-05-08T13:50:43Z</time>
      </trkpt>
      <trkpt lat="43.85371" lon="7.25494">
        <ele>832.16</ele>
        <time>2021-05-08T13:50:44Z</time>
      </trkpt>
      <trkpt lat="43.8537" lon="7.25491">
        <ele>829.76</ele>
        <time>2021-05-08T13:50:48Z</time>
      </trkpt>
      <trkpt lat="43.85371" lon="7.25491">
        <ele>829.76</ele>
        <time>2021-05-08T13:50:54Z</time>
      </trkpt>
      <trkpt lat="43.85365" lon="7.25486">
        <ele>827.35</ele>
        <time>2021-05-08T13:51:06Z</time>
      </trkpt>
      <trkpt lat="43.85354" lon="7.25476">
        <ele>823.99</ele>
        <time>2021-05-08T13:51:15Z</time>
      </trkpt>
      <trkpt lat="43.85352" lon="7.25475">
        <ele>822.55</ele>
        <time>2021-05-08T13:51:16Z</time>
      </trkpt>
      <trkpt lat="43.85344" lon="7.25464">
        <ele>819.18</ele>
        <time>2021-05-08T13:51:23Z</time>
      </trkpt>
      <trkpt lat="43.85334" lon="7.25457">
        <ele>814.85</ele>
        <time>2021-05-08T13:51:28Z</time>
      </trkpt>
      <trkpt lat="43.85329" lon="7.25453">
        <ele>812.45</ele>
        <time>2021-05-08T13:51:36Z</time>
      </trkpt>
      <trkpt lat="43.85325" lon="7.25454">
        <ele>811.01</ele>
        <time>2021-05-08T13:51:41Z</time>
      </trkpt>
      <trkpt lat="43.85322" lon="7.2545">
        <ele>809.57</ele>
        <time>2021-05-08T13:51:47Z</time>
      </trkpt>
      <trkpt lat="43.85316" lon="7.25441">
        <ele>806.2</ele>
        <time>2021-05-08T13:52:00Z</time>
      </trkpt>
      <trkpt lat="43.85313" lon="7.25439">
        <ele>804.28</ele>
        <time>2021-05-08T13:52:11Z</time>
      </trkpt>
      <trkpt lat="43.8531" lon="7.25437">
        <ele>803.32</ele>
        <time>2021-05-08T13:52:14Z</time>
      </trkpt>
      <trkpt lat="43.85302" lon="7.25433">
        <ele>800.44</ele>
        <time>2021-05-08T13:52:19Z</time>
      </trkpt>
      <trkpt lat="43.85299" lon="7.25433">
        <ele>798.99</ele>
        <time>2021-05-08T13:52:31Z</time>
      </trkpt>
      <trkpt lat="43.85294" lon="7.25428">
        <ele>795.63</ele>
        <time>2021-05-08T13:52:44Z</time>
      </trkpt>
      <trkpt lat="43.85291" lon="7.25425">
        <ele>794.67</ele>
        <time>2021-05-08T13:52:53Z</time>
      </trkpt>
      <trkpt lat="43.85286" lon="7.25422">
        <ele>791.3</ele>
        <time>2021-05-08T13:53:03Z</time>
      </trkpt>
      <trkpt lat="43.85282" lon="7.25416">
        <ele>789.38</ele>
        <time>2021-05-08T13:53:16Z</time>
      </trkpt>
      <trkpt lat="43.85278" lon="7.25415">
        <ele>787.46</ele>
        <time>2021-05-08T13:53:29Z</time>
      </trkpt>
      <trkpt lat="43.85271" lon="7.25409">
        <ele>784.57</ele>
        <time>2021-05-08T13:53:42Z</time>
      </trkpt>
      <trkpt lat="43.85265" lon="7.25406">
        <ele>781.21</ele>
        <time>2021-05-08T13:53:54Z</time>
      </trkpt>
      <trkpt lat="43.85264" lon="7.25406">
        <ele>781.21</ele>
        <time>2021-05-08T13:54:07Z</time>
      </trkpt>
      <trkpt lat="43.85264" lon="7.25405">
        <ele>780.73</ele>
        <time>2021-05-08T13:54:31Z</time>
      </trkpt>
      <trkpt lat="43.85259" lon="7.25403">
        <ele>778.81</ele>
        <time>2021-05-08T13:54:48Z</time>
      </trkpt>
      <trkpt lat="43.85255" lon="7.25398">
        <ele>775.92</ele>
        <time>2021-05-08T13:55:03Z</time>
      </trkpt>
      <trkpt lat="43.85252" lon="7.25396">
        <ele>774</ele>
        <time>2021-05-08T13:55:10Z</time>
      </trkpt>
      <trkpt lat="43.85248" lon="7.25392">
        <ele>771.6</ele>
        <time>2021-05-08T13:55:22Z</time>
      </trkpt>
      <trkpt lat="43.85244" lon="7.25384">
        <ele>768.71</ele>
        <time>2021-05-08T13:55:34Z</time>
      </trkpt>
      <trkpt lat="43.85246" lon="7.25377">
        <ele>767.75</ele>
        <time>2021-05-08T13:55:46Z</time>
      </trkpt>
      <trkpt lat="43.85241" lon="7.25374">
        <ele>764.87</ele>
        <time>2021-05-08T13:55:56Z</time>
      </trkpt>
      <trkpt lat="43.85238" lon="7.25371">
        <ele>762.94</ele>
        <time>2021-05-08T13:56:09Z</time>
      </trkpt>
      <trkpt lat="43.85239" lon="7.25364">
        <ele>761.5</ele>
        <time>2021-05-08T13:56:23Z</time>
      </trkpt>
      <trkpt lat="43.85236" lon="7.25357">
        <ele>759.1</ele>
        <time>2021-05-08T13:56:33Z</time>
      </trkpt>
      <trkpt lat="43.85231" lon="7.25357">
        <ele>758.14</ele>
        <time>2021-05-08T13:56:37Z</time>
      </trkpt>
      <trkpt lat="43.85225" lon="7.2536">
        <ele>756.21</ele>
        <time>2021-05-08T13:56:42Z</time>
      </trkpt>
      <trkpt lat="43.8522" lon="7.25361">
        <ele>753.81</ele>
        <time>2021-05-08T13:56:53Z</time>
      </trkpt>
      <trkpt lat="43.85219" lon="7.25355">
        <ele>752.37</ele>
        <time>2021-05-08T13:57:03Z</time>
      </trkpt>
      <trkpt lat="43.85219" lon="7.25355">
        <ele>752.37</ele>
        <time>2021-05-08T13:57:07Z</time>
      </trkpt>
      <trkpt lat="43.85214" lon="7.25349">
        <ele>750.93</ele>
        <time>2021-05-08T13:57:11Z</time>
      </trkpt>
      <trkpt lat="43.85204" lon="7.25342">
        <ele>747.56</ele>
        <time>2021-05-08T13:57:16Z</time>
      </trkpt>
      <trkpt lat="43.85199" lon="7.25341">
        <ele>747.08</ele>
        <time>2021-05-08T13:57:17Z</time>
      </trkpt>
      <trkpt lat="43.85181" lon="7.2534">
        <ele>745.16</ele>
        <time>2021-05-08T13:57:21Z</time>
      </trkpt>
      <trkpt lat="43.85179" lon="7.25342">
        <ele>745.16</ele>
        <time>2021-05-08T13:57:25Z</time>
      </trkpt>
      <trkpt lat="43.85179" lon="7.25344">
        <ele>744.68</ele>
        <time>2021-05-08T13:57:26Z</time>
      </trkpt>
      <trkpt lat="43.85179" lon="7.25345">
        <ele>744.68</ele>
        <time>2021-05-08T13:57:27Z</time>
      </trkpt>
      <trkpt lat="43.85179" lon="7.25348">
        <ele>744.68</ele>
        <time>2021-05-08T13:57:28Z</time>
      </trkpt>
      <trkpt lat="43.8518" lon="7.25351">
        <ele>744.68</ele>
        <time>2021-05-08T13:57:29Z</time>
      </trkpt>
      <trkpt lat="43.85179" lon="7.25355">
        <ele>744.2</ele>
        <time>2021-05-08T13:57:30Z</time>
      </trkpt>
      <trkpt lat="43.85175" lon="7.25375">
        <ele>740.83</ele>
        <time>2021-05-08T13:57:36Z</time>
      </trkpt>
      <trkpt lat="43.85173" lon="7.25379">
        <ele>740.35</ele>
        <time>2021-05-08T13:57:37Z</time>
      </trkpt>
      <trkpt lat="43.85171" lon="7.25383">
        <ele>739.39</ele>
        <time>2021-05-08T13:57:38Z</time>
      </trkpt>
      <trkpt lat="43.85171" lon="7.25384">
        <ele>739.39</ele>
        <time>2021-05-08T13:57:39Z</time>
      </trkpt>
      <trkpt lat="43.8517" lon="7.25392">
        <ele>736.99</ele>
        <time>2021-05-08T13:57:51Z</time>
      </trkpt>
      <trkpt lat="43.8517" lon="7.25395">
        <ele>736.51</ele>
        <time>2021-05-08T13:57:55Z</time>
      </trkpt>
      <trkpt lat="43.8517" lon="7.25399">
        <ele>736.03</ele>
        <time>2021-05-08T13:57:56Z</time>
      </trkpt>
      <trkpt lat="43.8517" lon="7.25402">
        <ele>735.55</ele>
        <time>2021-05-08T13:57:57Z</time>
      </trkpt>
      <trkpt lat="43.85171" lon="7.25405">
        <ele>735.55</ele>
        <time>2021-05-08T13:57:58Z</time>
      </trkpt>
      <trkpt lat="43.85173" lon="7.25407">
        <ele>734.58</ele>
        <time>2021-05-08T13:57:59Z</time>
      </trkpt>
      <trkpt lat="43.85176" lon="7.2541">
        <ele>734.1</ele>
        <time>2021-05-08T13:58:00Z</time>
      </trkpt>
      <trkpt lat="43.85178" lon="7.25413">
        <ele>734.1</ele>
        <time>2021-05-08T13:58:01Z</time>
      </trkpt>
      <trkpt lat="43.85179" lon="7.25416">
        <ele>734.1</ele>
        <time>2021-05-08T13:58:02Z</time>
      </trkpt>
      <trkpt lat="43.85179" lon="7.2542">
        <ele>734.1</ele>
        <time>2021-05-08T13:58:03Z</time>
      </trkpt>
      <trkpt lat="43.85179" lon="7.25424">
        <ele>733.62</ele>
        <time>2021-05-08T13:58:04Z</time>
      </trkpt>
      <trkpt lat="43.8518" lon="7.25428">
        <ele>733.14</ele>
        <time>2021-05-08T13:58:05Z</time>
      </trkpt>
      <trkpt lat="43.85181" lon="7.25432">
        <ele>732.18</ele>
        <time>2021-05-08T13:58:07Z</time>
      </trkpt>
      <trkpt lat="43.85181" lon="7.25434">
        <ele>732.18</ele>
        <time>2021-05-08T13:58:08Z</time>
      </trkpt>
      <trkpt lat="43.8518" lon="7.25438">
        <ele>732.66</ele>
        <time>2021-05-08T13:58:21Z</time>
      </trkpt>
      <trkpt lat="43.8518" lon="7.25429">
        <ele>732.66</ele>
        <time>2021-05-08T13:58:33Z</time>
      </trkpt>
      <trkpt lat="43.85179" lon="7.25426">
        <ele>732.66</ele>
        <time>2021-05-08T13:58:35Z</time>
      </trkpt>
      <trkpt lat="43.85179" lon="7.25423">
        <ele>732.66</ele>
        <time>2021-05-08T13:58:37Z</time>
      </trkpt>
      <trkpt lat="43.85178" lon="7.25416">
        <ele>734.1</ele>
        <time>2021-05-08T13:58:45Z</time>
      </trkpt>
      <trkpt lat="43.85177" lon="7.25415">
        <ele>734.1</ele>
        <time>2021-05-08T13:58:46Z</time>
      </trkpt>
      <trkpt lat="43.85174" lon="7.25411">
        <ele>734.1</ele>
        <time>2021-05-08T13:58:53Z</time>
      </trkpt>
      <trkpt lat="43.85172" lon="7.25406">
        <ele>734.58</ele>
        <time>2021-05-08T13:58:58Z</time>
      </trkpt>
      <trkpt lat="43.85171" lon="7.254">
        <ele>735.55</ele>
        <time>2021-05-08T13:59:09Z</time>
      </trkpt>
      <trkpt lat="43.85171" lon="7.25398">
        <ele>735.55</ele>
        <time>2021-05-08T13:59:15Z</time>
      </trkpt>
      <trkpt lat="43.85172" lon="7.2539">
        <ele>737.47</ele>
        <time>2021-05-08T13:59:26Z</time>
      </trkpt>
      <trkpt lat="43.85172" lon="7.25386">
        <ele>739.39</ele>
        <time>2021-05-08T13:59:37Z</time>
      </trkpt>
      <trkpt lat="43.85173" lon="7.25383">
        <ele>739.39</ele>
        <time>2021-05-08T13:59:50Z</time>
      </trkpt>
      <trkpt lat="43.85175" lon="7.25378">
        <ele>739.39</ele>
        <time>2021-05-08T13:59:54Z</time>
      </trkpt>
      <trkpt lat="43.85175" lon="7.25377">
        <ele>739.87</ele>
        <time>2021-05-08T13:59:55Z</time>
      </trkpt>
      <trkpt lat="43.85175" lon="7.25371">
        <ele>740.35</ele>
        <time>2021-05-08T14:00:06Z</time>
      </trkpt>
      <trkpt lat="43.85175" lon="7.2537">
        <ele>740.35</ele>
        <time>2021-05-08T14:00:43Z</time>
      </trkpt>
      <trkpt lat="43.85175" lon="7.25369">
        <ele>740.35</ele>
        <time>2021-05-08T14:01:21Z</time>
      </trkpt>
      <trkpt lat="43.85175" lon="7.25361">
        <ele>742.28</ele>
        <time>2021-05-08T14:01:33Z</time>
      </trkpt>
      <trkpt lat="43.85179" lon="7.2535">
        <ele>744.2</ele>
        <time>2021-05-08T14:01:46Z</time>
      </trkpt>
      <trkpt lat="43.85185" lon="7.25341">
        <ele>744.68</ele>
        <time>2021-05-08T14:02:00Z</time>
      </trkpt>
      <trkpt lat="43.85187" lon="7.2533">
        <ele>743.72</ele>
        <time>2021-05-08T14:02:12Z</time>
      </trkpt>
      <trkpt lat="43.85186" lon="7.25325">
        <ele>742.76</ele>
        <time>2021-05-08T14:02:16Z</time>
      </trkpt>
      <trkpt lat="43.85185" lon="7.25321">
        <ele>742.28</ele>
        <time>2021-05-08T14:02:20Z</time>
      </trkpt>
      <trkpt lat="43.85177" lon="7.2531">
        <ele>741.79</ele>
        <time>2021-05-08T14:02:34Z</time>
      </trkpt>
      <trkpt lat="43.8516" lon="7.25298">
        <ele>741.31</ele>
        <time>2021-05-08T14:02:46Z</time>
      </trkpt>
      <trkpt lat="43.85156" lon="7.25295">
        <ele>740.83</ele>
        <time>2021-05-08T14:02:48Z</time>
      </trkpt>
      <trkpt lat="43.85153" lon="7.25294">
        <ele>739.87</ele>
        <time>2021-05-08T14:02:50Z</time>
      </trkpt>
      <trkpt lat="43.85152" lon="7.25292">
        <ele>739.39</ele>
        <time>2021-05-08T14:02:51Z</time>
      </trkpt>
      <trkpt lat="43.85141" lon="7.25277">
        <ele>736.51</ele>
        <time>2021-05-08T14:02:58Z</time>
      </trkpt>
      <trkpt lat="43.85127" lon="7.25261">
        <ele>733.14</ele>
        <time>2021-05-08T14:03:05Z</time>
      </trkpt>
      <trkpt lat="43.85116" lon="7.25255">
        <ele>730.74</ele>
        <time>2021-05-08T14:03:09Z</time>
      </trkpt>
      <trkpt lat="43.85102" lon="7.2525">
        <ele>727.37</ele>
        <time>2021-05-08T14:03:15Z</time>
      </trkpt>
      <trkpt lat="43.85098" lon="7.25246">
        <ele>726.41</ele>
        <time>2021-05-08T14:03:17Z</time>
      </trkpt>
      <trkpt lat="43.85097" lon="7.25244">
        <ele>725.93</ele>
        <time>2021-05-08T14:03:18Z</time>
      </trkpt>
      <trkpt lat="43.85095" lon="7.25243">
        <ele>725.45</ele>
        <time>2021-05-08T14:03:19Z</time>
      </trkpt>
      <trkpt lat="43.85094" lon="7.25242">
        <ele>724.97</ele>
        <time>2021-05-08T14:03:20Z</time>
      </trkpt>
      <trkpt lat="43.85091" lon="7.25241">
        <ele>724.49</ele>
        <time>2021-05-08T14:03:21Z</time>
      </trkpt>
      <trkpt lat="43.8509" lon="7.2524">
        <ele>724.49</ele>
        <time>2021-05-08T14:03:22Z</time>
      </trkpt>
      <trkpt lat="43.85087" lon="7.25239">
        <ele>723.53</ele>
        <time>2021-05-08T14:03:23Z</time>
      </trkpt>
      <trkpt lat="43.85076" lon="7.25235">
        <ele>720.65</ele>
        <time>2021-05-08T14:03:27Z</time>
      </trkpt>
      <trkpt lat="43.85066" lon="7.25224">
        <ele>717.76</ele>
        <time>2021-05-08T14:03:33Z</time>
      </trkpt>
      <trkpt lat="43.85064" lon="7.25222">
        <ele>716.8</ele>
        <time>2021-05-08T14:03:34Z</time>
      </trkpt>
      <trkpt lat="43.85063" lon="7.2522">
        <ele>716.32</ele>
        <time>2021-05-08T14:03:35Z</time>
      </trkpt>
      <trkpt lat="43.8506" lon="7.25219">
        <ele>715.84</ele>
        <time>2021-05-08T14:03:36Z</time>
      </trkpt>
      <trkpt lat="43.85057" lon="7.25218">
        <ele>714.88</ele>
        <time>2021-05-08T14:03:37Z</time>
      </trkpt>
      <trkpt lat="43.85054" lon="7.25219">
        <ele>714.4</ele>
        <time>2021-05-08T14:03:38Z</time>
      </trkpt>
      <trkpt lat="43.85051" lon="7.2522">
        <ele>714.4</ele>
        <time>2021-05-08T14:03:39Z</time>
      </trkpt>
      <trkpt lat="43.85048" lon="7.2522">
        <ele>713.44</ele>
        <time>2021-05-08T14:03:40Z</time>
      </trkpt>
      <trkpt lat="43.85046" lon="7.25219">
        <ele>713.44</ele>
        <time>2021-05-08T14:03:41Z</time>
      </trkpt>
      <trkpt lat="43.85045" lon="7.25218">
        <ele>712.95</ele>
        <time>2021-05-08T14:03:42Z</time>
      </trkpt>
      <trkpt lat="43.85019" lon="7.2521">
        <ele>711.03</ele>
        <time>2021-05-08T14:03:52Z</time>
      </trkpt>
      <trkpt lat="43.84991" lon="7.25199">
        <ele>710.07</ele>
        <time>2021-05-08T14:03:59Z</time>
      </trkpt>
      <trkpt lat="43.84987" lon="7.25198">
        <ele>710.07</ele>
        <time>2021-05-08T14:04:00Z</time>
      </trkpt>
      <trkpt lat="43.84983" lon="7.25198">
        <ele>710.55</ele>
        <time>2021-05-08T14:04:01Z</time>
      </trkpt>
      <trkpt lat="43.84979" lon="7.25198">
        <ele>710.55</ele>
        <time>2021-05-08T14:04:02Z</time>
      </trkpt>
      <trkpt lat="43.84976" lon="7.25197">
        <ele>710.55</ele>
        <time>2021-05-08T14:04:03Z</time>
      </trkpt>
      <trkpt lat="43.84974" lon="7.25196">
        <ele>710.55</ele>
        <time>2021-05-08T14:04:04Z</time>
      </trkpt>
      <trkpt lat="43.84972" lon="7.25195">
        <ele>710.55</ele>
        <time>2021-05-08T14:04:05Z</time>
      </trkpt>
      <trkpt lat="43.8497" lon="7.25194">
        <ele>710.55</ele>
        <time>2021-05-08T14:04:06Z</time>
      </trkpt>
      <trkpt lat="43.84969" lon="7.25192">
        <ele>710.55</ele>
        <time>2021-05-08T14:04:07Z</time>
      </trkpt>
      <trkpt lat="43.84968" lon="7.25191">
        <ele>710.55</ele>
        <time>2021-05-08T14:04:08Z</time>
      </trkpt>
      <trkpt lat="43.84966" lon="7.2519">
        <ele>711.03</ele>
        <time>2021-05-08T14:04:09Z</time>
      </trkpt>
      <trkpt lat="43.84965" lon="7.25189">
        <ele>711.03</ele>
        <time>2021-05-08T14:04:10Z</time>
      </trkpt>
      <trkpt lat="43.84964" lon="7.25189">
        <ele>711.03</ele>
        <time>2021-05-08T14:04:11Z</time>
      </trkpt>
      <trkpt lat="43.84944" lon="7.25182">
        <ele>711.99</ele>
        <time>2021-05-08T14:04:21Z</time>
      </trkpt>
      <trkpt lat="43.84921" lon="7.25177">
        <ele>711.99</ele>
        <time>2021-05-08T14:04:31Z</time>
      </trkpt>
      <trkpt lat="43.84917" lon="7.25175">
        <ele>711.99</ele>
        <time>2021-05-08T14:04:34Z</time>
      </trkpt>
      <trkpt lat="43.84915" lon="7.25175">
        <ele>711.51</ele>
        <time>2021-05-08T14:04:35Z</time>
      </trkpt>
      <trkpt lat="43.84909" lon="7.25173">
        <ele>711.03</ele>
        <time>2021-05-08T14:04:37Z</time>
      </trkpt>
      <trkpt lat="43.84907" lon="7.25171">
        <ele>710.55</ele>
        <time>2021-05-08T14:04:38Z</time>
      </trkpt>
      <trkpt lat="43.84906" lon="7.25168">
        <ele>710.07</ele>
        <time>2021-05-08T14:04:39Z</time>
      </trkpt>
      <trkpt lat="43.84905" lon="7.25166">
        <ele>709.59</ele>
        <time>2021-05-08T14:04:40Z</time>
      </trkpt>
      <trkpt lat="43.84903" lon="7.25164">
        <ele>709.11</ele>
        <time>2021-05-08T14:04:41Z</time>
      </trkpt>
      <trkpt lat="43.84901" lon="7.25162">
        <ele>708.15</ele>
        <time>2021-05-08T14:04:42Z</time>
      </trkpt>
      <trkpt lat="43.84899" lon="7.25161">
        <ele>707.67</ele>
        <time>2021-05-08T14:04:43Z</time>
      </trkpt>
      <trkpt lat="43.84896" lon="7.2516">
        <ele>706.23</ele>
        <time>2021-05-08T14:04:44Z</time>
      </trkpt>
      <trkpt lat="43.84893" lon="7.25157">
        <ele>705.75</ele>
        <time>2021-05-08T14:04:46Z</time>
      </trkpt>
      <trkpt lat="43.84889" lon="7.25148">
        <ele>702.38</ele>
        <time>2021-05-08T14:04:49Z</time>
      </trkpt>
      <trkpt lat="43.84885" lon="7.25128">
        <ele>699.02</ele>
        <time>2021-05-08T14:04:57Z</time>
      </trkpt>
      <trkpt lat="43.84878" lon="7.25118">
        <ele>696.61</ele>
        <time>2021-05-08T14:05:01Z</time>
      </trkpt>
      <trkpt lat="43.84869" lon="7.25111">
        <ele>692.77</ele>
        <time>2021-05-08T14:05:08Z</time>
      </trkpt>
      <trkpt lat="43.84868" lon="7.25102">
        <ele>690.36</ele>
        <time>2021-05-08T14:05:22Z</time>
      </trkpt>
      <trkpt lat="43.84864" lon="7.25094">
        <ele>687</ele>
        <time>2021-05-08T14:05:34Z</time>
      </trkpt>
      <trkpt lat="43.84853" lon="7.25087">
        <ele>684.6</ele>
        <time>2021-05-08T14:05:38Z</time>
      </trkpt>
      <trkpt lat="43.84833" lon="7.25087">
        <ele>683.63</ele>
        <time>2021-05-08T14:05:44Z</time>
      </trkpt>
      <trkpt lat="43.84814" lon="7.2508">
        <ele>680.75</ele>
        <time>2021-05-08T14:05:50Z</time>
      </trkpt>
      <trkpt lat="43.84812" lon="7.25078">
        <ele>680.27</ele>
        <time>2021-05-08T14:05:51Z</time>
      </trkpt>
      <trkpt lat="43.84805" lon="7.25064">
        <ele>677.39</ele>
        <time>2021-05-08T14:05:55Z</time>
      </trkpt>
      <trkpt lat="43.84801" lon="7.25062">
        <ele>677.39</ele>
        <time>2021-05-08T14:05:56Z</time>
      </trkpt>
      <trkpt lat="43.84797" lon="7.25061">
        <ele>676.91</ele>
        <time>2021-05-08T14:05:57Z</time>
      </trkpt>
      <trkpt lat="43.8479" lon="7.25052">
        <ele>674.5</ele>
        <time>2021-05-08T14:06:00Z</time>
      </trkpt>
      <trkpt lat="43.8479" lon="7.25047">
        <ele>673.54</ele>
        <time>2021-05-08T14:06:01Z</time>
      </trkpt>
      <trkpt lat="43.84791" lon="7.25043">
        <ele>673.06</ele>
        <time>2021-05-08T14:06:02Z</time>
      </trkpt>
      <trkpt lat="43.84794" lon="7.25041">
        <ele>672.58</ele>
        <time>2021-05-08T14:06:03Z</time>
      </trkpt>
      <trkpt lat="43.84797" lon="7.25039">
        <ele>672.1</ele>
        <time>2021-05-08T14:06:04Z</time>
      </trkpt>
      <trkpt lat="43.848" lon="7.25036">
        <ele>671.62</ele>
        <time>2021-05-08T14:06:05Z</time>
      </trkpt>
      <trkpt lat="43.84805" lon="7.25033">
        <ele>670.66</ele>
        <time>2021-05-08T14:06:06Z</time>
      </trkpt>
      <trkpt lat="43.84825" lon="7.25021">
        <ele>667.29</ele>
        <time>2021-05-08T14:06:09Z</time>
      </trkpt>
      <trkpt lat="43.84832" lon="7.25018">
        <ele>665.85</ele>
        <time>2021-05-08T14:06:10Z</time>
      </trkpt>
      <trkpt lat="43.8484" lon="7.25016">
        <ele>664.89</ele>
        <time>2021-05-08T14:06:11Z</time>
      </trkpt>
      <trkpt lat="43.84849" lon="7.25015">
        <ele>663.93</ele>
        <time>2021-05-08T14:06:12Z</time>
      </trkpt>
      <trkpt lat="43.84858" lon="7.25015">
        <ele>662.97</ele>
        <time>2021-05-08T14:06:13Z</time>
      </trkpt>
      <trkpt lat="43.84866" lon="7.25016">
        <ele>662.01</ele>
        <time>2021-05-08T14:06:14Z</time>
      </trkpt>
      <trkpt lat="43.84875" lon="7.25018">
        <ele>661.04</ele>
        <time>2021-05-08T14:06:15Z</time>
      </trkpt>
      <trkpt lat="43.84884" lon="7.25018">
        <ele>660.08</ele>
        <time>2021-05-08T14:06:16Z</time>
      </trkpt>
      <trkpt lat="43.84893" lon="7.25015">
        <ele>659.6</ele>
        <time>2021-05-08T14:06:17Z</time>
      </trkpt>
      <trkpt lat="43.84903" lon="7.25012">
        <ele>658.16</ele>
        <time>2021-05-08T14:06:18Z</time>
      </trkpt>
      <trkpt lat="43.84921" lon="7.25007">
        <ele>654.31</ele>
        <time>2021-05-08T14:06:20Z</time>
      </trkpt>
      <trkpt lat="43.84939" lon="7.25003">
        <ele>651.91</ele>
        <time>2021-05-08T14:06:22Z</time>
      </trkpt>
      <trkpt lat="43.84947" lon="7.25003">
        <ele>651.43</ele>
        <time>2021-05-08T14:06:23Z</time>
      </trkpt>
      <trkpt lat="43.84955" lon="7.25006">
        <ele>650.47</ele>
        <time>2021-05-08T14:06:24Z</time>
      </trkpt>
      <trkpt lat="43.84961" lon="7.2501">
        <ele>649.51</ele>
        <time>2021-05-08T14:06:25Z</time>
      </trkpt>
      <trkpt lat="43.84966" lon="7.25016">
        <ele>649.03</ele>
        <time>2021-05-08T14:06:26Z</time>
      </trkpt>
      <trkpt lat="43.8497" lon="7.25023">
        <ele>648.55</ele>
        <time>2021-05-08T14:06:27Z</time>
      </trkpt>
      <trkpt lat="43.84976" lon="7.25027">
        <ele>648.07</ele>
        <time>2021-05-08T14:06:28Z</time>
      </trkpt>
      <trkpt lat="43.84982" lon="7.25027">
        <ele>647.1</ele>
        <time>2021-05-08T14:06:29Z</time>
      </trkpt>
      <trkpt lat="43.8499" lon="7.25025">
        <ele>646.14</ele>
        <time>2021-05-08T14:06:30Z</time>
      </trkpt>
      <trkpt lat="43.84997" lon="7.25019">
        <ele>646.14</ele>
        <time>2021-05-08T14:06:31Z</time>
      </trkpt>
      <trkpt lat="43.85002" lon="7.25012">
        <ele>645.18</ele>
        <time>2021-05-08T14:06:32Z</time>
      </trkpt>
      <trkpt lat="43.85005" lon="7.25003">
        <ele>644.22</ele>
        <time>2021-05-08T14:06:33Z</time>
      </trkpt>
      <trkpt lat="43.85008" lon="7.24993">
        <ele>643.74</ele>
        <time>2021-05-08T14:06:34Z</time>
      </trkpt>
      <trkpt lat="43.85011" lon="7.24983">
        <ele>643.26</ele>
        <time>2021-05-08T14:06:35Z</time>
      </trkpt>
      <trkpt lat="43.85016" lon="7.24974">
        <ele>641.82</ele>
        <time>2021-05-08T14:06:36Z</time>
      </trkpt>
      <trkpt lat="43.85022" lon="7.24966">
        <ele>641.34</ele>
        <time>2021-05-08T14:06:37Z</time>
      </trkpt>
      <trkpt lat="43.85029" lon="7.2496">
        <ele>640.38</ele>
        <time>2021-05-08T14:06:38Z</time>
      </trkpt>
      <trkpt lat="43.85037" lon="7.24953">
        <ele>639.41</ele>
        <time>2021-05-08T14:06:39Z</time>
      </trkpt>
      <trkpt lat="43.85052" lon="7.24939">
        <ele>637.49</ele>
        <time>2021-05-08T14:06:41Z</time>
      </trkpt>
      <trkpt lat="43.8506" lon="7.2493">
        <ele>637.01</ele>
        <time>2021-05-08T14:06:42Z</time>
      </trkpt>
      <trkpt lat="43.85066" lon="7.24921">
        <ele>635.57</ele>
        <time>2021-05-08T14:06:43Z</time>
      </trkpt>
      <trkpt lat="43.85071" lon="7.24912">
        <ele>635.57</ele>
        <time>2021-05-08T14:06:44Z</time>
      </trkpt>
      <trkpt lat="43.85083" lon="7.24899">
        <ele>633.65</ele>
        <time>2021-05-08T14:06:46Z</time>
      </trkpt>
      <trkpt lat="43.85089" lon="7.24894">
        <ele>632.68</ele>
        <time>2021-05-08T14:06:47Z</time>
      </trkpt>
      <trkpt lat="43.85096" lon="7.24891">
        <ele>631.72</ele>
        <time>2021-05-08T14:06:48Z</time>
      </trkpt>
      <trkpt lat="43.85103" lon="7.24888">
        <ele>630.28</ele>
        <time>2021-05-08T14:06:49Z</time>
      </trkpt>
      <trkpt lat="43.85109" lon="7.24884">
        <ele>629.8</ele>
        <time>2021-05-08T14:06:50Z</time>
      </trkpt>
      <trkpt lat="43.85114" lon="7.2488">
        <ele>628.84</ele>
        <time>2021-05-08T14:06:51Z</time>
      </trkpt>
      <trkpt lat="43.85123" lon="7.24871">
        <ele>627.4</ele>
        <time>2021-05-08T14:06:53Z</time>
      </trkpt>
      <trkpt lat="43.85131" lon="7.24859">
        <ele>625.47</ele>
        <time>2021-05-08T14:06:55Z</time>
      </trkpt>
      <trkpt lat="43.85134" lon="7.24852">
        <ele>625.47</ele>
        <time>2021-05-08T14:06:56Z</time>
      </trkpt>
      <trkpt lat="43.85135" lon="7.24843">
        <ele>624.51</ele>
        <time>2021-05-08T14:06:57Z</time>
      </trkpt>
      <trkpt lat="43.85134" lon="7.24834">
        <ele>623.55</ele>
        <time>2021-05-08T14:06:58Z</time>
      </trkpt>
      <trkpt lat="43.85133" lon="7.24824">
        <ele>622.11</ele>
        <time>2021-05-08T14:06:59Z</time>
      </trkpt>
      <trkpt lat="43.85132" lon="7.24815">
        <ele>619.71</ele>
        <time>2021-05-08T14:07:00Z</time>
      </trkpt>
      <trkpt lat="43.85132" lon="7.24807">
        <ele>618.75</ele>
        <time>2021-05-08T14:07:01Z</time>
      </trkpt>
      <trkpt lat="43.85132" lon="7.24797">
        <ele>617.78</ele>
        <time>2021-05-08T14:07:02Z</time>
      </trkpt>
      <trkpt lat="43.85134" lon="7.24789">
        <ele>616.34</ele>
        <time>2021-05-08T14:07:03Z</time>
      </trkpt>
      <trkpt lat="43.85137" lon="7.2478">
        <ele>616.34</ele>
        <time>2021-05-08T14:07:04Z</time>
      </trkpt>
      <trkpt lat="43.8514" lon="7.2477">
        <ele>615.86</ele>
        <time>2021-05-08T14:07:05Z</time>
      </trkpt>
      <trkpt lat="43.85157" lon="7.24729">
        <ele>612.02</ele>
        <time>2021-05-08T14:07:09Z</time>
      </trkpt>
      <trkpt lat="43.85169" lon="7.24696">
        <ele>607.69</ele>
        <time>2021-05-08T14:07:12Z</time>
      </trkpt>
      <trkpt lat="43.85182" lon="7.24667">
        <ele>603.85</ele>
        <time>2021-05-08T14:07:15Z</time>
      </trkpt>
      <trkpt lat="43.85187" lon="7.24659">
        <ele>603.85</ele>
        <time>2021-05-08T14:07:16Z</time>
      </trkpt>
      <trkpt lat="43.85193" lon="7.24652">
        <ele>603.85</ele>
        <time>2021-05-08T14:07:17Z</time>
      </trkpt>
      <trkpt lat="43.85202" lon="7.24638">
        <ele>602.88</ele>
        <time>2021-05-08T14:07:19Z</time>
      </trkpt>
      <trkpt lat="43.85205" lon="7.2463">
        <ele>602.4</ele>
        <time>2021-05-08T14:07:20Z</time>
      </trkpt>
      <trkpt lat="43.85208" lon="7.2462">
        <ele>601.44</ele>
        <time>2021-05-08T14:07:21Z</time>
      </trkpt>
      <trkpt lat="43.85211" lon="7.246">
        <ele>600.48</ele>
        <time>2021-05-08T14:07:23Z</time>
      </trkpt>
      <trkpt lat="43.85213" lon="7.24569">
        <ele>598.08</ele>
        <time>2021-05-08T14:07:26Z</time>
      </trkpt>
      <trkpt lat="43.85212" lon="7.24559">
        <ele>596.64</ele>
        <time>2021-05-08T14:07:27Z</time>
      </trkpt>
      <trkpt lat="43.85211" lon="7.2455">
        <ele>596.15</ele>
        <time>2021-05-08T14:07:28Z</time>
      </trkpt>
      <trkpt lat="43.85209" lon="7.24541">
        <ele>595.67</ele>
        <time>2021-05-08T14:07:29Z</time>
      </trkpt>
      <trkpt lat="43.85207" lon="7.24534">
        <ele>594.71</ele>
        <time>2021-05-08T14:07:30Z</time>
      </trkpt>
      <trkpt lat="43.85203" lon="7.24513">
        <ele>591.83</ele>
        <time>2021-05-08T14:07:34Z</time>
      </trkpt>
      <trkpt lat="43.85204" lon="7.24511">
        <ele>591.35</ele>
        <time>2021-05-08T14:07:35Z</time>
      </trkpt>
      <trkpt lat="43.85206" lon="7.2451">
        <ele>590.87</ele>
        <time>2021-05-08T14:07:36Z</time>
      </trkpt>
      <trkpt lat="43.85209" lon="7.2451">
        <ele>590.39</ele>
        <time>2021-05-08T14:07:37Z</time>
      </trkpt>
      <trkpt lat="43.85212" lon="7.24511">
        <ele>590.39</ele>
        <time>2021-05-08T14:07:38Z</time>
      </trkpt>
      <trkpt lat="43.85214" lon="7.24512">
        <ele>590.39</ele>
        <time>2021-05-08T14:07:39Z</time>
      </trkpt>
      <trkpt lat="43.85217" lon="7.24513">
        <ele>590.39</ele>
        <time>2021-05-08T14:07:40Z</time>
      </trkpt>
      <trkpt lat="43.85219" lon="7.24514">
        <ele>590.39</ele>
        <time>2021-05-08T14:07:41Z</time>
      </trkpt>
      <trkpt lat="43.85221" lon="7.24516">
        <ele>590.87</ele>
        <time>2021-05-08T14:07:42Z</time>
      </trkpt>
      <trkpt lat="43.85224" lon="7.24517">
        <ele>590.39</ele>
        <time>2021-05-08T14:07:43Z</time>
      </trkpt>
      <trkpt lat="43.85226" lon="7.24519">
        <ele>590.39</ele>
        <time>2021-05-08T14:07:44Z</time>
      </trkpt>
      <trkpt lat="43.85228" lon="7.2452">
        <ele>590.39</ele>
        <time>2021-05-08T14:07:45Z</time>
      </trkpt>
      <trkpt lat="43.8523" lon="7.24523">
        <ele>590.39</ele>
        <time>2021-05-08T14:07:46Z</time>
      </trkpt>
      <trkpt lat="43.85231" lon="7.24526">
        <ele>590.39</ele>
        <time>2021-05-08T14:07:47Z</time>
      </trkpt>
      <trkpt lat="43.85232" lon="7.2453">
        <ele>590.39</ele>
        <time>2021-05-08T14:07:48Z</time>
      </trkpt>
      <trkpt lat="43.85232" lon="7.24535">
        <ele>589.91</ele>
        <time>2021-05-08T14:07:49Z</time>
      </trkpt>
      <trkpt lat="43.85231" lon="7.2454">
        <ele>589.91</ele>
        <time>2021-05-08T14:07:50Z</time>
      </trkpt>
      <trkpt lat="43.85231" lon="7.24556">
        <ele>589.43</ele>
        <time>2021-05-08T14:07:53Z</time>
      </trkpt>
      <trkpt lat="43.85232" lon="7.24563">
        <ele>589.43</ele>
        <time>2021-05-08T14:07:54Z</time>
      </trkpt>
      <trkpt lat="43.8524" lon="7.24602">
        <ele>587.5</ele>
        <time>2021-05-08T14:07:59Z</time>
      </trkpt>
      <trkpt lat="43.85242" lon="7.24609">
        <ele>587.02</ele>
        <time>2021-05-08T14:08:00Z</time>
      </trkpt>
      <trkpt lat="43.85243" lon="7.24618">
        <ele>586.06</ele>
        <time>2021-05-08T14:08:01Z</time>
      </trkpt>
      <trkpt lat="43.85243" lon="7.24626">
        <ele>585.58</ele>
        <time>2021-05-08T14:08:02Z</time>
      </trkpt>
      <trkpt lat="43.85242" lon="7.24634">
        <ele>585.1</ele>
        <time>2021-05-08T14:08:03Z</time>
      </trkpt>
      <trkpt lat="43.85241" lon="7.24642">
        <ele>584.62</ele>
        <time>2021-05-08T14:08:04Z</time>
      </trkpt>
      <trkpt lat="43.85241" lon="7.2465">
        <ele>584.14</ele>
        <time>2021-05-08T14:08:05Z</time>
      </trkpt>
      <trkpt lat="43.85242" lon="7.24656">
        <ele>583.66</ele>
        <time>2021-05-08T14:08:06Z</time>
      </trkpt>
      <trkpt lat="43.85246" lon="7.24658">
        <ele>583.66</ele>
        <time>2021-05-08T14:08:07Z</time>
      </trkpt>
      <trkpt lat="43.8525" lon="7.24656">
        <ele>583.66</ele>
        <time>2021-05-08T14:08:08Z</time>
      </trkpt>
      <trkpt lat="43.85253" lon="7.24653">
        <ele>584.14</ele>
        <time>2021-05-08T14:08:09Z</time>
      </trkpt>
      <trkpt lat="43.85255" lon="7.2465">
        <ele>584.14</ele>
        <time>2021-05-08T14:08:10Z</time>
      </trkpt>
      <trkpt lat="43.85257" lon="7.24648">
        <ele>584.14</ele>
        <time>2021-05-08T14:08:11Z</time>
      </trkpt>
      <trkpt lat="43.85259" lon="7.24645">
        <ele>584.14</ele>
        <time>2021-05-08T14:08:12Z</time>
      </trkpt>
      <trkpt lat="43.85267" lon="7.24608">
        <ele>586.54</ele>
        <time>2021-05-08T14:08:24Z</time>
      </trkpt>
      <trkpt lat="43.8528" lon="7.24573">
        <ele>588.46</ele>
        <time>2021-05-08T14:08:36Z</time>
      </trkpt>
      <trkpt lat="43.85317" lon="7.24545">
        <ele>590.39</ele>
        <time>2021-05-08T14:08:54Z</time>
      </trkpt>
      <trkpt lat="43.85356" lon="7.24546">
        <ele>592.31</ele>
        <time>2021-05-08T14:09:10Z</time>
      </trkpt>
      <trkpt lat="43.85397" lon="7.24556">
        <ele>593.27</ele>
        <time>2021-05-08T14:09:28Z</time>
      </trkpt>
      <trkpt lat="43.85432" lon="7.24564">
        <ele>594.71</ele>
        <time>2021-05-08T14:09:42Z</time>
      </trkpt>
      <trkpt lat="43.85457" lon="7.24561">
        <ele>596.15</ele>
        <time>2021-05-08T14:09:56Z</time>
      </trkpt>
      <trkpt lat="43.85484" lon="7.24571">
        <ele>598.08</ele>
        <time>2021-05-08T14:10:12Z</time>
      </trkpt>
      <trkpt lat="43.85513" lon="7.24581">
        <ele>598.56</ele>
        <time>2021-05-08T14:10:26Z</time>
      </trkpt>
      <trkpt lat="43.85523" lon="7.24595">
        <ele>598.08</ele>
        <time>2021-05-08T14:10:30Z</time>
      </trkpt>
      <trkpt lat="43.85526" lon="7.24598">
        <ele>597.6</ele>
        <time>2021-05-08T14:10:31Z</time>
      </trkpt>
      <trkpt lat="43.8553" lon="7.24599">
        <ele>597.6</ele>
        <time>2021-05-08T14:10:32Z</time>
      </trkpt>
      <trkpt lat="43.85534" lon="7.24596">
        <ele>597.6</ele>
        <time>2021-05-08T14:10:33Z</time>
      </trkpt>
      <trkpt lat="43.85537" lon="7.24592">
        <ele>597.6</ele>
        <time>2021-05-08T14:10:34Z</time>
      </trkpt>
      <trkpt lat="43.8554" lon="7.24586">
        <ele>597.12</ele>
        <time>2021-05-08T14:10:35Z</time>
      </trkpt>
      <trkpt lat="43.85544" lon="7.24581">
        <ele>597.6</ele>
        <time>2021-05-08T14:10:36Z</time>
      </trkpt>
      <trkpt lat="43.85548" lon="7.24577">
        <ele>597.12</ele>
        <time>2021-05-08T14:10:37Z</time>
      </trkpt>
      <trkpt lat="43.85552" lon="7.24575">
        <ele>597.12</ele>
        <time>2021-05-08T14:10:38Z</time>
      </trkpt>
      <trkpt lat="43.85557" lon="7.24574">
        <ele>596.64</ele>
        <time>2021-05-08T14:10:39Z</time>
      </trkpt>
      <trkpt lat="43.85562" lon="7.24574">
        <ele>596.64</ele>
        <time>2021-05-08T14:10:40Z</time>
      </trkpt>
      <trkpt lat="43.85567" lon="7.24575">
        <ele>596.64</ele>
        <time>2021-05-08T14:10:41Z</time>
      </trkpt>
      <trkpt lat="43.85571" lon="7.24579">
        <ele>596.64</ele>
        <time>2021-05-08T14:10:42Z</time>
      </trkpt>
      <trkpt lat="43.85574" lon="7.24584">
        <ele>596.15</ele>
        <time>2021-05-08T14:10:43Z</time>
      </trkpt>
      <trkpt lat="43.85577" lon="7.24589">
        <ele>596.15</ele>
        <time>2021-05-08T14:10:44Z</time>
      </trkpt>
      <trkpt lat="43.85584" lon="7.24599">
        <ele>595.67</ele>
        <time>2021-05-08T14:10:46Z</time>
      </trkpt>
      <trkpt lat="43.85588" lon="7.24603">
        <ele>595.67</ele>
        <time>2021-05-08T14:10:47Z</time>
      </trkpt>
      <trkpt lat="43.85592" lon="7.24605">
        <ele>596.15</ele>
        <time>2021-05-08T14:10:48Z</time>
      </trkpt>
      <trkpt lat="43.85607" lon="7.2461">
        <ele>596.15</ele>
        <time>2021-05-08T14:10:51Z</time>
      </trkpt>
      <trkpt lat="43.85612" lon="7.2461">
        <ele>595.67</ele>
        <time>2021-05-08T14:10:52Z</time>
      </trkpt>
      <trkpt lat="43.8562" lon="7.24611">
        <ele>595.67</ele>
        <time>2021-05-08T14:10:54Z</time>
      </trkpt>
      <trkpt lat="43.85624" lon="7.24613">
        <ele>595.67</ele>
        <time>2021-05-08T14:10:55Z</time>
      </trkpt>
      <trkpt lat="43.85628" lon="7.24615">
        <ele>595.67</ele>
        <time>2021-05-08T14:10:56Z</time>
      </trkpt>
      <trkpt lat="43.85631" lon="7.24618">
        <ele>595.67</ele>
        <time>2021-05-08T14:10:57Z</time>
      </trkpt>
      <trkpt lat="43.85635" lon="7.24621">
        <ele>595.67</ele>
        <time>2021-05-08T14:10:58Z</time>
      </trkpt>
      <trkpt lat="43.85638" lon="7.24624">
        <ele>595.19</ele>
        <time>2021-05-08T14:10:59Z</time>
      </trkpt>
      <trkpt lat="43.85649" lon="7.24631">
        <ele>595.67</ele>
        <time>2021-05-08T14:11:02Z</time>
      </trkpt>
      <trkpt lat="43.85653" lon="7.24631">
        <ele>595.67</ele>
        <time>2021-05-08T14:11:03Z</time>
      </trkpt>
      <trkpt lat="43.85657" lon="7.2463">
        <ele>595.67</ele>
        <time>2021-05-08T14:11:04Z</time>
      </trkpt>
      <trkpt lat="43.85663" lon="7.24625">
        <ele>595.67</ele>
        <time>2021-05-08T14:11:06Z</time>
      </trkpt>
      <trkpt lat="43.85665" lon="7.24622">
        <ele>596.15</ele>
        <time>2021-05-08T14:11:07Z</time>
      </trkpt>
      <trkpt lat="43.85665" lon="7.24618">
        <ele>596.15</ele>
        <time>2021-05-08T14:11:08Z</time>
      </trkpt>
      <trkpt lat="43.85666" lon="7.24614">
        <ele>596.64</ele>
        <time>2021-05-08T14:11:09Z</time>
      </trkpt>
      <trkpt lat="43.85665" lon="7.24611">
        <ele>597.12</ele>
        <time>2021-05-08T14:11:10Z</time>
      </trkpt>
      <trkpt lat="43.85664" lon="7.24607">
        <ele>597.12</ele>
        <time>2021-05-08T14:11:11Z</time>
      </trkpt>
      <trkpt lat="43.85664" lon="7.24604">
        <ele>597.12</ele>
        <time>2021-05-08T14:11:12Z</time>
      </trkpt>
      <trkpt lat="43.85661" lon="7.24596">
        <ele>597.6</ele>
        <time>2021-05-08T14:11:15Z</time>
      </trkpt>
      <trkpt lat="43.8566" lon="7.24594">
        <ele>597.6</ele>
        <time>2021-05-08T14:11:16Z</time>
      </trkpt>
      <trkpt lat="43.85644" lon="7.24567">
        <ele>600</ele>
        <time>2021-05-08T14:11:30Z</time>
      </trkpt>
      <trkpt lat="43.85628" lon="7.24545">
        <ele>601.44</ele>
        <time>2021-05-08T14:11:42Z</time>
      </trkpt>
      <trkpt lat="43.85606" lon="7.24514">
        <ele>600</ele>
        <time>2021-05-08T14:11:51Z</time>
      </trkpt>
      <trkpt lat="43.85598" lon="7.24507">
        <ele>599.52</ele>
        <time>2021-05-08T14:11:53Z</time>
      </trkpt>
      <trkpt lat="43.85584" lon="7.24498">
        <ele>599.04</ele>
        <time>2021-05-08T14:11:56Z</time>
      </trkpt>
      <trkpt lat="43.8558" lon="7.24494">
        <ele>599.04</ele>
        <time>2021-05-08T14:11:57Z</time>
      </trkpt>
      <trkpt lat="43.85576" lon="7.2449">
        <ele>598.56</ele>
        <time>2021-05-08T14:11:58Z</time>
      </trkpt>
      <trkpt lat="43.85572" lon="7.24484">
        <ele>599.04</ele>
        <time>2021-05-08T14:11:59Z</time>
      </trkpt>
      <trkpt lat="43.85569" lon="7.24478">
        <ele>599.52</ele>
        <time>2021-05-08T14:12:00Z</time>
      </trkpt>
      <trkpt lat="43.85566" lon="7.24471">
        <ele>599.04</ele>
        <time>2021-05-08T14:12:01Z</time>
      </trkpt>
      <trkpt lat="43.85564" lon="7.24464">
        <ele>598.56</ele>
        <time>2021-05-08T14:12:02Z</time>
      </trkpt>
      <trkpt lat="43.85559" lon="7.24451">
        <ele>598.08</ele>
        <time>2021-05-08T14:12:04Z</time>
      </trkpt>
      <trkpt lat="43.85558" lon="7.24444">
        <ele>598.08</ele>
        <time>2021-05-08T14:12:05Z</time>
      </trkpt>
      <trkpt lat="43.85559" lon="7.24437">
        <ele>598.08</ele>
        <time>2021-05-08T14:12:06Z</time>
      </trkpt>
      <trkpt lat="43.85561" lon="7.24431">
        <ele>598.08</ele>
        <time>2021-05-08T14:12:07Z</time>
      </trkpt>
      <trkpt lat="43.85564" lon="7.24426">
        <ele>597.6</ele>
        <time>2021-05-08T14:12:08Z</time>
      </trkpt>
      <trkpt lat="43.85568" lon="7.24421">
        <ele>597.6</ele>
        <time>2021-05-08T14:12:09Z</time>
      </trkpt>
      <trkpt lat="43.85579" lon="7.24407">
        <ele>597.12</ele>
        <time>2021-05-08T14:12:12Z</time>
      </trkpt>
      <trkpt lat="43.85583" lon="7.24403">
        <ele>596.64</ele>
        <time>2021-05-08T14:12:13Z</time>
      </trkpt>
      <trkpt lat="43.85605" lon="7.24378">
        <ele>596.15</ele>
        <time>2021-05-08T14:12:18Z</time>
      </trkpt>
      <trkpt lat="43.8561" lon="7.24375">
        <ele>596.15</ele>
        <time>2021-05-08T14:12:19Z</time>
      </trkpt>
      <trkpt lat="43.85619" lon="7.24369">
        <ele>596.15</ele>
        <time>2021-05-08T14:12:21Z</time>
      </trkpt>
      <trkpt lat="43.85624" lon="7.24367">
        <ele>596.15</ele>
        <time>2021-05-08T14:12:22Z</time>
      </trkpt>
      <trkpt lat="43.85628" lon="7.24364">
        <ele>596.15</ele>
        <time>2021-05-08T14:12:23Z</time>
      </trkpt>
      <trkpt lat="43.85637" lon="7.24352">
        <ele>596.15</ele>
        <time>2021-05-08T14:12:26Z</time>
      </trkpt>
      <trkpt lat="43.85637" lon="7.24346">
        <ele>596.64</ele>
        <time>2021-05-08T14:12:27Z</time>
      </trkpt>
      <trkpt lat="43.85633" lon="7.24342">
        <ele>596.15</ele>
        <time>2021-05-08T14:12:28Z</time>
      </trkpt>
      <trkpt lat="43.85627" lon="7.24341">
        <ele>596.64</ele>
        <time>2021-05-08T14:12:29Z</time>
      </trkpt>
      <trkpt lat="43.8562" lon="7.24341">
        <ele>595.67</ele>
        <time>2021-05-08T14:12:30Z</time>
      </trkpt>
      <trkpt lat="43.85614" lon="7.24341">
        <ele>595.19</ele>
        <time>2021-05-08T14:12:31Z</time>
      </trkpt>
      <trkpt lat="43.85607" lon="7.24339">
        <ele>595.19</ele>
        <time>2021-05-08T14:12:32Z</time>
      </trkpt>
      <trkpt lat="43.856" lon="7.24337">
        <ele>594.23</ele>
        <time>2021-05-08T14:12:33Z</time>
      </trkpt>
      <trkpt lat="43.85593" lon="7.24334">
        <ele>593.27</ele>
        <time>2021-05-08T14:12:34Z</time>
      </trkpt>
      <trkpt lat="43.85586" lon="7.2433">
        <ele>593.27</ele>
        <time>2021-05-08T14:12:35Z</time>
      </trkpt>
      <trkpt lat="43.8558" lon="7.24324">
        <ele>593.27</ele>
        <time>2021-05-08T14:12:36Z</time>
      </trkpt>
      <trkpt lat="43.85573" lon="7.24318">
        <ele>592.79</ele>
        <time>2021-05-08T14:12:37Z</time>
      </trkpt>
      <trkpt lat="43.85568" lon="7.24312">
        <ele>592.31</ele>
        <time>2021-05-08T14:12:38Z</time>
      </trkpt>
      <trkpt lat="43.85563" lon="7.24305">
        <ele>592.31</ele>
        <time>2021-05-08T14:12:39Z</time>
      </trkpt>
      <trkpt lat="43.85559" lon="7.24298">
        <ele>592.31</ele>
        <time>2021-05-08T14:12:40Z</time>
      </trkpt>
      <trkpt lat="43.85537" lon="7.24268">
        <ele>591.83</ele>
        <time>2021-05-08T14:12:45Z</time>
      </trkpt>
      <trkpt lat="43.85528" lon="7.24258">
        <ele>591.35</ele>
        <time>2021-05-08T14:12:47Z</time>
      </trkpt>
      <trkpt lat="43.85524" lon="7.24252">
        <ele>591.35</ele>
        <time>2021-05-08T14:12:48Z</time>
      </trkpt>
      <trkpt lat="43.85521" lon="7.24245">
        <ele>590.87</ele>
        <time>2021-05-08T14:12:49Z</time>
      </trkpt>
      <trkpt lat="43.85504" lon="7.24206">
        <ele>589.43</ele>
        <time>2021-05-08T14:12:54Z</time>
      </trkpt>
      <trkpt lat="43.85499" lon="7.242">
        <ele>588.95</ele>
        <time>2021-05-08T14:12:55Z</time>
      </trkpt>
      <trkpt lat="43.8544" lon="7.24148">
        <ele>587.02</ele>
        <time>2021-05-08T14:13:06Z</time>
      </trkpt>
      <trkpt lat="43.85435" lon="7.24142">
        <ele>586.54</ele>
        <time>2021-05-08T14:13:07Z</time>
      </trkpt>
      <trkpt lat="43.8543" lon="7.24136">
        <ele>586.54</ele>
        <time>2021-05-08T14:13:08Z</time>
      </trkpt>
      <trkpt lat="43.85421" lon="7.24123">
        <ele>586.06</ele>
        <time>2021-05-08T14:13:10Z</time>
      </trkpt>
      <trkpt lat="43.85417" lon="7.24116">
        <ele>586.06</ele>
        <time>2021-05-08T14:13:11Z</time>
      </trkpt>
      <trkpt lat="43.85387" lon="7.24026">
        <ele>583.18</ele>
        <time>2021-05-08T14:13:22Z</time>
      </trkpt>
      <trkpt lat="43.85383" lon="7.24018">
        <ele>582.7</ele>
        <time>2021-05-08T14:13:23Z</time>
      </trkpt>
      <trkpt lat="43.85379" lon="7.2401">
        <ele>582.22</ele>
        <time>2021-05-08T14:13:24Z</time>
      </trkpt>
      <trkpt lat="43.85375" lon="7.24002">
        <ele>581.25</ele>
        <time>2021-05-08T14:13:25Z</time>
      </trkpt>
      <trkpt lat="43.85372" lon="7.23994">
        <ele>580.29</ele>
        <time>2021-05-08T14:13:26Z</time>
      </trkpt>
      <trkpt lat="43.8537" lon="7.23985">
        <ele>579.81</ele>
        <time>2021-05-08T14:13:27Z</time>
      </trkpt>
      <trkpt lat="43.85369" lon="7.23975">
        <ele>579.33</ele>
        <time>2021-05-08T14:13:28Z</time>
      </trkpt>
      <trkpt lat="43.85365" lon="7.23921">
        <ele>575.97</ele>
        <time>2021-05-08T14:13:33Z</time>
      </trkpt>
      <trkpt lat="43.85359" lon="7.2378">
        <ele>573.08</ele>
        <time>2021-05-08T14:13:46Z</time>
      </trkpt>
      <trkpt lat="43.85354" lon="7.23738">
        <ele>571.16</ele>
        <time>2021-05-08T14:13:50Z</time>
      </trkpt>
      <trkpt lat="43.85354" lon="7.23727">
        <ele>571.16</ele>
        <time>2021-05-08T14:13:51Z</time>
      </trkpt>
      <trkpt lat="43.85354" lon="7.23705">
        <ele>569.72</ele>
        <time>2021-05-08T14:13:53Z</time>
      </trkpt>
      <trkpt lat="43.85354" lon="7.23693">
        <ele>569.24</ele>
        <time>2021-05-08T14:13:54Z</time>
      </trkpt>
      <trkpt lat="43.85353" lon="7.23682">
        <ele>568.28</ele>
        <time>2021-05-08T14:13:55Z</time>
      </trkpt>
      <trkpt lat="43.85351" lon="7.23647">
        <ele>566.35</ele>
        <time>2021-05-08T14:13:58Z</time>
      </trkpt>
      <trkpt lat="43.85351" lon="7.23625">
        <ele>563.95</ele>
        <time>2021-05-08T14:14:00Z</time>
      </trkpt>
      <trkpt lat="43.85352" lon="7.23613">
        <ele>562.99</ele>
        <time>2021-05-08T14:14:01Z</time>
      </trkpt>
      <trkpt lat="43.85354" lon="7.23601">
        <ele>562.03</ele>
        <time>2021-05-08T14:14:02Z</time>
      </trkpt>
      <trkpt lat="43.85358" lon="7.2358">
        <ele>560.11</ele>
        <time>2021-05-08T14:14:04Z</time>
      </trkpt>
      <trkpt lat="43.85361" lon="7.23571">
        <ele>559.14</ele>
        <time>2021-05-08T14:14:05Z</time>
      </trkpt>
      <trkpt lat="43.8538" lon="7.23519">
        <ele>555.78</ele>
        <time>2021-05-08T14:14:11Z</time>
      </trkpt>
      <trkpt lat="43.8539" lon="7.23494">
        <ele>554.34</ele>
        <time>2021-05-08T14:14:14Z</time>
      </trkpt>
      <trkpt lat="43.85394" lon="7.23487">
        <ele>554.34</ele>
        <time>2021-05-08T14:14:15Z</time>
      </trkpt>
      <trkpt lat="43.85431" lon="7.23433">
        <ele>551.45</ele>
        <time>2021-05-08T14:14:23Z</time>
      </trkpt>
      <trkpt lat="43.85435" lon="7.23429">
        <ele>550.97</ele>
        <time>2021-05-08T14:14:24Z</time>
      </trkpt>
      <trkpt lat="43.8544" lon="7.23426">
        <ele>550.97</ele>
        <time>2021-05-08T14:14:25Z</time>
      </trkpt>
      <trkpt lat="43.85444" lon="7.23424">
        <ele>550.97</ele>
        <time>2021-05-08T14:14:26Z</time>
      </trkpt>
      <trkpt lat="43.85449" lon="7.23422">
        <ele>550.49</ele>
        <time>2021-05-08T14:14:27Z</time>
      </trkpt>
      <trkpt lat="43.85483" lon="7.23405">
        <ele>548.09</ele>
        <time>2021-05-08T14:14:34Z</time>
      </trkpt>
      <trkpt lat="43.85486" lon="7.234">
        <ele>547.61</ele>
        <time>2021-05-08T14:14:35Z</time>
      </trkpt>
      <trkpt lat="43.85488" lon="7.23393">
        <ele>547.61</ele>
        <time>2021-05-08T14:14:36Z</time>
      </trkpt>
      <trkpt lat="43.85489" lon="7.23386">
        <ele>547.13</ele>
        <time>2021-05-08T14:14:37Z</time>
      </trkpt>
      <trkpt lat="43.85491" lon="7.23379">
        <ele>546.65</ele>
        <time>2021-05-08T14:14:38Z</time>
      </trkpt>
      <trkpt lat="43.85494" lon="7.23372">
        <ele>546.17</ele>
        <time>2021-05-08T14:14:39Z</time>
      </trkpt>
      <trkpt lat="43.85499" lon="7.23366">
        <ele>545.69</ele>
        <time>2021-05-08T14:14:40Z</time>
      </trkpt>
      <trkpt lat="43.85505" lon="7.23362">
        <ele>545.2</ele>
        <time>2021-05-08T14:14:41Z</time>
      </trkpt>
      <trkpt lat="43.85521" lon="7.2335">
        <ele>543.76</ele>
        <time>2021-05-08T14:14:44Z</time>
      </trkpt>
      <trkpt lat="43.85525" lon="7.23344">
        <ele>543.28</ele>
        <time>2021-05-08T14:14:45Z</time>
      </trkpt>
      <trkpt lat="43.85527" lon="7.23336">
        <ele>543.76</ele>
        <time>2021-05-08T14:14:46Z</time>
      </trkpt>
      <trkpt lat="43.85529" lon="7.23306">
        <ele>540.4</ele>
        <time>2021-05-08T14:14:50Z</time>
      </trkpt>
      <trkpt lat="43.8553" lon="7.23298">
        <ele>539.92</ele>
        <time>2021-05-08T14:14:51Z</time>
      </trkpt>
      <trkpt lat="43.85531" lon="7.2329">
        <ele>539.44</ele>
        <time>2021-05-08T14:14:52Z</time>
      </trkpt>
      <trkpt lat="43.85535" lon="7.23284">
        <ele>538.96</ele>
        <time>2021-05-08T14:14:53Z</time>
      </trkpt>
      <trkpt lat="43.8554" lon="7.23279">
        <ele>538.48</ele>
        <time>2021-05-08T14:14:54Z</time>
      </trkpt>
      <trkpt lat="43.85545" lon="7.23274">
        <ele>538.48</ele>
        <time>2021-05-08T14:14:55Z</time>
      </trkpt>
      <trkpt lat="43.85561" lon="7.2326">
        <ele>537.99</ele>
        <time>2021-05-08T14:14:58Z</time>
      </trkpt>
      <trkpt lat="43.85581" lon="7.23238">
        <ele>537.51</ele>
        <time>2021-05-08T14:15:02Z</time>
      </trkpt>
      <trkpt lat="43.85586" lon="7.23232">
        <ele>537.51</ele>
        <time>2021-05-08T14:15:03Z</time>
      </trkpt>
      <trkpt lat="43.85589" lon="7.23225">
        <ele>537.03</ele>
        <time>2021-05-08T14:15:04Z</time>
      </trkpt>
      <trkpt lat="43.85593" lon="7.23219">
        <ele>537.03</ele>
        <time>2021-05-08T14:15:05Z</time>
      </trkpt>
      <trkpt lat="43.85597" lon="7.23213">
        <ele>537.03</ele>
        <time>2021-05-08T14:15:06Z</time>
      </trkpt>
      <trkpt lat="43.85619" lon="7.23176">
        <ele>535.11</ele>
        <time>2021-05-08T14:15:12Z</time>
      </trkpt>
      <trkpt lat="43.85624" lon="7.23172">
        <ele>535.11</ele>
        <time>2021-05-08T14:15:13Z</time>
      </trkpt>
      <trkpt lat="43.8563" lon="7.23169">
        <ele>534.15</ele>
        <time>2021-05-08T14:15:14Z</time>
      </trkpt>
      <trkpt lat="43.85643" lon="7.23162">
        <ele>533.19</ele>
        <time>2021-05-08T14:15:16Z</time>
      </trkpt>
      <trkpt lat="43.85673" lon="7.2314">
        <ele>530.3</ele>
        <time>2021-05-08T14:15:21Z</time>
      </trkpt>
      <trkpt lat="43.85677" lon="7.23135">
        <ele>529.34</ele>
        <time>2021-05-08T14:15:22Z</time>
      </trkpt>
      <trkpt lat="43.8568" lon="7.23131">
        <ele>528.86</ele>
        <time>2021-05-08T14:15:23Z</time>
      </trkpt>
      <trkpt lat="43.85681" lon="7.23127">
        <ele>528.38</ele>
        <time>2021-05-08T14:15:24Z</time>
      </trkpt>
      <trkpt lat="43.85681" lon="7.23122">
        <ele>528.38</ele>
        <time>2021-05-08T14:15:25Z</time>
      </trkpt>
      <trkpt lat="43.85681" lon="7.23117">
        <ele>527.9</ele>
        <time>2021-05-08T14:15:26Z</time>
      </trkpt>
      <trkpt lat="43.85682" lon="7.23112">
        <ele>527.9</ele>
        <time>2021-05-08T14:15:27Z</time>
      </trkpt>
      <trkpt lat="43.85684" lon="7.23108">
        <ele>527.42</ele>
        <time>2021-05-08T14:15:28Z</time>
      </trkpt>
      <trkpt lat="43.85687" lon="7.23104">
        <ele>527.42</ele>
        <time>2021-05-08T14:15:29Z</time>
      </trkpt>
      <trkpt lat="43.8569" lon="7.23101">
        <ele>527.42</ele>
        <time>2021-05-08T14:15:30Z</time>
      </trkpt>
      <trkpt lat="43.85696" lon="7.23094">
        <ele>527.9</ele>
        <time>2021-05-08T14:15:32Z</time>
      </trkpt>
      <trkpt lat="43.85709" lon="7.23079">
        <ele>527.42</ele>
        <time>2021-05-08T14:15:36Z</time>
      </trkpt>
      <trkpt lat="43.85717" lon="7.23072">
        <ele>527.42</ele>
        <time>2021-05-08T14:15:38Z</time>
      </trkpt>
      <trkpt lat="43.85731" lon="7.23064">
        <ele>526.94</ele>
        <time>2021-05-08T14:15:41Z</time>
      </trkpt>
      <trkpt lat="43.8577" lon="7.23045">
        <ele>527.42</ele>
        <time>2021-05-08T14:15:49Z</time>
      </trkpt>
      <trkpt lat="43.85783" lon="7.2304">
        <ele>526.94</ele>
        <time>2021-05-08T14:15:52Z</time>
      </trkpt>
      <trkpt lat="43.85793" lon="7.2304">
        <ele>526.46</ele>
        <time>2021-05-08T14:15:54Z</time>
      </trkpt>
      <trkpt lat="43.85817" lon="7.23043">
        <ele>526.46</ele>
        <time>2021-05-08T14:15:59Z</time>
      </trkpt>
      <trkpt lat="43.85832" lon="7.23041">
        <ele>526.46</ele>
        <time>2021-05-08T14:16:02Z</time>
      </trkpt>
      <trkpt lat="43.85842" lon="7.23041">
        <ele>525.98</ele>
        <time>2021-05-08T14:16:04Z</time>
      </trkpt>
      <trkpt lat="43.85868" lon="7.23034">
        <ele>526.46</ele>
        <time>2021-05-08T14:16:09Z</time>
      </trkpt>
      <trkpt lat="43.85874" lon="7.23032">
        <ele>526.46</ele>
        <time>2021-05-08T14:16:10Z</time>
      </trkpt>
      <trkpt lat="43.8588" lon="7.2303">
        <ele>526.46</ele>
        <time>2021-05-08T14:16:11Z</time>
      </trkpt>
      <trkpt lat="43.85909" lon="7.23019">
        <ele>525.98</ele>
        <time>2021-05-08T14:16:16Z</time>
      </trkpt>
      <trkpt lat="43.85917" lon="7.2301">
        <ele>526.46</ele>
        <time>2021-05-08T14:16:18Z</time>
      </trkpt>
      <trkpt lat="43.85921" lon="7.23006">
        <ele>526.94</ele>
        <time>2021-05-08T14:16:19Z</time>
      </trkpt>
      <trkpt lat="43.85925" lon="7.23003">
        <ele>526.46</ele>
        <time>2021-05-08T14:16:20Z</time>
      </trkpt>
      <trkpt lat="43.85929" lon="7.22999">
        <ele>526.46</ele>
        <time>2021-05-08T14:16:21Z</time>
      </trkpt>
      <trkpt lat="43.85933" lon="7.22996">
        <ele>526.46</ele>
        <time>2021-05-08T14:16:22Z</time>
      </trkpt>
      <trkpt lat="43.85936" lon="7.22993">
        <ele>526.94</ele>
        <time>2021-05-08T14:16:23Z</time>
      </trkpt>
      <trkpt lat="43.85975" lon="7.22949">
        <ele>527.9</ele>
        <time>2021-05-08T14:16:36Z</time>
      </trkpt>
      <trkpt lat="43.86002" lon="7.22916">
        <ele>528.38</ele>
        <time>2021-05-08T14:16:48Z</time>
      </trkpt>
      <trkpt lat="43.86011" lon="7.229">
        <ele>528.86</ele>
        <time>2021-05-08T14:16:53Z</time>
      </trkpt>
      <trkpt lat="43.8601" lon="7.22897">
        <ele>529.34</ele>
        <time>2021-05-08T14:16:54Z</time>
      </trkpt>
      <trkpt lat="43.86009" lon="7.22895">
        <ele>529.34</ele>
        <time>2021-05-08T14:16:55Z</time>
      </trkpt>
      <trkpt lat="43.86008" lon="7.22893">
        <ele>529.34</ele>
        <time>2021-05-08T14:16:56Z</time>
      </trkpt>
      <trkpt lat="43.86009" lon="7.22891">
        <ele>529.34</ele>
        <time>2021-05-08T14:16:57Z</time>
      </trkpt>
      <trkpt lat="43.86011" lon="7.22882">
        <ele>529.82</ele>
        <time>2021-05-08T14:17:09Z</time>
      </trkpt>
    </trkseg>
  </trk>
</gpx>